<?xml version="1.0" encoding="UTF-8" standalone="no" ?>
<gpx xmlns="http://www.topografix.com/GPX/1/1" xmlns:xsi="http://www.w3.org/2001/XMLSchema-instance" xsi:schemaLocation="http://www.topografix.com/GPX/1/1 http://www.topografix.com/GPX/1/1/gpx.xsd" version="1.1" creator="VisuGPX - https://www.visugpx.com">
  <metadata>
    <name>Le tour de l'Ile de France - étape 7/30 De Rambouillet à Dourdan (78)</name>
    <desc><![CDATA[Randonnée de 22 km en ligne de la gare de Rambouillet à la gare de Dourdan]]></desc>
  </metadata>
  <trk>
    <name><![CDATA[7 De Rambouillet à Dourdan_R]]></name>
    <trkseg>
      <trkpt lat="48.64365" lon="1.83139">
        <ele>158.61</ele>
        <time>2017-07-02T06:47:54Z</time>
      </trkpt>
      <trkpt lat="48.64362" lon="1.83134">
        <ele>158.02</ele>
        <time>2017-07-02T06:48:15Z</time>
      </trkpt>
      <trkpt lat="48.64354" lon="1.83125">
        <ele>157.78</ele>
        <time>2017-07-02T06:48:23Z</time>
      </trkpt>
      <trkpt lat="48.64349" lon="1.83117">
        <ele>157.91</ele>
        <time>2017-07-02T06:48:31Z</time>
      </trkpt>
      <trkpt lat="48.64344" lon="1.83107">
        <ele>157.6</ele>
        <time>2017-07-02T06:48:40Z</time>
      </trkpt>
      <trkpt lat="48.64333" lon="1.83085">
        <ele>155.63</ele>
        <time>2017-07-02T06:48:58Z</time>
      </trkpt>
      <trkpt lat="48.64331" lon="1.83082">
        <ele>155.88</ele>
        <time>2017-07-02T06:49:01Z</time>
      </trkpt>
      <trkpt lat="48.64326" lon="1.83074">
        <ele>155.3</ele>
        <time>2017-07-02T06:49:06Z</time>
      </trkpt>
      <trkpt lat="48.64323" lon="1.83069">
        <ele>154.09</ele>
        <time>2017-07-02T06:49:09Z</time>
      </trkpt>
      <trkpt lat="48.64311" lon="1.8305">
        <ele>153.04</ele>
        <time>2017-07-02T06:49:24Z</time>
      </trkpt>
      <trkpt lat="48.64308" lon="1.83043">
        <ele>152.7</ele>
        <time>2017-07-02T06:49:29Z</time>
      </trkpt>
      <trkpt lat="48.64295" lon="1.83028">
        <ele>151.68</ele>
        <time>2017-07-02T06:49:43Z</time>
      </trkpt>
      <trkpt lat="48.64289" lon="1.83023">
        <ele>151.09</ele>
        <time>2017-07-02T06:49:49Z</time>
      </trkpt>
      <trkpt lat="48.64281" lon="1.83021">
        <ele>150.58</ele>
        <time>2017-07-02T06:49:56Z</time>
      </trkpt>
      <trkpt lat="48.64276" lon="1.8302">
        <ele>150.64</ele>
        <time>2017-07-02T06:50:02Z</time>
      </trkpt>
      <trkpt lat="48.64276" lon="1.83026">
        <ele>150.97</ele>
        <time>2017-07-02T06:50:06Z</time>
      </trkpt>
      <trkpt lat="48.64269" lon="1.83038">
        <ele>151.23</ele>
        <time>2017-07-02T06:50:34Z</time>
      </trkpt>
      <trkpt lat="48.64267" lon="1.83036">
        <ele>151.35</ele>
        <time>2017-07-02T06:50:57Z</time>
      </trkpt>
      <trkpt lat="48.6426" lon="1.83056">
        <ele>152.14</ele>
        <time>2017-07-02T06:51:17Z</time>
      </trkpt>
      <trkpt lat="48.64253" lon="1.83068">
        <ele>153</ele>
        <time>2017-07-02T06:51:31Z</time>
      </trkpt>
      <trkpt lat="48.64244" lon="1.8308">
        <ele>152.72</ele>
        <time>2017-07-02T06:51:40Z</time>
      </trkpt>
      <trkpt lat="48.64232" lon="1.83095">
        <ele>154.04</ele>
        <time>2017-07-02T06:51:53Z</time>
      </trkpt>
      <trkpt lat="48.64218" lon="1.83114">
        <ele>155.53</ele>
        <time>2017-07-02T06:52:12Z</time>
      </trkpt>
      <trkpt lat="48.64206" lon="1.83129">
        <ele>156.14</ele>
        <time>2017-07-02T06:52:26Z</time>
      </trkpt>
      <trkpt lat="48.64201" lon="1.83138">
        <ele>155.16</ele>
        <time>2017-07-02T06:52:35Z</time>
      </trkpt>
      <trkpt lat="48.64198" lon="1.83143">
        <ele>158.91</ele>
        <time>2017-07-02T06:52:38Z</time>
      </trkpt>
      <trkpt lat="48.64185" lon="1.83166">
        <ele>158.69</ele>
        <time>2017-07-02T06:52:57Z</time>
      </trkpt>
      <trkpt lat="48.64175" lon="1.83183">
        <ele>159.1</ele>
        <time>2017-07-02T06:53:17Z</time>
      </trkpt>
      <trkpt lat="48.64167" lon="1.83195">
        <ele>160.21</ele>
        <time>2017-07-02T06:53:32Z</time>
      </trkpt>
      <trkpt lat="48.64154" lon="1.83218">
        <ele>160.48</ele>
        <time>2017-07-02T06:53:48Z</time>
      </trkpt>
      <trkpt lat="48.64148" lon="1.83228">
        <ele>161.03</ele>
        <time>2017-07-02T06:53:59Z</time>
      </trkpt>
      <trkpt lat="48.64137" lon="1.83248">
        <ele>161.13</ele>
        <time>2017-07-02T06:54:13Z</time>
      </trkpt>
      <trkpt lat="48.6411" lon="1.83287">
        <ele>161.39</ele>
        <time>2017-07-02T06:54:39Z</time>
      </trkpt>
      <trkpt lat="48.6409" lon="1.83318">
        <ele>161.2</ele>
        <time>2017-07-02T06:55:01Z</time>
      </trkpt>
      <trkpt lat="48.64073" lon="1.83344">
        <ele>161.46</ele>
        <time>2017-07-02T06:55:24Z</time>
      </trkpt>
      <trkpt lat="48.6406" lon="1.83363">
        <ele>161.43</ele>
        <time>2017-07-02T06:55:42Z</time>
      </trkpt>
      <trkpt lat="48.64046" lon="1.83387">
        <ele>161.02</ele>
        <time>2017-07-02T06:56:00Z</time>
      </trkpt>
      <trkpt lat="48.64024" lon="1.83426">
        <ele>161.29</ele>
        <time>2017-07-02T06:56:25Z</time>
      </trkpt>
      <trkpt lat="48.64013" lon="1.83446">
        <ele>161.96</ele>
        <time>2017-07-02T06:56:39Z</time>
      </trkpt>
      <trkpt lat="48.63992" lon="1.83471">
        <ele>161.49</ele>
        <time>2017-07-02T06:57:01Z</time>
      </trkpt>
      <trkpt lat="48.63974" lon="1.83499">
        <ele>161.66</ele>
        <time>2017-07-02T06:57:19Z</time>
      </trkpt>
      <trkpt lat="48.63971" lon="1.83511">
        <ele>161.34</ele>
        <time>2017-07-02T06:57:33Z</time>
      </trkpt>
      <trkpt lat="48.63968" lon="1.83518">
        <ele>162.56</ele>
        <time>2017-07-02T06:57:38Z</time>
      </trkpt>
      <trkpt lat="48.63967" lon="1.83522">
        <ele>161.82</ele>
        <time>2017-07-02T06:57:40Z</time>
      </trkpt>
      <trkpt lat="48.63941" lon="1.83563">
        <ele>162.01</ele>
        <time>2017-07-02T06:58:03Z</time>
      </trkpt>
      <trkpt lat="48.63928" lon="1.83577">
        <ele>163.31</ele>
        <time>2017-07-02T06:58:17Z</time>
      </trkpt>
      <trkpt lat="48.63925" lon="1.8358">
        <ele>163.22</ele>
        <time>2017-07-02T06:58:20Z</time>
      </trkpt>
      <trkpt lat="48.639" lon="1.83609">
        <ele>163.5</ele>
        <time>2017-07-02T06:58:48Z</time>
      </trkpt>
      <trkpt lat="48.63886" lon="1.83634">
        <ele>163.54</ele>
        <time>2017-07-02T06:59:05Z</time>
      </trkpt>
      <trkpt lat="48.63873" lon="1.83663">
        <ele>163.52</ele>
        <time>2017-07-02T06:59:23Z</time>
      </trkpt>
      <trkpt lat="48.63857" lon="1.83689">
        <ele>163.59</ele>
        <time>2017-07-02T06:59:42Z</time>
      </trkpt>
      <trkpt lat="48.63848" lon="1.8371">
        <ele>163.3</ele>
        <time>2017-07-02T06:59:57Z</time>
      </trkpt>
      <trkpt lat="48.63837" lon="1.83728">
        <ele>162.6</ele>
        <time>2017-07-02T07:00:11Z</time>
      </trkpt>
      <trkpt lat="48.63831" lon="1.83741">
        <ele>162.97</ele>
        <time>2017-07-02T07:00:20Z</time>
      </trkpt>
      <trkpt lat="48.63819" lon="1.83769">
        <ele>161.42</ele>
        <time>2017-07-02T07:00:39Z</time>
      </trkpt>
      <trkpt lat="48.63809" lon="1.83787">
        <ele>160.59</ele>
        <time>2017-07-02T07:00:51Z</time>
      </trkpt>
      <trkpt lat="48.63803" lon="1.83792">
        <ele>160.64</ele>
        <time>2017-07-02T07:00:57Z</time>
      </trkpt>
      <trkpt lat="48.63799" lon="1.83809">
        <ele>160.71</ele>
        <time>2017-07-02T07:01:08Z</time>
      </trkpt>
      <trkpt lat="48.63782" lon="1.83836">
        <ele>161.8</ele>
        <time>2017-07-02T07:01:24Z</time>
      </trkpt>
      <trkpt lat="48.6377" lon="1.83845">
        <ele>162.53</ele>
        <time>2017-07-02T07:01:35Z</time>
      </trkpt>
      <trkpt lat="48.63766" lon="1.83849">
        <ele>162.08</ele>
        <time>2017-07-02T07:01:40Z</time>
      </trkpt>
      <trkpt lat="48.63746" lon="1.83848">
        <ele>162.2</ele>
        <time>2017-07-02T07:01:58Z</time>
      </trkpt>
      <trkpt lat="48.63723" lon="1.83847">
        <ele>162.11</ele>
        <time>2017-07-02T07:02:16Z</time>
      </trkpt>
      <trkpt lat="48.63711" lon="1.83837">
        <ele>162.51</ele>
        <time>2017-07-02T07:02:35Z</time>
      </trkpt>
      <trkpt lat="48.6371" lon="1.83835">
        <ele>162.71</ele>
        <time>2017-07-02T07:02:37Z</time>
      </trkpt>
      <trkpt lat="48.63708" lon="1.83832">
        <ele>162.21</ele>
        <time>2017-07-02T07:02:39Z</time>
      </trkpt>
      <trkpt lat="48.63693" lon="1.83808">
        <ele>162.69</ele>
        <time>2017-07-02T07:02:57Z</time>
      </trkpt>
      <trkpt lat="48.63678" lon="1.83785">
        <ele>162.67</ele>
        <time>2017-07-02T07:03:15Z</time>
      </trkpt>
      <trkpt lat="48.63664" lon="1.83764">
        <ele>163.24</ele>
        <time>2017-07-02T07:03:31Z</time>
      </trkpt>
      <trkpt lat="48.63661" lon="1.8376">
        <ele>163.41</ele>
        <time>2017-07-02T07:03:34Z</time>
      </trkpt>
      <trkpt lat="48.63646" lon="1.83739">
        <ele>163.84</ele>
        <time>2017-07-02T07:03:51Z</time>
      </trkpt>
      <trkpt lat="48.63639" lon="1.83728">
        <ele>164.25</ele>
        <time>2017-07-02T07:03:59Z</time>
      </trkpt>
      <trkpt lat="48.63628" lon="1.83711">
        <ele>163.97</ele>
        <time>2017-07-02T07:04:13Z</time>
      </trkpt>
      <trkpt lat="48.63612" lon="1.83694">
        <ele>164.7</ele>
        <time>2017-07-02T07:04:30Z</time>
      </trkpt>
      <trkpt lat="48.63592" lon="1.83675">
        <ele>164.67</ele>
        <time>2017-07-02T07:04:48Z</time>
      </trkpt>
      <trkpt lat="48.63581" lon="1.8367">
        <ele>164.1</ele>
        <time>2017-07-02T07:04:58Z</time>
      </trkpt>
      <trkpt lat="48.6356" lon="1.83653">
        <ele>164.56</ele>
        <time>2017-07-02T07:05:16Z</time>
      </trkpt>
      <trkpt lat="48.63548" lon="1.83645">
        <ele>164.04</ele>
        <time>2017-07-02T07:05:30Z</time>
      </trkpt>
      <trkpt lat="48.63545" lon="1.83661">
        <ele>163.62</ele>
        <time>2017-07-02T07:05:44Z</time>
      </trkpt>
      <trkpt lat="48.63547" lon="1.83675">
        <ele>163.84</ele>
        <time>2017-07-02T07:05:56Z</time>
      </trkpt>
      <trkpt lat="48.63546" lon="1.83715">
        <ele>163.09</ele>
        <time>2017-07-02T07:06:21Z</time>
      </trkpt>
      <trkpt lat="48.63539" lon="1.83743">
        <ele>162.28</ele>
        <time>2017-07-02T07:06:35Z</time>
      </trkpt>
      <trkpt lat="48.63524" lon="1.83763">
        <ele>162.15</ele>
        <time>2017-07-02T07:06:57Z</time>
      </trkpt>
      <trkpt lat="48.63511" lon="1.83783">
        <ele>162.09</ele>
        <time>2017-07-02T07:07:14Z</time>
      </trkpt>
      <trkpt lat="48.63505" lon="1.838">
        <ele>161.65</ele>
        <time>2017-07-02T07:07:28Z</time>
      </trkpt>
      <trkpt lat="48.63499" lon="1.83809">
        <ele>161.41</ele>
        <time>2017-07-02T07:07:40Z</time>
      </trkpt>
      <trkpt lat="48.63498" lon="1.83809">
        <ele>161.03</ele>
        <time>2017-07-02T07:07:43Z</time>
      </trkpt>
      <trkpt lat="48.63485" lon="1.83845">
        <ele>160.66</ele>
        <time>2017-07-02T07:08:03Z</time>
      </trkpt>
      <trkpt lat="48.63483" lon="1.83853">
        <ele>160.32</ele>
        <time>2017-07-02T07:08:09Z</time>
      </trkpt>
      <trkpt lat="48.63476" lon="1.8387">
        <ele>159.57</ele>
        <time>2017-07-02T07:08:21Z</time>
      </trkpt>
      <trkpt lat="48.63474" lon="1.83874">
        <ele>159.79</ele>
        <time>2017-07-02T07:08:24Z</time>
      </trkpt>
      <trkpt lat="48.63463" lon="1.83881">
        <ele>159.84</ele>
        <time>2017-07-02T07:08:31Z</time>
      </trkpt>
      <trkpt lat="48.6345" lon="1.83893">
        <ele>159.74</ele>
        <time>2017-07-02T07:08:40Z</time>
      </trkpt>
      <trkpt lat="48.63435" lon="1.83906">
        <ele>159.75</ele>
        <time>2017-07-02T07:08:54Z</time>
      </trkpt>
      <trkpt lat="48.63432" lon="1.83907">
        <ele>159.26</ele>
        <time>2017-07-02T07:08:58Z</time>
      </trkpt>
      <trkpt lat="48.63417" lon="1.83923">
        <ele>159.5</ele>
        <time>2017-07-02T07:09:14Z</time>
      </trkpt>
      <trkpt lat="48.63409" lon="1.83933">
        <ele>158.49</ele>
        <time>2017-07-02T07:09:26Z</time>
      </trkpt>
      <trkpt lat="48.634" lon="1.83944">
        <ele>158.67</ele>
        <time>2017-07-02T07:09:37Z</time>
      </trkpt>
      <trkpt lat="48.63389" lon="1.83954">
        <ele>159</ele>
        <time>2017-07-02T07:09:48Z</time>
      </trkpt>
      <trkpt lat="48.63367" lon="1.8397">
        <ele>158.53</ele>
        <time>2017-07-02T07:10:07Z</time>
      </trkpt>
      <trkpt lat="48.63352" lon="1.83977">
        <ele>158.32</ele>
        <time>2017-07-02T07:10:17Z</time>
      </trkpt>
      <trkpt lat="48.63347" lon="1.83977">
        <ele>158.19</ele>
        <time>2017-07-02T07:10:22Z</time>
      </trkpt>
      <trkpt lat="48.63327" lon="1.83985">
        <ele>158.07</ele>
        <time>2017-07-02T07:10:36Z</time>
      </trkpt>
      <trkpt lat="48.63317" lon="1.83986">
        <ele>157.74</ele>
        <time>2017-07-02T07:10:48Z</time>
      </trkpt>
      <trkpt lat="48.63297" lon="1.83985">
        <ele>157.69</ele>
        <time>2017-07-02T07:11:01Z</time>
      </trkpt>
      <trkpt lat="48.63262" lon="1.84004">
        <ele>156.63</ele>
        <time>2017-07-02T07:11:27Z</time>
      </trkpt>
      <trkpt lat="48.63255" lon="1.84011">
        <ele>156.07</ele>
        <time>2017-07-02T07:11:33Z</time>
      </trkpt>
      <trkpt lat="48.63245" lon="1.84017">
        <ele>155.41</ele>
        <time>2017-07-02T07:11:46Z</time>
      </trkpt>
      <trkpt lat="48.63231" lon="1.84026">
        <ele>155.18</ele>
        <time>2017-07-02T07:11:58Z</time>
      </trkpt>
      <trkpt lat="48.63214" lon="1.84037">
        <ele>154.93</ele>
        <time>2017-07-02T07:12:11Z</time>
      </trkpt>
      <trkpt lat="48.63205" lon="1.84038">
        <ele>155.13</ele>
        <time>2017-07-02T07:12:19Z</time>
      </trkpt>
      <trkpt lat="48.63195" lon="1.84046">
        <ele>155.17</ele>
        <time>2017-07-02T07:12:24Z</time>
      </trkpt>
      <trkpt lat="48.63185" lon="1.84051">
        <ele>154.49</ele>
        <time>2017-07-02T07:12:35Z</time>
      </trkpt>
      <trkpt lat="48.63181" lon="1.84052">
        <ele>154.18</ele>
        <time>2017-07-02T07:12:38Z</time>
      </trkpt>
      <trkpt lat="48.63177" lon="1.84052">
        <ele>154.07</ele>
        <time>2017-07-02T07:12:44Z</time>
      </trkpt>
      <trkpt lat="48.63174" lon="1.84054">
        <ele>154.07</ele>
        <time>2017-07-02T07:12:46Z</time>
      </trkpt>
      <trkpt lat="48.63166" lon="1.84057">
        <ele>154.15</ele>
        <time>2017-07-02T07:12:57Z</time>
      </trkpt>
      <trkpt lat="48.63155" lon="1.84058">
        <ele>153.77</ele>
        <time>2017-07-02T07:13:10Z</time>
      </trkpt>
      <trkpt lat="48.63153" lon="1.84059">
        <ele>153.95</ele>
        <time>2017-07-02T07:13:13Z</time>
      </trkpt>
      <trkpt lat="48.63144" lon="1.84068">
        <ele>154.23</ele>
        <time>2017-07-02T07:13:18Z</time>
      </trkpt>
      <trkpt lat="48.63124" lon="1.84077">
        <ele>153.98</ele>
        <time>2017-07-02T07:13:30Z</time>
      </trkpt>
      <trkpt lat="48.63109" lon="1.84081">
        <ele>153.05</ele>
        <time>2017-07-02T07:13:41Z</time>
      </trkpt>
      <trkpt lat="48.63106" lon="1.84103">
        <ele>153.04</ele>
        <time>2017-07-02T07:14:00Z</time>
      </trkpt>
      <trkpt lat="48.63106" lon="1.84118">
        <ele>153.58</ele>
        <time>2017-07-02T07:14:11Z</time>
      </trkpt>
      <trkpt lat="48.63108" lon="1.84118">
        <ele>153.6</ele>
        <time>2017-07-02T07:14:36Z</time>
      </trkpt>
      <trkpt lat="48.63107" lon="1.84126">
        <ele>153.16</ele>
        <time>2017-07-02T07:15:05Z</time>
      </trkpt>
      <trkpt lat="48.63106" lon="1.84127">
        <ele>153.23</ele>
        <time>2017-07-02T07:15:30Z</time>
      </trkpt>
      <trkpt lat="48.63108" lon="1.84135">
        <ele>152.71</ele>
        <time>2017-07-02T07:15:58Z</time>
      </trkpt>
      <trkpt lat="48.63108" lon="1.84133">
        <ele>152.73</ele>
        <time>2017-07-02T07:16:22Z</time>
      </trkpt>
      <trkpt lat="48.63104" lon="1.84133">
        <ele>153.33</ele>
        <time>2017-07-02T07:16:46Z</time>
      </trkpt>
      <trkpt lat="48.63104" lon="1.84132">
        <ele>152.57</ele>
        <time>2017-07-02T07:17:18Z</time>
      </trkpt>
      <trkpt lat="48.63105" lon="1.84134">
        <ele>152.82</ele>
        <time>2017-07-02T07:17:45Z</time>
      </trkpt>
      <trkpt lat="48.63102" lon="1.84133">
        <ele>152.55</ele>
        <time>2017-07-02T07:18:06Z</time>
      </trkpt>
      <trkpt lat="48.63105" lon="1.84127">
        <ele>152.73</ele>
        <time>2017-07-02T07:18:30Z</time>
      </trkpt>
      <trkpt lat="48.63088" lon="1.84142">
        <ele>151.24</ele>
        <time>2017-07-02T07:18:50Z</time>
      </trkpt>
      <trkpt lat="48.63077" lon="1.84151">
        <ele>150.85</ele>
        <time>2017-07-02T07:19:09Z</time>
      </trkpt>
      <trkpt lat="48.63055" lon="1.84158">
        <ele>150.98</ele>
        <time>2017-07-02T07:19:29Z</time>
      </trkpt>
      <trkpt lat="48.6304" lon="1.84174">
        <ele>150.49</ele>
        <time>2017-07-02T07:19:50Z</time>
      </trkpt>
      <trkpt lat="48.63021" lon="1.84201">
        <ele>150.14</ele>
        <time>2017-07-02T07:20:11Z</time>
      </trkpt>
      <trkpt lat="48.63" lon="1.84204">
        <ele>149.53</ele>
        <time>2017-07-02T07:20:33Z</time>
      </trkpt>
      <trkpt lat="48.62977" lon="1.84215">
        <ele>149.55</ele>
        <time>2017-07-02T07:20:56Z</time>
      </trkpt>
      <trkpt lat="48.62955" lon="1.84235">
        <ele>149.02</ele>
        <time>2017-07-02T07:21:17Z</time>
      </trkpt>
      <trkpt lat="48.62928" lon="1.8424">
        <ele>148.9</ele>
        <time>2017-07-02T07:21:38Z</time>
      </trkpt>
      <trkpt lat="48.62906" lon="1.84254">
        <ele>148.79</ele>
        <time>2017-07-02T07:21:55Z</time>
      </trkpt>
      <trkpt lat="48.62899" lon="1.8426">
        <ele>148.76</ele>
        <time>2017-07-02T07:22:00Z</time>
      </trkpt>
      <trkpt lat="48.62879" lon="1.84275">
        <ele>148.42</ele>
        <time>2017-07-02T07:22:20Z</time>
      </trkpt>
      <trkpt lat="48.62851" lon="1.84289">
        <ele>148.33</ele>
        <time>2017-07-02T07:22:42Z</time>
      </trkpt>
      <trkpt lat="48.62846" lon="1.84298">
        <ele>148.33</ele>
        <time>2017-07-02T07:22:50Z</time>
      </trkpt>
      <trkpt lat="48.62842" lon="1.84297">
        <ele>148.1</ele>
        <time>2017-07-02T07:23:10Z</time>
      </trkpt>
      <trkpt lat="48.62837" lon="1.84293">
        <ele>147.89</ele>
        <time>2017-07-02T07:23:32Z</time>
      </trkpt>
      <trkpt lat="48.62834" lon="1.84295">
        <ele>147.42</ele>
        <time>2017-07-02T07:24:00Z</time>
      </trkpt>
      <trkpt lat="48.62824" lon="1.8429">
        <ele>147.57</ele>
        <time>2017-07-02T07:24:11Z</time>
      </trkpt>
      <trkpt lat="48.62805" lon="1.84276">
        <ele>147.41</ele>
        <time>2017-07-02T07:24:31Z</time>
      </trkpt>
      <trkpt lat="48.62782" lon="1.84254">
        <ele>147.43</ele>
        <time>2017-07-02T07:24:53Z</time>
      </trkpt>
      <trkpt lat="48.62763" lon="1.84244">
        <ele>147.79</ele>
        <time>2017-07-02T07:25:13Z</time>
      </trkpt>
      <trkpt lat="48.62742" lon="1.84231">
        <ele>147.77</ele>
        <time>2017-07-02T07:25:32Z</time>
      </trkpt>
      <trkpt lat="48.62731" lon="1.84209">
        <ele>147.93</ele>
        <time>2017-07-02T07:25:54Z</time>
      </trkpt>
      <trkpt lat="48.62723" lon="1.84188">
        <ele>148.64</ele>
        <time>2017-07-02T07:26:14Z</time>
      </trkpt>
      <trkpt lat="48.62714" lon="1.84164">
        <ele>148.66</ele>
        <time>2017-07-02T07:26:33Z</time>
      </trkpt>
      <trkpt lat="48.62699" lon="1.84168">
        <ele>148.22</ele>
        <time>2017-07-02T07:27:08Z</time>
      </trkpt>
      <trkpt lat="48.62699" lon="1.8417">
        <ele>147.97</ele>
        <time>2017-07-02T07:27:10Z</time>
      </trkpt>
      <trkpt lat="48.62691" lon="1.84189">
        <ele>148.28</ele>
        <time>2017-07-02T07:27:23Z</time>
      </trkpt>
      <trkpt lat="48.62683" lon="1.84219">
        <ele>147.87</ele>
        <time>2017-07-02T07:27:43Z</time>
      </trkpt>
      <trkpt lat="48.62676" lon="1.84243">
        <ele>147.78</ele>
        <time>2017-07-02T07:27:57Z</time>
      </trkpt>
      <trkpt lat="48.62675" lon="1.84251">
        <ele>148.17</ele>
        <time>2017-07-02T07:28:01Z</time>
      </trkpt>
      <trkpt lat="48.62669" lon="1.8426">
        <ele>148.13</ele>
        <time>2017-07-02T07:28:08Z</time>
      </trkpt>
      <trkpt lat="48.62667" lon="1.84267">
        <ele>148.19</ele>
        <time>2017-07-02T07:28:12Z</time>
      </trkpt>
      <trkpt lat="48.6266" lon="1.84284">
        <ele>148.07</ele>
        <time>2017-07-02T07:28:22Z</time>
      </trkpt>
      <trkpt lat="48.62659" lon="1.8429">
        <ele>147.37</ele>
        <time>2017-07-02T07:28:26Z</time>
      </trkpt>
      <trkpt lat="48.62648" lon="1.84317">
        <ele>147.36</ele>
        <time>2017-07-02T07:28:42Z</time>
      </trkpt>
      <trkpt lat="48.6264" lon="1.84342">
        <ele>147.83</ele>
        <time>2017-07-02T07:28:56Z</time>
      </trkpt>
      <trkpt lat="48.62634" lon="1.84364">
        <ele>148.24</ele>
        <time>2017-07-02T07:29:11Z</time>
      </trkpt>
      <trkpt lat="48.62637" lon="1.8437">
        <ele>148.64</ele>
        <time>2017-07-02T07:29:18Z</time>
      </trkpt>
      <trkpt lat="48.62623" lon="1.84382">
        <ele>149.97</ele>
        <time>2017-07-02T07:29:38Z</time>
      </trkpt>
      <trkpt lat="48.62603" lon="1.84378">
        <ele>149.77</ele>
        <time>2017-07-02T07:29:59Z</time>
      </trkpt>
      <trkpt lat="48.6259" lon="1.84378">
        <ele>149.42</ele>
        <time>2017-07-02T07:30:12Z</time>
      </trkpt>
      <trkpt lat="48.62574" lon="1.84388">
        <ele>150.52</ele>
        <time>2017-07-02T07:30:38Z</time>
      </trkpt>
      <trkpt lat="48.62567" lon="1.84386">
        <ele>149.86</ele>
        <time>2017-07-02T07:30:46Z</time>
      </trkpt>
      <trkpt lat="48.62545" lon="1.84381">
        <ele>149</ele>
        <time>2017-07-02T07:31:00Z</time>
      </trkpt>
      <trkpt lat="48.62527" lon="1.8437">
        <ele>149.04</ele>
        <time>2017-07-02T07:31:17Z</time>
      </trkpt>
      <trkpt lat="48.6252" lon="1.84368">
        <ele>148.69</ele>
        <time>2017-07-02T07:31:27Z</time>
      </trkpt>
      <trkpt lat="48.6252" lon="1.84368">
        <ele>148.89</ele>
        <time>2017-07-02T07:31:28Z</time>
      </trkpt>
      <trkpt lat="48.62516" lon="1.84369">
        <ele>149.14</ele>
        <time>2017-07-02T07:31:31Z</time>
      </trkpt>
      <trkpt lat="48.62495" lon="1.84374">
        <ele>148.33</ele>
        <time>2017-07-02T07:31:51Z</time>
      </trkpt>
      <trkpt lat="48.62473" lon="1.84369">
        <ele>148.46</ele>
        <time>2017-07-02T07:32:04Z</time>
      </trkpt>
      <trkpt lat="48.62459" lon="1.84373">
        <ele>148.32</ele>
        <time>2017-07-02T07:32:20Z</time>
      </trkpt>
      <trkpt lat="48.6245" lon="1.84374">
        <ele>147.44</ele>
        <time>2017-07-02T07:32:32Z</time>
      </trkpt>
      <trkpt lat="48.62442" lon="1.84377">
        <ele>147.41</ele>
        <time>2017-07-02T07:32:45Z</time>
      </trkpt>
      <trkpt lat="48.62433" lon="1.84376">
        <ele>147.15</ele>
        <time>2017-07-02T07:32:57Z</time>
      </trkpt>
      <trkpt lat="48.62428" lon="1.84376">
        <ele>146.75</ele>
        <time>2017-07-02T07:33:04Z</time>
      </trkpt>
      <trkpt lat="48.62421" lon="1.84374">
        <ele>145.73</ele>
        <time>2017-07-02T07:33:15Z</time>
      </trkpt>
      <trkpt lat="48.62404" lon="1.84375">
        <ele>144.94</ele>
        <time>2017-07-02T07:33:28Z</time>
      </trkpt>
      <trkpt lat="48.62402" lon="1.84376">
        <ele>145.08</ele>
        <time>2017-07-02T07:33:31Z</time>
      </trkpt>
      <trkpt lat="48.62398" lon="1.84377">
        <ele>145.01</ele>
        <time>2017-07-02T07:33:34Z</time>
      </trkpt>
      <trkpt lat="48.62393" lon="1.8438">
        <ele>145.51</ele>
        <time>2017-07-02T07:33:43Z</time>
      </trkpt>
      <trkpt lat="48.62374" lon="1.84385">
        <ele>146.89</ele>
        <time>2017-07-02T07:34:02Z</time>
      </trkpt>
      <trkpt lat="48.62346" lon="1.84403">
        <ele>147.07</ele>
        <time>2017-07-02T07:34:15Z</time>
      </trkpt>
      <trkpt lat="48.62324" lon="1.84414">
        <ele>148.2</ele>
        <time>2017-07-02T07:34:35Z</time>
      </trkpt>
      <trkpt lat="48.62309" lon="1.84426">
        <ele>148.23</ele>
        <time>2017-07-02T07:35:01Z</time>
      </trkpt>
      <trkpt lat="48.62292" lon="1.84434">
        <ele>148.15</ele>
        <time>2017-07-02T07:35:17Z</time>
      </trkpt>
      <trkpt lat="48.62287" lon="1.84435">
        <ele>148.46</ele>
        <time>2017-07-02T07:35:20Z</time>
      </trkpt>
      <trkpt lat="48.62265" lon="1.84445">
        <ele>148.67</ele>
        <time>2017-07-02T07:35:32Z</time>
      </trkpt>
      <trkpt lat="48.62257" lon="1.84448">
        <ele>147.85</ele>
        <time>2017-07-02T07:35:39Z</time>
      </trkpt>
      <trkpt lat="48.62244" lon="1.84457">
        <ele>148.09</ele>
        <time>2017-07-02T07:35:54Z</time>
      </trkpt>
      <trkpt lat="48.62225" lon="1.84471">
        <ele>147.96</ele>
        <time>2017-07-02T07:36:07Z</time>
      </trkpt>
      <trkpt lat="48.62204" lon="1.84478">
        <ele>148.32</ele>
        <time>2017-07-02T07:36:26Z</time>
      </trkpt>
      <trkpt lat="48.6219" lon="1.84481">
        <ele>147.96</ele>
        <time>2017-07-02T07:36:42Z</time>
      </trkpt>
      <trkpt lat="48.62173" lon="1.84488">
        <ele>147.87</ele>
        <time>2017-07-02T07:36:57Z</time>
      </trkpt>
      <trkpt lat="48.62172" lon="1.84489">
        <ele>148.42</ele>
        <time>2017-07-02T07:36:58Z</time>
      </trkpt>
      <trkpt lat="48.6216" lon="1.84487">
        <ele>147.66</ele>
        <time>2017-07-02T07:37:08Z</time>
      </trkpt>
      <trkpt lat="48.62159" lon="1.84481">
        <ele>148.24</ele>
        <time>2017-07-02T07:37:36Z</time>
      </trkpt>
      <trkpt lat="48.62155" lon="1.84494">
        <ele>147.69</ele>
        <time>2017-07-02T07:37:59Z</time>
      </trkpt>
      <trkpt lat="48.62155" lon="1.84495">
        <ele>147.77</ele>
        <time>2017-07-02T07:38:00Z</time>
      </trkpt>
      <trkpt lat="48.62153" lon="1.84511">
        <ele>148.08</ele>
        <time>2017-07-02T07:38:20Z</time>
      </trkpt>
      <trkpt lat="48.62152" lon="1.8451">
        <ele>147.43</ele>
        <time>2017-07-02T07:38:25Z</time>
      </trkpt>
      <trkpt lat="48.62145" lon="1.84513">
        <ele>148.17</ele>
        <time>2017-07-02T07:38:53Z</time>
      </trkpt>
      <trkpt lat="48.62148" lon="1.84517">
        <ele>148.05</ele>
        <time>2017-07-02T07:39:23Z</time>
      </trkpt>
      <trkpt lat="48.62146" lon="1.8453">
        <ele>148.59</ele>
        <time>2017-07-02T07:39:41Z</time>
      </trkpt>
      <trkpt lat="48.62135" lon="1.84549">
        <ele>148.37</ele>
        <time>2017-07-02T07:39:59Z</time>
      </trkpt>
      <trkpt lat="48.62129" lon="1.84562">
        <ele>148.59</ele>
        <time>2017-07-02T07:40:09Z</time>
      </trkpt>
      <trkpt lat="48.62121" lon="1.84578">
        <ele>149.25</ele>
        <time>2017-07-02T07:40:18Z</time>
      </trkpt>
      <trkpt lat="48.62118" lon="1.84587">
        <ele>148.76</ele>
        <time>2017-07-02T07:40:24Z</time>
      </trkpt>
      <trkpt lat="48.62111" lon="1.84603">
        <ele>148.8</ele>
        <time>2017-07-02T07:40:34Z</time>
      </trkpt>
      <trkpt lat="48.62098" lon="1.84632">
        <ele>149.03</ele>
        <time>2017-07-02T07:40:51Z</time>
      </trkpt>
      <trkpt lat="48.62094" lon="1.84644">
        <ele>149.47</ele>
        <time>2017-07-02T07:41:02Z</time>
      </trkpt>
      <trkpt lat="48.62082" lon="1.84672">
        <ele>149.67</ele>
        <time>2017-07-02T07:41:19Z</time>
      </trkpt>
      <trkpt lat="48.62074" lon="1.84689">
        <ele>149.54</ele>
        <time>2017-07-02T07:41:32Z</time>
      </trkpt>
      <trkpt lat="48.62073" lon="1.8469">
        <ele>149.44</ele>
        <time>2017-07-02T07:41:33Z</time>
      </trkpt>
      <trkpt lat="48.62059" lon="1.84719">
        <ele>149.77</ele>
        <time>2017-07-02T07:41:55Z</time>
      </trkpt>
      <trkpt lat="48.62054" lon="1.84738">
        <ele>150.6</ele>
        <time>2017-07-02T07:42:07Z</time>
      </trkpt>
      <trkpt lat="48.62048" lon="1.84761">
        <ele>150.47</ele>
        <time>2017-07-02T07:42:21Z</time>
      </trkpt>
      <trkpt lat="48.62043" lon="1.84782">
        <ele>149.98</ele>
        <time>2017-07-02T07:42:36Z</time>
      </trkpt>
      <trkpt lat="48.62046" lon="1.84787">
        <ele>150.91</ele>
        <time>2017-07-02T07:42:39Z</time>
      </trkpt>
      <trkpt lat="48.62044" lon="1.84808">
        <ele>151.2</ele>
        <time>2017-07-02T07:42:58Z</time>
      </trkpt>
      <trkpt lat="48.62041" lon="1.84825">
        <ele>150.83</ele>
        <time>2017-07-02T07:43:10Z</time>
      </trkpt>
      <trkpt lat="48.6203" lon="1.84845">
        <ele>150.95</ele>
        <time>2017-07-02T07:43:23Z</time>
      </trkpt>
      <trkpt lat="48.62024" lon="1.84862">
        <ele>150.54</ele>
        <time>2017-07-02T07:43:34Z</time>
      </trkpt>
      <trkpt lat="48.62022" lon="1.84865">
        <ele>151.29</ele>
        <time>2017-07-02T07:43:35Z</time>
      </trkpt>
      <trkpt lat="48.62012" lon="1.84892">
        <ele>150.65</ele>
        <time>2017-07-02T07:43:51Z</time>
      </trkpt>
      <trkpt lat="48.62002" lon="1.8491">
        <ele>151.42</ele>
        <time>2017-07-02T07:44:02Z</time>
      </trkpt>
      <trkpt lat="48.61999" lon="1.84915">
        <ele>151.42</ele>
        <time>2017-07-02T07:44:04Z</time>
      </trkpt>
      <trkpt lat="48.61997" lon="1.84918">
        <ele>151.4</ele>
        <time>2017-07-02T07:44:07Z</time>
      </trkpt>
      <trkpt lat="48.61988" lon="1.84932">
        <ele>151.31</ele>
        <time>2017-07-02T07:44:18Z</time>
      </trkpt>
      <trkpt lat="48.61984" lon="1.84945">
        <ele>151.64</ele>
        <time>2017-07-02T07:44:28Z</time>
      </trkpt>
      <trkpt lat="48.61981" lon="1.84952">
        <ele>151.62</ele>
        <time>2017-07-02T07:44:34Z</time>
      </trkpt>
      <trkpt lat="48.61981" lon="1.84959">
        <ele>151.9</ele>
        <time>2017-07-02T07:44:40Z</time>
      </trkpt>
      <trkpt lat="48.61978" lon="1.84977">
        <ele>151.88</ele>
        <time>2017-07-02T07:44:51Z</time>
      </trkpt>
      <trkpt lat="48.61972" lon="1.84994">
        <ele>151.72</ele>
        <time>2017-07-02T07:45:01Z</time>
      </trkpt>
      <trkpt lat="48.61967" lon="1.85">
        <ele>151.91</ele>
        <time>2017-07-02T07:45:06Z</time>
      </trkpt>
      <trkpt lat="48.61956" lon="1.85007">
        <ele>151.71</ele>
        <time>2017-07-02T07:45:20Z</time>
      </trkpt>
      <trkpt lat="48.61953" lon="1.85016">
        <ele>151.91</ele>
        <time>2017-07-02T07:45:30Z</time>
      </trkpt>
      <trkpt lat="48.61952" lon="1.85023">
        <ele>151.72</ele>
        <time>2017-07-02T07:45:41Z</time>
      </trkpt>
      <trkpt lat="48.6195" lon="1.85025">
        <ele>152.2</ele>
        <time>2017-07-02T07:45:43Z</time>
      </trkpt>
      <trkpt lat="48.61942" lon="1.85041">
        <ele>151.95</ele>
        <time>2017-07-02T07:45:58Z</time>
      </trkpt>
      <trkpt lat="48.61936" lon="1.85054">
        <ele>152.27</ele>
        <time>2017-07-02T07:46:10Z</time>
      </trkpt>
      <trkpt lat="48.61929" lon="1.8507">
        <ele>151.68</ele>
        <time>2017-07-02T07:46:19Z</time>
      </trkpt>
      <trkpt lat="48.61922" lon="1.85091">
        <ele>152.18</ele>
        <time>2017-07-02T07:46:32Z</time>
      </trkpt>
      <trkpt lat="48.61916" lon="1.85106">
        <ele>151.98</ele>
        <time>2017-07-02T07:46:40Z</time>
      </trkpt>
      <trkpt lat="48.61911" lon="1.85119">
        <ele>152.07</ele>
        <time>2017-07-02T07:46:51Z</time>
      </trkpt>
      <trkpt lat="48.61901" lon="1.85145">
        <ele>151.95</ele>
        <time>2017-07-02T07:47:04Z</time>
      </trkpt>
      <trkpt lat="48.61899" lon="1.85149">
        <ele>152.21</ele>
        <time>2017-07-02T07:47:06Z</time>
      </trkpt>
      <trkpt lat="48.6189" lon="1.8517">
        <ele>152.12</ele>
        <time>2017-07-02T07:47:17Z</time>
      </trkpt>
      <trkpt lat="48.61889" lon="1.85174">
        <ele>152.29</ele>
        <time>2017-07-02T07:47:20Z</time>
      </trkpt>
      <trkpt lat="48.61888" lon="1.85175">
        <ele>151.76</ele>
        <time>2017-07-02T07:47:22Z</time>
      </trkpt>
      <trkpt lat="48.61882" lon="1.85191">
        <ele>152.31</ele>
        <time>2017-07-02T07:47:30Z</time>
      </trkpt>
      <trkpt lat="48.61872" lon="1.85212">
        <ele>151.91</ele>
        <time>2017-07-02T07:47:41Z</time>
      </trkpt>
      <trkpt lat="48.61869" lon="1.85219">
        <ele>152.25</ele>
        <time>2017-07-02T07:47:45Z</time>
      </trkpt>
      <trkpt lat="48.61865" lon="1.85233">
        <ele>152.09</ele>
        <time>2017-07-02T07:47:54Z</time>
      </trkpt>
      <trkpt lat="48.61863" lon="1.85238">
        <ele>151.9</ele>
        <time>2017-07-02T07:47:57Z</time>
      </trkpt>
      <trkpt lat="48.61861" lon="1.85246">
        <ele>151.92</ele>
        <time>2017-07-02T07:48:04Z</time>
      </trkpt>
      <trkpt lat="48.61857" lon="1.85254">
        <ele>151.82</ele>
        <time>2017-07-02T07:48:10Z</time>
      </trkpt>
      <trkpt lat="48.61849" lon="1.8527">
        <ele>152.19</ele>
        <time>2017-07-02T07:48:19Z</time>
      </trkpt>
      <trkpt lat="48.6183" lon="1.85308">
        <ele>152.01</ele>
        <time>2017-07-02T07:48:44Z</time>
      </trkpt>
      <trkpt lat="48.61829" lon="1.85309">
        <ele>151.99</ele>
        <time>2017-07-02T07:48:45Z</time>
      </trkpt>
      <trkpt lat="48.61822" lon="1.85323">
        <ele>151.98</ele>
        <time>2017-07-02T07:48:58Z</time>
      </trkpt>
      <trkpt lat="48.6181" lon="1.85345">
        <ele>152.44</ele>
        <time>2017-07-02T07:49:14Z</time>
      </trkpt>
      <trkpt lat="48.61807" lon="1.85357">
        <ele>151.68</ele>
        <time>2017-07-02T07:49:23Z</time>
      </trkpt>
      <trkpt lat="48.61806" lon="1.85367">
        <ele>151.71</ele>
        <time>2017-07-02T07:49:30Z</time>
      </trkpt>
      <trkpt lat="48.618" lon="1.85385">
        <ele>151.43</ele>
        <time>2017-07-02T07:49:40Z</time>
      </trkpt>
      <trkpt lat="48.6179" lon="1.85411">
        <ele>151.81</ele>
        <time>2017-07-02T07:49:55Z</time>
      </trkpt>
      <trkpt lat="48.61789" lon="1.85412">
        <ele>151.79</ele>
        <time>2017-07-02T07:49:57Z</time>
      </trkpt>
      <trkpt lat="48.61771" lon="1.85455">
        <ele>152.24</ele>
        <time>2017-07-02T07:50:20Z</time>
      </trkpt>
      <trkpt lat="48.61763" lon="1.85475">
        <ele>152.1</ele>
        <time>2017-07-02T07:50:32Z</time>
      </trkpt>
      <trkpt lat="48.61756" lon="1.85491">
        <ele>152.41</ele>
        <time>2017-07-02T07:50:43Z</time>
      </trkpt>
      <trkpt lat="48.61756" lon="1.85493">
        <ele>151.81</ele>
        <time>2017-07-02T07:50:45Z</time>
      </trkpt>
      <trkpt lat="48.61749" lon="1.85514">
        <ele>152.01</ele>
        <time>2017-07-02T07:50:55Z</time>
      </trkpt>
      <trkpt lat="48.61745" lon="1.85523">
        <ele>152.01</ele>
        <time>2017-07-02T07:51:00Z</time>
      </trkpt>
      <trkpt lat="48.61739" lon="1.8554">
        <ele>151.94</ele>
        <time>2017-07-02T07:51:13Z</time>
      </trkpt>
      <trkpt lat="48.61735" lon="1.85546">
        <ele>152.41</ele>
        <time>2017-07-02T07:51:17Z</time>
      </trkpt>
      <trkpt lat="48.6173" lon="1.8555">
        <ele>151.97</ele>
        <time>2017-07-02T07:51:21Z</time>
      </trkpt>
      <trkpt lat="48.61721" lon="1.85567">
        <ele>152.16</ele>
        <time>2017-07-02T07:51:31Z</time>
      </trkpt>
      <trkpt lat="48.61713" lon="1.85579">
        <ele>152.32</ele>
        <time>2017-07-02T07:51:39Z</time>
      </trkpt>
      <trkpt lat="48.61708" lon="1.85593">
        <ele>151.89</ele>
        <time>2017-07-02T07:51:50Z</time>
      </trkpt>
      <trkpt lat="48.61707" lon="1.85596">
        <ele>152.15</ele>
        <time>2017-07-02T07:51:51Z</time>
      </trkpt>
      <trkpt lat="48.61706" lon="1.856">
        <ele>152.09</ele>
        <time>2017-07-02T07:51:53Z</time>
      </trkpt>
      <trkpt lat="48.617" lon="1.85612">
        <ele>151.79</ele>
        <time>2017-07-02T07:52:00Z</time>
      </trkpt>
      <trkpt lat="48.61697" lon="1.85617">
        <ele>152.09</ele>
        <time>2017-07-02T07:52:04Z</time>
      </trkpt>
      <trkpt lat="48.61685" lon="1.85643">
        <ele>151.77</ele>
        <time>2017-07-02T07:52:23Z</time>
      </trkpt>
      <trkpt lat="48.61684" lon="1.85648">
        <ele>151.51</ele>
        <time>2017-07-02T07:52:26Z</time>
      </trkpt>
      <trkpt lat="48.61682" lon="1.85653">
        <ele>151.52</ele>
        <time>2017-07-02T07:52:30Z</time>
      </trkpt>
      <trkpt lat="48.61676" lon="1.8566">
        <ele>151.46</ele>
        <time>2017-07-02T07:52:35Z</time>
      </trkpt>
      <trkpt lat="48.61668" lon="1.85676">
        <ele>152.07</ele>
        <time>2017-07-02T07:52:46Z</time>
      </trkpt>
      <trkpt lat="48.61665" lon="1.85691">
        <ele>151.63</ele>
        <time>2017-07-02T07:52:54Z</time>
      </trkpt>
      <trkpt lat="48.61653" lon="1.85729">
        <ele>151.66</ele>
        <time>2017-07-02T07:53:19Z</time>
      </trkpt>
      <trkpt lat="48.61648" lon="1.85742">
        <ele>152.28</ele>
        <time>2017-07-02T07:53:29Z</time>
      </trkpt>
      <trkpt lat="48.61646" lon="1.85745">
        <ele>151.91</ele>
        <time>2017-07-02T07:53:32Z</time>
      </trkpt>
      <trkpt lat="48.61646" lon="1.85752">
        <ele>151.63</ele>
        <time>2017-07-02T07:53:35Z</time>
      </trkpt>
      <trkpt lat="48.61648" lon="1.85768">
        <ele>151.83</ele>
        <time>2017-07-02T07:53:47Z</time>
      </trkpt>
      <trkpt lat="48.61639" lon="1.85789">
        <ele>151.6</ele>
        <time>2017-07-02T07:54:01Z</time>
      </trkpt>
      <trkpt lat="48.61635" lon="1.85819">
        <ele>151.76</ele>
        <time>2017-07-02T07:54:23Z</time>
      </trkpt>
      <trkpt lat="48.61639" lon="1.85824">
        <ele>151.64</ele>
        <time>2017-07-02T07:54:33Z</time>
      </trkpt>
      <trkpt lat="48.61663" lon="1.85843">
        <ele>152.09</ele>
        <time>2017-07-02T07:54:58Z</time>
      </trkpt>
      <trkpt lat="48.61675" lon="1.85857">
        <ele>152.17</ele>
        <time>2017-07-02T07:55:10Z</time>
      </trkpt>
      <trkpt lat="48.61694" lon="1.85876">
        <ele>151.97</ele>
        <time>2017-07-02T07:55:29Z</time>
      </trkpt>
      <trkpt lat="48.61698" lon="1.85881">
        <ele>151.69</ele>
        <time>2017-07-02T07:55:33Z</time>
      </trkpt>
      <trkpt lat="48.61712" lon="1.85893">
        <ele>152.41</ele>
        <time>2017-07-02T07:55:45Z</time>
      </trkpt>
      <trkpt lat="48.61719" lon="1.85905">
        <ele>151.52</ele>
        <time>2017-07-02T07:55:55Z</time>
      </trkpt>
      <trkpt lat="48.6172" lon="1.85906">
        <ele>152.12</ele>
        <time>2017-07-02T07:55:56Z</time>
      </trkpt>
      <trkpt lat="48.61722" lon="1.85912">
        <ele>151.64</ele>
        <time>2017-07-02T07:56:01Z</time>
      </trkpt>
      <trkpt lat="48.61723" lon="1.85914">
        <ele>151.54</ele>
        <time>2017-07-02T07:56:03Z</time>
      </trkpt>
      <trkpt lat="48.61731" lon="1.85926">
        <ele>151.28</ele>
        <time>2017-07-02T07:56:13Z</time>
      </trkpt>
      <trkpt lat="48.61735" lon="1.85932">
        <ele>151.21</ele>
        <time>2017-07-02T07:56:19Z</time>
      </trkpt>
      <trkpt lat="48.61739" lon="1.85938">
        <ele>150.94</ele>
        <time>2017-07-02T07:56:23Z</time>
      </trkpt>
      <trkpt lat="48.61751" lon="1.85952">
        <ele>151.38</ele>
        <time>2017-07-02T07:56:39Z</time>
      </trkpt>
      <trkpt lat="48.61769" lon="1.85972">
        <ele>151.14</ele>
        <time>2017-07-02T07:56:57Z</time>
      </trkpt>
      <trkpt lat="48.61777" lon="1.85977">
        <ele>150.95</ele>
        <time>2017-07-02T07:57:04Z</time>
      </trkpt>
      <trkpt lat="48.61794" lon="1.85993">
        <ele>150.64</ele>
        <time>2017-07-02T07:57:20Z</time>
      </trkpt>
      <trkpt lat="48.61805" lon="1.86002">
        <ele>150.33</ele>
        <time>2017-07-02T07:57:29Z</time>
      </trkpt>
      <trkpt lat="48.61807" lon="1.86004">
        <ele>150.76</ele>
        <time>2017-07-02T07:57:32Z</time>
      </trkpt>
      <trkpt lat="48.61818" lon="1.86021">
        <ele>150.64</ele>
        <time>2017-07-02T07:57:45Z</time>
      </trkpt>
      <trkpt lat="48.61828" lon="1.86034">
        <ele>150.73</ele>
        <time>2017-07-02T07:57:55Z</time>
      </trkpt>
      <trkpt lat="48.61847" lon="1.86053">
        <ele>149.78</ele>
        <time>2017-07-02T07:58:10Z</time>
      </trkpt>
      <trkpt lat="48.61853" lon="1.86064">
        <ele>150.15</ele>
        <time>2017-07-02T07:58:18Z</time>
      </trkpt>
      <trkpt lat="48.6186" lon="1.86068">
        <ele>150.43</ele>
        <time>2017-07-02T07:58:24Z</time>
      </trkpt>
      <trkpt lat="48.61879" lon="1.86084">
        <ele>149.74</ele>
        <time>2017-07-02T07:58:42Z</time>
      </trkpt>
      <trkpt lat="48.61895" lon="1.861">
        <ele>150.09</ele>
        <time>2017-07-02T07:58:58Z</time>
      </trkpt>
      <trkpt lat="48.61906" lon="1.86115">
        <ele>149.76</ele>
        <time>2017-07-02T07:59:11Z</time>
      </trkpt>
      <trkpt lat="48.61911" lon="1.86128">
        <ele>149.8</ele>
        <time>2017-07-02T07:59:20Z</time>
      </trkpt>
      <trkpt lat="48.61911" lon="1.86134">
        <ele>149.7</ele>
        <time>2017-07-02T07:59:25Z</time>
      </trkpt>
      <trkpt lat="48.61901" lon="1.86158">
        <ele>149.74</ele>
        <time>2017-07-02T07:59:41Z</time>
      </trkpt>
      <trkpt lat="48.61888" lon="1.86196">
        <ele>149.72</ele>
        <time>2017-07-02T08:00:03Z</time>
      </trkpt>
      <trkpt lat="48.61876" lon="1.8623">
        <ele>149.61</ele>
        <time>2017-07-02T08:00:27Z</time>
      </trkpt>
      <trkpt lat="48.61865" lon="1.86256">
        <ele>149.56</ele>
        <time>2017-07-02T08:00:44Z</time>
      </trkpt>
      <trkpt lat="48.61847" lon="1.86291">
        <ele>149.42</ele>
        <time>2017-07-02T08:01:06Z</time>
      </trkpt>
      <trkpt lat="48.6184" lon="1.86321">
        <ele>149.23</ele>
        <time>2017-07-02T08:01:24Z</time>
      </trkpt>
      <trkpt lat="48.61842" lon="1.86332">
        <ele>149.11</ele>
        <time>2017-07-02T08:01:30Z</time>
      </trkpt>
      <trkpt lat="48.61842" lon="1.86335">
        <ele>149.23</ele>
        <time>2017-07-02T08:01:32Z</time>
      </trkpt>
      <trkpt lat="48.61838" lon="1.86354">
        <ele>149.16</ele>
        <time>2017-07-02T08:01:43Z</time>
      </trkpt>
      <trkpt lat="48.61832" lon="1.86365">
        <ele>148.84</ele>
        <time>2017-07-02T08:01:50Z</time>
      </trkpt>
      <trkpt lat="48.61813" lon="1.86405">
        <ele>148.52</ele>
        <time>2017-07-02T08:02:15Z</time>
      </trkpt>
      <trkpt lat="48.61799" lon="1.86442">
        <ele>148.55</ele>
        <time>2017-07-02T08:02:39Z</time>
      </trkpt>
      <trkpt lat="48.61781" lon="1.86477">
        <ele>148.47</ele>
        <time>2017-07-02T08:03:04Z</time>
      </trkpt>
      <trkpt lat="48.61776" lon="1.86492">
        <ele>148.94</ele>
        <time>2017-07-02T08:03:15Z</time>
      </trkpt>
      <trkpt lat="48.61774" lon="1.86497">
        <ele>148.91</ele>
        <time>2017-07-02T08:03:18Z</time>
      </trkpt>
      <trkpt lat="48.61768" lon="1.86521">
        <ele>148.72</ele>
        <time>2017-07-02T08:03:34Z</time>
      </trkpt>
      <trkpt lat="48.61758" lon="1.86551">
        <ele>148.31</ele>
        <time>2017-07-02T08:03:55Z</time>
      </trkpt>
      <trkpt lat="48.61752" lon="1.8657">
        <ele>148.3</ele>
        <time>2017-07-02T08:04:06Z</time>
      </trkpt>
      <trkpt lat="48.61747" lon="1.86581">
        <ele>148.67</ele>
        <time>2017-07-02T08:04:11Z</time>
      </trkpt>
      <trkpt lat="48.61743" lon="1.86588">
        <ele>148.54</ele>
        <time>2017-07-02T08:04:17Z</time>
      </trkpt>
      <trkpt lat="48.61737" lon="1.86599">
        <ele>148.29</ele>
        <time>2017-07-02T08:04:26Z</time>
      </trkpt>
      <trkpt lat="48.61726" lon="1.86623">
        <ele>148.7</ele>
        <time>2017-07-02T08:04:40Z</time>
      </trkpt>
      <trkpt lat="48.61714" lon="1.86652">
        <ele>148</ele>
        <time>2017-07-02T08:04:59Z</time>
      </trkpt>
      <trkpt lat="48.61707" lon="1.86672">
        <ele>148.2</ele>
        <time>2017-07-02T08:05:11Z</time>
      </trkpt>
      <trkpt lat="48.61697" lon="1.86689">
        <ele>148.18</ele>
        <time>2017-07-02T08:05:23Z</time>
      </trkpt>
      <trkpt lat="48.61692" lon="1.86713">
        <ele>148.45</ele>
        <time>2017-07-02T08:05:37Z</time>
      </trkpt>
      <trkpt lat="48.61682" lon="1.8675">
        <ele>148.29</ele>
        <time>2017-07-02T08:05:57Z</time>
      </trkpt>
      <trkpt lat="48.6167" lon="1.86771">
        <ele>148.42</ele>
        <time>2017-07-02T08:06:12Z</time>
      </trkpt>
      <trkpt lat="48.61658" lon="1.86799">
        <ele>148.45</ele>
        <time>2017-07-02T08:06:30Z</time>
      </trkpt>
      <trkpt lat="48.61645" lon="1.86829">
        <ele>148.42</ele>
        <time>2017-07-02T08:06:50Z</time>
      </trkpt>
      <trkpt lat="48.61641" lon="1.86844">
        <ele>147.97</ele>
        <time>2017-07-02T08:07:00Z</time>
      </trkpt>
      <trkpt lat="48.61636" lon="1.86857">
        <ele>148.43</ele>
        <time>2017-07-02T08:07:08Z</time>
      </trkpt>
      <trkpt lat="48.61631" lon="1.86866">
        <ele>148.72</ele>
        <time>2017-07-02T08:07:13Z</time>
      </trkpt>
      <trkpt lat="48.61615" lon="1.86909">
        <ele>149.12</ele>
        <time>2017-07-02T08:07:39Z</time>
      </trkpt>
      <trkpt lat="48.6161" lon="1.86931">
        <ele>149.06</ele>
        <time>2017-07-02T08:07:52Z</time>
      </trkpt>
      <trkpt lat="48.61601" lon="1.86949">
        <ele>148.85</ele>
        <time>2017-07-02T08:08:03Z</time>
      </trkpt>
      <trkpt lat="48.61596" lon="1.86962">
        <ele>149.26</ele>
        <time>2017-07-02T08:08:12Z</time>
      </trkpt>
      <trkpt lat="48.6159" lon="1.86979">
        <ele>148.97</ele>
        <time>2017-07-02T08:08:24Z</time>
      </trkpt>
      <trkpt lat="48.61586" lon="1.86987">
        <ele>149.71</ele>
        <time>2017-07-02T08:08:31Z</time>
      </trkpt>
      <trkpt lat="48.61577" lon="1.87008">
        <ele>148.99</ele>
        <time>2017-07-02T08:08:43Z</time>
      </trkpt>
      <trkpt lat="48.61575" lon="1.87011">
        <ele>149.4</ele>
        <time>2017-07-02T08:08:46Z</time>
      </trkpt>
      <trkpt lat="48.61569" lon="1.87027">
        <ele>149.08</ele>
        <time>2017-07-02T08:08:57Z</time>
      </trkpt>
      <trkpt lat="48.61566" lon="1.87033">
        <ele>148.96</ele>
        <time>2017-07-02T08:09:02Z</time>
      </trkpt>
      <trkpt lat="48.61564" lon="1.8704">
        <ele>149.14</ele>
        <time>2017-07-02T08:09:06Z</time>
      </trkpt>
      <trkpt lat="48.61555" lon="1.87059">
        <ele>148.97</ele>
        <time>2017-07-02T08:09:18Z</time>
      </trkpt>
      <trkpt lat="48.61545" lon="1.87078">
        <ele>149.52</ele>
        <time>2017-07-02T08:09:29Z</time>
      </trkpt>
      <trkpt lat="48.61542" lon="1.87085">
        <ele>149.1</ele>
        <time>2017-07-02T08:09:33Z</time>
      </trkpt>
      <trkpt lat="48.61537" lon="1.87108">
        <ele>149.09</ele>
        <time>2017-07-02T08:09:48Z</time>
      </trkpt>
      <trkpt lat="48.61537" lon="1.87111">
        <ele>148.86</ele>
        <time>2017-07-02T08:09:50Z</time>
      </trkpt>
      <trkpt lat="48.61527" lon="1.87126">
        <ele>149.06</ele>
        <time>2017-07-02T08:09:59Z</time>
      </trkpt>
      <trkpt lat="48.61522" lon="1.87136">
        <ele>149.56</ele>
        <time>2017-07-02T08:10:06Z</time>
      </trkpt>
      <trkpt lat="48.61521" lon="1.87142">
        <ele>149.09</ele>
        <time>2017-07-02T08:10:10Z</time>
      </trkpt>
      <trkpt lat="48.6152" lon="1.87148">
        <ele>149.9</ele>
        <time>2017-07-02T08:10:13Z</time>
      </trkpt>
      <trkpt lat="48.61517" lon="1.87154">
        <ele>149.13</ele>
        <time>2017-07-02T08:10:18Z</time>
      </trkpt>
      <trkpt lat="48.61515" lon="1.87162">
        <ele>149.44</ele>
        <time>2017-07-02T08:10:26Z</time>
      </trkpt>
      <trkpt lat="48.61508" lon="1.8718">
        <ele>149.28</ele>
        <time>2017-07-02T08:10:37Z</time>
      </trkpt>
      <trkpt lat="48.61503" lon="1.87191">
        <ele>149.39</ele>
        <time>2017-07-02T08:10:43Z</time>
      </trkpt>
      <trkpt lat="48.61502" lon="1.87199">
        <ele>148.88</ele>
        <time>2017-07-02T08:10:51Z</time>
      </trkpt>
      <trkpt lat="48.615" lon="1.872">
        <ele>149.84</ele>
        <time>2017-07-02T08:10:56Z</time>
      </trkpt>
      <trkpt lat="48.61489" lon="1.87214">
        <ele>149.69</ele>
        <time>2017-07-02T08:11:09Z</time>
      </trkpt>
      <trkpt lat="48.61485" lon="1.87233">
        <ele>149.19</ele>
        <time>2017-07-02T08:11:20Z</time>
      </trkpt>
      <trkpt lat="48.61481" lon="1.87239">
        <ele>149.28</ele>
        <time>2017-07-02T08:11:25Z</time>
      </trkpt>
      <trkpt lat="48.61472" lon="1.87266">
        <ele>149.64</ele>
        <time>2017-07-02T08:11:40Z</time>
      </trkpt>
      <trkpt lat="48.6147" lon="1.87272">
        <ele>149.58</ele>
        <time>2017-07-02T08:11:44Z</time>
      </trkpt>
      <trkpt lat="48.61467" lon="1.8728">
        <ele>149.39</ele>
        <time>2017-07-02T08:11:50Z</time>
      </trkpt>
      <trkpt lat="48.61466" lon="1.87286">
        <ele>149.41</ele>
        <time>2017-07-02T08:11:54Z</time>
      </trkpt>
      <trkpt lat="48.61458" lon="1.87312">
        <ele>149.96</ele>
        <time>2017-07-02T08:12:11Z</time>
      </trkpt>
      <trkpt lat="48.61456" lon="1.87316">
        <ele>149.55</ele>
        <time>2017-07-02T08:12:14Z</time>
      </trkpt>
      <trkpt lat="48.61452" lon="1.87332">
        <ele>149.84</ele>
        <time>2017-07-02T08:12:23Z</time>
      </trkpt>
      <trkpt lat="48.61451" lon="1.87333">
        <ele>150.13</ele>
        <time>2017-07-02T08:12:24Z</time>
      </trkpt>
      <trkpt lat="48.61446" lon="1.87342">
        <ele>150.14</ele>
        <time>2017-07-02T08:12:30Z</time>
      </trkpt>
      <trkpt lat="48.61441" lon="1.87349">
        <ele>150.37</ele>
        <time>2017-07-02T08:12:34Z</time>
      </trkpt>
      <trkpt lat="48.61438" lon="1.87354">
        <ele>150.24</ele>
        <time>2017-07-02T08:12:38Z</time>
      </trkpt>
      <trkpt lat="48.61433" lon="1.87362">
        <ele>150.4</ele>
        <time>2017-07-02T08:12:43Z</time>
      </trkpt>
      <trkpt lat="48.61431" lon="1.87365">
        <ele>150.34</ele>
        <time>2017-07-02T08:12:46Z</time>
      </trkpt>
      <trkpt lat="48.61428" lon="1.87374">
        <ele>150.08</ele>
        <time>2017-07-02T08:12:49Z</time>
      </trkpt>
      <trkpt lat="48.61427" lon="1.87378">
        <ele>150.2</ele>
        <time>2017-07-02T08:12:52Z</time>
      </trkpt>
      <trkpt lat="48.61423" lon="1.87388">
        <ele>150.36</ele>
        <time>2017-07-02T08:12:57Z</time>
      </trkpt>
      <trkpt lat="48.6142" lon="1.87396">
        <ele>150.53</ele>
        <time>2017-07-02T08:13:03Z</time>
      </trkpt>
      <trkpt lat="48.6142" lon="1.87398">
        <ele>150.53</ele>
        <time>2017-07-02T08:13:05Z</time>
      </trkpt>
      <trkpt lat="48.61412" lon="1.87414">
        <ele>150.9</ele>
        <time>2017-07-02T08:13:17Z</time>
      </trkpt>
      <trkpt lat="48.6141" lon="1.87417">
        <ele>150.7</ele>
        <time>2017-07-02T08:13:19Z</time>
      </trkpt>
      <trkpt lat="48.61401" lon="1.87434">
        <ele>151.04</ele>
        <time>2017-07-02T08:13:32Z</time>
      </trkpt>
      <trkpt lat="48.614" lon="1.87436">
        <ele>150.61</ele>
        <time>2017-07-02T08:13:33Z</time>
      </trkpt>
      <trkpt lat="48.61392" lon="1.87452">
        <ele>150.98</ele>
        <time>2017-07-02T08:13:45Z</time>
      </trkpt>
      <trkpt lat="48.6139" lon="1.87458">
        <ele>151.13</ele>
        <time>2017-07-02T08:13:48Z</time>
      </trkpt>
      <trkpt lat="48.61389" lon="1.87463">
        <ele>150.94</ele>
        <time>2017-07-02T08:13:51Z</time>
      </trkpt>
      <trkpt lat="48.61379" lon="1.87481">
        <ele>151.31</ele>
        <time>2017-07-02T08:14:05Z</time>
      </trkpt>
      <trkpt lat="48.61374" lon="1.875">
        <ele>151.57</ele>
        <time>2017-07-02T08:14:19Z</time>
      </trkpt>
      <trkpt lat="48.6137" lon="1.87505">
        <ele>151.69</ele>
        <time>2017-07-02T08:14:23Z</time>
      </trkpt>
      <trkpt lat="48.61357" lon="1.87502">
        <ele>151.86</ele>
        <time>2017-07-02T08:14:40Z</time>
      </trkpt>
      <trkpt lat="48.61356" lon="1.875">
        <ele>151.83</ele>
        <time>2017-07-02T08:14:42Z</time>
      </trkpt>
      <trkpt lat="48.61342" lon="1.87491">
        <ele>151.99</ele>
        <time>2017-07-02T08:15:01Z</time>
      </trkpt>
      <trkpt lat="48.61337" lon="1.87475">
        <ele>151.33</ele>
        <time>2017-07-02T08:15:17Z</time>
      </trkpt>
      <trkpt lat="48.61341" lon="1.87482">
        <ele>151.67</ele>
        <time>2017-07-02T08:15:34Z</time>
      </trkpt>
      <trkpt lat="48.61334" lon="1.87494">
        <ele>152.87</ele>
        <time>2017-07-02T08:15:48Z</time>
      </trkpt>
      <trkpt lat="48.61326" lon="1.87499">
        <ele>152.36</ele>
        <time>2017-07-02T08:16:00Z</time>
      </trkpt>
      <trkpt lat="48.6132" lon="1.87506">
        <ele>152.48</ele>
        <time>2017-07-02T08:16:11Z</time>
      </trkpt>
      <trkpt lat="48.61283" lon="1.87548">
        <ele>151.96</ele>
        <time>2017-07-02T08:16:47Z</time>
      </trkpt>
      <trkpt lat="48.61282" lon="1.87549">
        <ele>151.85</ele>
        <time>2017-07-02T08:16:48Z</time>
      </trkpt>
      <trkpt lat="48.61273" lon="1.87559">
        <ele>152.24</ele>
        <time>2017-07-02T08:16:58Z</time>
      </trkpt>
      <trkpt lat="48.61264" lon="1.87571">
        <ele>152.08</ele>
        <time>2017-07-02T08:17:11Z</time>
      </trkpt>
      <trkpt lat="48.61252" lon="1.87588">
        <ele>152.49</ele>
        <time>2017-07-02T08:17:23Z</time>
      </trkpt>
      <trkpt lat="48.61246" lon="1.87598">
        <ele>151.99</ele>
        <time>2017-07-02T08:17:32Z</time>
      </trkpt>
      <trkpt lat="48.61235" lon="1.87625">
        <ele>152.3</ele>
        <time>2017-07-02T08:17:48Z</time>
      </trkpt>
      <trkpt lat="48.6123" lon="1.87635">
        <ele>152.27</ele>
        <time>2017-07-02T08:17:53Z</time>
      </trkpt>
      <trkpt lat="48.61228" lon="1.87644">
        <ele>152.13</ele>
        <time>2017-07-02T08:17:58Z</time>
      </trkpt>
      <trkpt lat="48.61228" lon="1.8765">
        <ele>153</ele>
        <time>2017-07-02T08:18:01Z</time>
      </trkpt>
      <trkpt lat="48.61224" lon="1.87667">
        <ele>153.01</ele>
        <time>2017-07-02T08:18:11Z</time>
      </trkpt>
      <trkpt lat="48.61224" lon="1.87673">
        <ele>152.53</ele>
        <time>2017-07-02T08:18:17Z</time>
      </trkpt>
      <trkpt lat="48.61217" lon="1.87689">
        <ele>152.76</ele>
        <time>2017-07-02T08:18:31Z</time>
      </trkpt>
      <trkpt lat="48.61221" lon="1.87707">
        <ele>153.07</ele>
        <time>2017-07-02T08:18:45Z</time>
      </trkpt>
      <trkpt lat="48.61215" lon="1.87719">
        <ele>153.4</ele>
        <time>2017-07-02T08:18:55Z</time>
      </trkpt>
      <trkpt lat="48.61211" lon="1.87732">
        <ele>153.39</ele>
        <time>2017-07-02T08:19:04Z</time>
      </trkpt>
      <trkpt lat="48.61209" lon="1.87753">
        <ele>153.45</ele>
        <time>2017-07-02T08:19:18Z</time>
      </trkpt>
      <trkpt lat="48.61196" lon="1.87782">
        <ele>153.57</ele>
        <time>2017-07-02T08:19:35Z</time>
      </trkpt>
      <trkpt lat="48.61187" lon="1.878">
        <ele>153.38</ele>
        <time>2017-07-02T08:19:46Z</time>
      </trkpt>
      <trkpt lat="48.61186" lon="1.87804">
        <ele>153.58</ele>
        <time>2017-07-02T08:19:48Z</time>
      </trkpt>
      <trkpt lat="48.61182" lon="1.87815">
        <ele>153.25</ele>
        <time>2017-07-02T08:19:57Z</time>
      </trkpt>
      <trkpt lat="48.61176" lon="1.87832">
        <ele>153.12</ele>
        <time>2017-07-02T08:20:12Z</time>
      </trkpt>
      <trkpt lat="48.61165" lon="1.87844">
        <ele>152.86</ele>
        <time>2017-07-02T08:20:24Z</time>
      </trkpt>
      <trkpt lat="48.61153" lon="1.8787">
        <ele>153.09</ele>
        <time>2017-07-02T08:20:42Z</time>
      </trkpt>
      <trkpt lat="48.61152" lon="1.87873">
        <ele>153.17</ele>
        <time>2017-07-02T08:20:45Z</time>
      </trkpt>
      <trkpt lat="48.61148" lon="1.87893">
        <ele>152.76</ele>
        <time>2017-07-02T08:20:58Z</time>
      </trkpt>
      <trkpt lat="48.61141" lon="1.879">
        <ele>152.49</ele>
        <time>2017-07-02T08:21:12Z</time>
      </trkpt>
      <trkpt lat="48.61134" lon="1.87898">
        <ele>152.26</ele>
        <time>2017-07-02T08:21:41Z</time>
      </trkpt>
      <trkpt lat="48.61128" lon="1.87912">
        <ele>152.59</ele>
        <time>2017-07-02T08:21:56Z</time>
      </trkpt>
      <trkpt lat="48.61126" lon="1.87916">
        <ele>152.6</ele>
        <time>2017-07-02T08:22:01Z</time>
      </trkpt>
      <trkpt lat="48.61125" lon="1.87922">
        <ele>152.5</ele>
        <time>2017-07-02T08:22:08Z</time>
      </trkpt>
      <trkpt lat="48.61122" lon="1.87924">
        <ele>152.6</ele>
        <time>2017-07-02T08:22:10Z</time>
      </trkpt>
      <trkpt lat="48.61117" lon="1.87942">
        <ele>152.27</ele>
        <time>2017-07-02T08:22:25Z</time>
      </trkpt>
      <trkpt lat="48.61114" lon="1.87951">
        <ele>152.63</ele>
        <time>2017-07-02T08:22:32Z</time>
      </trkpt>
      <trkpt lat="48.6111" lon="1.87959">
        <ele>152.24</ele>
        <time>2017-07-02T08:22:40Z</time>
      </trkpt>
      <trkpt lat="48.61103" lon="1.87963">
        <ele>152.54</ele>
        <time>2017-07-02T08:22:47Z</time>
      </trkpt>
      <trkpt lat="48.61095" lon="1.87966">
        <ele>152.2</ele>
        <time>2017-07-02T08:22:54Z</time>
      </trkpt>
      <trkpt lat="48.61091" lon="1.87968">
        <ele>152.39</ele>
        <time>2017-07-02T08:22:56Z</time>
      </trkpt>
      <trkpt lat="48.61089" lon="1.87988">
        <ele>152.01</ele>
        <time>2017-07-02T08:23:12Z</time>
      </trkpt>
      <trkpt lat="48.61094" lon="1.8799">
        <ele>152.43</ele>
        <time>2017-07-02T08:23:15Z</time>
      </trkpt>
      <trkpt lat="48.61085" lon="1.88002">
        <ele>152.33</ele>
        <time>2017-07-02T08:23:34Z</time>
      </trkpt>
      <trkpt lat="48.61082" lon="1.88004">
        <ele>152.7</ele>
        <time>2017-07-02T08:23:41Z</time>
      </trkpt>
      <trkpt lat="48.61074" lon="1.8801">
        <ele>152.44</ele>
        <time>2017-07-02T08:23:52Z</time>
      </trkpt>
      <trkpt lat="48.61056" lon="1.88029">
        <ele>152.85</ele>
        <time>2017-07-02T08:24:07Z</time>
      </trkpt>
      <trkpt lat="48.61047" lon="1.88039">
        <ele>151.53</ele>
        <time>2017-07-02T08:24:17Z</time>
      </trkpt>
      <trkpt lat="48.61036" lon="1.88059">
        <ele>152.51</ele>
        <time>2017-07-02T08:24:31Z</time>
      </trkpt>
      <trkpt lat="48.61024" lon="1.88071">
        <ele>152.43</ele>
        <time>2017-07-02T08:24:42Z</time>
      </trkpt>
      <trkpt lat="48.61017" lon="1.88081">
        <ele>152.43</ele>
        <time>2017-07-02T08:24:49Z</time>
      </trkpt>
      <trkpt lat="48.61015" lon="1.88083">
        <ele>152.54</ele>
        <time>2017-07-02T08:24:52Z</time>
      </trkpt>
      <trkpt lat="48.61007" lon="1.88092">
        <ele>152.88</ele>
        <time>2017-07-02T08:25:03Z</time>
      </trkpt>
      <trkpt lat="48.61004" lon="1.88095">
        <ele>152.42</ele>
        <time>2017-07-02T08:25:07Z</time>
      </trkpt>
      <trkpt lat="48.60997" lon="1.88107">
        <ele>152.57</ele>
        <time>2017-07-02T08:25:17Z</time>
      </trkpt>
      <trkpt lat="48.60991" lon="1.88119">
        <ele>152.83</ele>
        <time>2017-07-02T08:25:24Z</time>
      </trkpt>
      <trkpt lat="48.6099" lon="1.8813">
        <ele>153</ele>
        <time>2017-07-02T08:25:41Z</time>
      </trkpt>
      <trkpt lat="48.60984" lon="1.88138">
        <ele>152.93</ele>
        <time>2017-07-02T08:25:49Z</time>
      </trkpt>
      <trkpt lat="48.60976" lon="1.88149">
        <ele>153.04</ele>
        <time>2017-07-02T08:26:01Z</time>
      </trkpt>
      <trkpt lat="48.60976" lon="1.88151">
        <ele>153.13</ele>
        <time>2017-07-02T08:26:03Z</time>
      </trkpt>
      <trkpt lat="48.60973" lon="1.88159">
        <ele>153.74</ele>
        <time>2017-07-02T08:26:10Z</time>
      </trkpt>
      <trkpt lat="48.60957" lon="1.88178">
        <ele>152.91</ele>
        <time>2017-07-02T08:26:34Z</time>
      </trkpt>
      <trkpt lat="48.60953" lon="1.88196">
        <ele>153.03</ele>
        <time>2017-07-02T08:26:41Z</time>
      </trkpt>
      <trkpt lat="48.60947" lon="1.88203">
        <ele>153.26</ele>
        <time>2017-07-02T08:26:51Z</time>
      </trkpt>
      <trkpt lat="48.60934" lon="1.88213">
        <ele>152.34</ele>
        <time>2017-07-02T08:27:04Z</time>
      </trkpt>
      <trkpt lat="48.60917" lon="1.88228">
        <ele>153.11</ele>
        <time>2017-07-02T08:27:22Z</time>
      </trkpt>
      <trkpt lat="48.60904" lon="1.88241">
        <ele>152.07</ele>
        <time>2017-07-02T08:27:33Z</time>
      </trkpt>
      <trkpt lat="48.60899" lon="1.88243">
        <ele>152.78</ele>
        <time>2017-07-02T08:27:36Z</time>
      </trkpt>
      <trkpt lat="48.60894" lon="1.88247">
        <ele>152.84</ele>
        <time>2017-07-02T08:27:41Z</time>
      </trkpt>
      <trkpt lat="48.60882" lon="1.88263">
        <ele>152.19</ele>
        <time>2017-07-02T08:27:57Z</time>
      </trkpt>
      <trkpt lat="48.60881" lon="1.88265">
        <ele>151.87</ele>
        <time>2017-07-02T08:28:00Z</time>
      </trkpt>
      <trkpt lat="48.60874" lon="1.88277">
        <ele>151.61</ele>
        <time>2017-07-02T08:28:09Z</time>
      </trkpt>
      <trkpt lat="48.60872" lon="1.88281">
        <ele>152.06</ele>
        <time>2017-07-02T08:28:12Z</time>
      </trkpt>
      <trkpt lat="48.60868" lon="1.88291">
        <ele>151.61</ele>
        <time>2017-07-02T08:28:19Z</time>
      </trkpt>
      <trkpt lat="48.60862" lon="1.88299">
        <ele>151.16</ele>
        <time>2017-07-02T08:28:27Z</time>
      </trkpt>
      <trkpt lat="48.60855" lon="1.88308">
        <ele>151.48</ele>
        <time>2017-07-02T08:28:36Z</time>
      </trkpt>
      <trkpt lat="48.60851" lon="1.88314">
        <ele>150.97</ele>
        <time>2017-07-02T08:28:40Z</time>
      </trkpt>
      <trkpt lat="48.60847" lon="1.8832">
        <ele>151.2</ele>
        <time>2017-07-02T08:28:47Z</time>
      </trkpt>
      <trkpt lat="48.60835" lon="1.88343">
        <ele>150.94</ele>
        <time>2017-07-02T08:29:05Z</time>
      </trkpt>
      <trkpt lat="48.60831" lon="1.88347">
        <ele>150.85</ele>
        <time>2017-07-02T08:29:08Z</time>
      </trkpt>
      <trkpt lat="48.60826" lon="1.88353">
        <ele>150.81</ele>
        <time>2017-07-02T08:29:13Z</time>
      </trkpt>
      <trkpt lat="48.60825" lon="1.88359">
        <ele>150.48</ele>
        <time>2017-07-02T08:29:18Z</time>
      </trkpt>
      <trkpt lat="48.60825" lon="1.88366">
        <ele>150.32</ele>
        <time>2017-07-02T08:29:23Z</time>
      </trkpt>
      <trkpt lat="48.60824" lon="1.88372">
        <ele>150.53</ele>
        <time>2017-07-02T08:29:27Z</time>
      </trkpt>
      <trkpt lat="48.60821" lon="1.88377">
        <ele>150.28</ele>
        <time>2017-07-02T08:29:30Z</time>
      </trkpt>
      <trkpt lat="48.6082" lon="1.88381">
        <ele>150.46</ele>
        <time>2017-07-02T08:29:32Z</time>
      </trkpt>
      <trkpt lat="48.60816" lon="1.88389">
        <ele>150.34</ele>
        <time>2017-07-02T08:29:38Z</time>
      </trkpt>
      <trkpt lat="48.60813" lon="1.884">
        <ele>149.92</ele>
        <time>2017-07-02T08:29:44Z</time>
      </trkpt>
      <trkpt lat="48.60812" lon="1.88406">
        <ele>149.98</ele>
        <time>2017-07-02T08:29:48Z</time>
      </trkpt>
      <trkpt lat="48.60811" lon="1.88407">
        <ele>150.13</ele>
        <time>2017-07-02T08:29:50Z</time>
      </trkpt>
      <trkpt lat="48.60809" lon="1.88414">
        <ele>150.13</ele>
        <time>2017-07-02T08:29:54Z</time>
      </trkpt>
      <trkpt lat="48.60809" lon="1.88418">
        <ele>150.26</ele>
        <time>2017-07-02T08:29:56Z</time>
      </trkpt>
      <trkpt lat="48.60807" lon="1.88425">
        <ele>150.07</ele>
        <time>2017-07-02T08:30:01Z</time>
      </trkpt>
      <trkpt lat="48.60805" lon="1.88432">
        <ele>150.09</ele>
        <time>2017-07-02T08:30:06Z</time>
      </trkpt>
      <trkpt lat="48.60804" lon="1.88438">
        <ele>150.16</ele>
        <time>2017-07-02T08:30:09Z</time>
      </trkpt>
      <trkpt lat="48.60797" lon="1.88453">
        <ele>150.16</ele>
        <time>2017-07-02T08:30:22Z</time>
      </trkpt>
      <trkpt lat="48.60797" lon="1.88456">
        <ele>150.27</ele>
        <time>2017-07-02T08:30:23Z</time>
      </trkpt>
      <trkpt lat="48.60794" lon="1.88464">
        <ele>150.02</ele>
        <time>2017-07-02T08:30:28Z</time>
      </trkpt>
      <trkpt lat="48.60788" lon="1.88468">
        <ele>149.9</ele>
        <time>2017-07-02T08:30:41Z</time>
      </trkpt>
      <trkpt lat="48.60786" lon="1.88471">
        <ele>150.12</ele>
        <time>2017-07-02T08:30:44Z</time>
      </trkpt>
      <trkpt lat="48.60786" lon="1.88474">
        <ele>149.94</ele>
        <time>2017-07-02T08:30:46Z</time>
      </trkpt>
      <trkpt lat="48.60786" lon="1.88478">
        <ele>150.1</ele>
        <time>2017-07-02T08:30:48Z</time>
      </trkpt>
      <trkpt lat="48.60782" lon="1.88486">
        <ele>150.24</ele>
        <time>2017-07-02T08:30:53Z</time>
      </trkpt>
      <trkpt lat="48.60779" lon="1.88506">
        <ele>150.13</ele>
        <time>2017-07-02T08:31:05Z</time>
      </trkpt>
      <trkpt lat="48.60777" lon="1.8851">
        <ele>149.75</ele>
        <time>2017-07-02T08:31:08Z</time>
      </trkpt>
      <trkpt lat="48.60776" lon="1.88515">
        <ele>149.75</ele>
        <time>2017-07-02T08:31:11Z</time>
      </trkpt>
      <trkpt lat="48.60774" lon="1.8852">
        <ele>149.64</ele>
        <time>2017-07-02T08:31:15Z</time>
      </trkpt>
      <trkpt lat="48.60766" lon="1.88542">
        <ele>149.74</ele>
        <time>2017-07-02T08:31:29Z</time>
      </trkpt>
      <trkpt lat="48.60764" lon="1.88564">
        <ele>149.51</ele>
        <time>2017-07-02T08:31:41Z</time>
      </trkpt>
      <trkpt lat="48.60762" lon="1.88572">
        <ele>149.36</ele>
        <time>2017-07-02T08:31:47Z</time>
      </trkpt>
      <trkpt lat="48.60754" lon="1.886">
        <ele>148.71</ele>
        <time>2017-07-02T08:32:06Z</time>
      </trkpt>
      <trkpt lat="48.6075" lon="1.88605">
        <ele>148.42</ele>
        <time>2017-07-02T08:32:10Z</time>
      </trkpt>
      <trkpt lat="48.6075" lon="1.8861">
        <ele>148.63</ele>
        <time>2017-07-02T08:32:13Z</time>
      </trkpt>
      <trkpt lat="48.60749" lon="1.88632">
        <ele>148.37</ele>
        <time>2017-07-02T08:32:27Z</time>
      </trkpt>
      <trkpt lat="48.60749" lon="1.88634">
        <ele>148.32</ele>
        <time>2017-07-02T08:32:28Z</time>
      </trkpt>
      <trkpt lat="48.60749" lon="1.88643">
        <ele>148.49</ele>
        <time>2017-07-02T08:32:32Z</time>
      </trkpt>
      <trkpt lat="48.60745" lon="1.88656">
        <ele>148.48</ele>
        <time>2017-07-02T08:32:39Z</time>
      </trkpt>
      <trkpt lat="48.60743" lon="1.88668">
        <ele>147.65</ele>
        <time>2017-07-02T08:32:44Z</time>
      </trkpt>
      <trkpt lat="48.60741" lon="1.88675">
        <ele>147.5</ele>
        <time>2017-07-02T08:32:48Z</time>
      </trkpt>
      <trkpt lat="48.60735" lon="1.8869">
        <ele>147.73</ele>
        <time>2017-07-02T08:32:58Z</time>
      </trkpt>
      <trkpt lat="48.60731" lon="1.88712">
        <ele>147.65</ele>
        <time>2017-07-02T08:33:11Z</time>
      </trkpt>
      <trkpt lat="48.6073" lon="1.88717">
        <ele>147.36</ele>
        <time>2017-07-02T08:33:16Z</time>
      </trkpt>
      <trkpt lat="48.60728" lon="1.88725">
        <ele>147.33</ele>
        <time>2017-07-02T08:33:20Z</time>
      </trkpt>
      <trkpt lat="48.60718" lon="1.88738">
        <ele>146.89</ele>
        <time>2017-07-02T08:33:32Z</time>
      </trkpt>
      <trkpt lat="48.60712" lon="1.8875">
        <ele>147.03</ele>
        <time>2017-07-02T08:33:43Z</time>
      </trkpt>
      <trkpt lat="48.60711" lon="1.88756">
        <ele>146.97</ele>
        <time>2017-07-02T08:33:47Z</time>
      </trkpt>
      <trkpt lat="48.60708" lon="1.88763">
        <ele>147.01</ele>
        <time>2017-07-02T08:33:52Z</time>
      </trkpt>
      <trkpt lat="48.60707" lon="1.88775">
        <ele>146.2</ele>
        <time>2017-07-02T08:34:04Z</time>
      </trkpt>
      <trkpt lat="48.60698" lon="1.88792">
        <ele>146.39</ele>
        <time>2017-07-02T08:34:20Z</time>
      </trkpt>
      <trkpt lat="48.60686" lon="1.88815">
        <ele>145.8</ele>
        <time>2017-07-02T08:34:35Z</time>
      </trkpt>
      <trkpt lat="48.60675" lon="1.88812">
        <ele>145.76</ele>
        <time>2017-07-02T08:34:55Z</time>
      </trkpt>
      <trkpt lat="48.60674" lon="1.88812">
        <ele>146.05</ele>
        <time>2017-07-02T08:34:56Z</time>
      </trkpt>
      <trkpt lat="48.60668" lon="1.88814">
        <ele>145.67</ele>
        <time>2017-07-02T08:35:17Z</time>
      </trkpt>
      <trkpt lat="48.60668" lon="1.88815">
        <ele>145.17</ele>
        <time>2017-07-02T08:35:18Z</time>
      </trkpt>
      <trkpt lat="48.60665" lon="1.88818">
        <ele>145.17</ele>
        <time>2017-07-02T08:35:21Z</time>
      </trkpt>
      <trkpt lat="48.6066" lon="1.8884">
        <ele>145.68</ele>
        <time>2017-07-02T08:35:36Z</time>
      </trkpt>
      <trkpt lat="48.60645" lon="1.88866">
        <ele>145.55</ele>
        <time>2017-07-02T08:35:58Z</time>
      </trkpt>
      <trkpt lat="48.60638" lon="1.88884">
        <ele>145.78</ele>
        <time>2017-07-02T08:36:12Z</time>
      </trkpt>
      <trkpt lat="48.60628" lon="1.88902">
        <ele>146.12</ele>
        <time>2017-07-02T08:36:24Z</time>
      </trkpt>
      <trkpt lat="48.60626" lon="1.88907">
        <ele>145.82</ele>
        <time>2017-07-02T08:36:27Z</time>
      </trkpt>
      <trkpt lat="48.60612" lon="1.88936">
        <ele>146.58</ele>
        <time>2017-07-02T08:36:47Z</time>
      </trkpt>
      <trkpt lat="48.60598" lon="1.88961">
        <ele>146.37</ele>
        <time>2017-07-02T08:37:08Z</time>
      </trkpt>
      <trkpt lat="48.60592" lon="1.88971">
        <ele>146.35</ele>
        <time>2017-07-02T08:37:21Z</time>
      </trkpt>
      <trkpt lat="48.60585" lon="1.88987">
        <ele>146.49</ele>
        <time>2017-07-02T08:37:36Z</time>
      </trkpt>
      <trkpt lat="48.60565" lon="1.89023">
        <ele>147.31</ele>
        <time>2017-07-02T08:38:01Z</time>
      </trkpt>
      <trkpt lat="48.60557" lon="1.89034">
        <ele>147.35</ele>
        <time>2017-07-02T08:38:17Z</time>
      </trkpt>
      <trkpt lat="48.60557" lon="1.89031">
        <ele>146.99</ele>
        <time>2017-07-02T08:38:42Z</time>
      </trkpt>
      <trkpt lat="48.60556" lon="1.89041">
        <ele>146.7</ele>
        <time>2017-07-02T08:39:07Z</time>
      </trkpt>
      <trkpt lat="48.60538" lon="1.89072">
        <ele>146.83</ele>
        <time>2017-07-02T08:39:30Z</time>
      </trkpt>
      <trkpt lat="48.60524" lon="1.89103">
        <ele>146.97</ele>
        <time>2017-07-02T08:39:52Z</time>
      </trkpt>
      <trkpt lat="48.60504" lon="1.8914">
        <ele>146.84</ele>
        <time>2017-07-02T08:40:16Z</time>
      </trkpt>
      <trkpt lat="48.60493" lon="1.89164">
        <ele>147.35</ele>
        <time>2017-07-02T08:40:34Z</time>
      </trkpt>
      <trkpt lat="48.60491" lon="1.89179">
        <ele>147.32</ele>
        <time>2017-07-02T08:40:43Z</time>
      </trkpt>
      <trkpt lat="48.60484" lon="1.89206">
        <ele>147.28</ele>
        <time>2017-07-02T08:41:05Z</time>
      </trkpt>
      <trkpt lat="48.60471" lon="1.89227">
        <ele>147.35</ele>
        <time>2017-07-02T08:41:23Z</time>
      </trkpt>
      <trkpt lat="48.60458" lon="1.89259">
        <ele>147.69</ele>
        <time>2017-07-02T08:41:45Z</time>
      </trkpt>
      <trkpt lat="48.60451" lon="1.89278">
        <ele>148</ele>
        <time>2017-07-02T08:41:59Z</time>
      </trkpt>
      <trkpt lat="48.60443" lon="1.89298">
        <ele>148.59</ele>
        <time>2017-07-02T08:42:14Z</time>
      </trkpt>
      <trkpt lat="48.60438" lon="1.89302">
        <ele>148.02</ele>
        <time>2017-07-02T08:42:33Z</time>
      </trkpt>
      <trkpt lat="48.60438" lon="1.89301">
        <ele>148.29</ele>
        <time>2017-07-02T08:42:43Z</time>
      </trkpt>
      <trkpt lat="48.60433" lon="1.89296">
        <ele>148.15</ele>
        <time>2017-07-02T08:42:47Z</time>
      </trkpt>
      <trkpt lat="48.60424" lon="1.89301">
        <ele>147.67</ele>
        <time>2017-07-02T08:43:06Z</time>
      </trkpt>
      <trkpt lat="48.60422" lon="1.89303">
        <ele>147.71</ele>
        <time>2017-07-02T08:43:13Z</time>
      </trkpt>
      <trkpt lat="48.6041" lon="1.89308">
        <ele>148</ele>
        <time>2017-07-02T08:43:32Z</time>
      </trkpt>
      <trkpt lat="48.60404" lon="1.89318">
        <ele>147.35</ele>
        <time>2017-07-02T08:43:41Z</time>
      </trkpt>
      <trkpt lat="48.60398" lon="1.89333">
        <ele>147.55</ele>
        <time>2017-07-02T08:43:52Z</time>
      </trkpt>
      <trkpt lat="48.60396" lon="1.89338">
        <ele>147.74</ele>
        <time>2017-07-02T08:44:03Z</time>
      </trkpt>
      <trkpt lat="48.60387" lon="1.89355">
        <ele>147.34</ele>
        <time>2017-07-02T08:44:22Z</time>
      </trkpt>
      <trkpt lat="48.60383" lon="1.89376">
        <ele>146.61</ele>
        <time>2017-07-02T08:44:35Z</time>
      </trkpt>
      <trkpt lat="48.6038" lon="1.89385">
        <ele>146.97</ele>
        <time>2017-07-02T08:44:43Z</time>
      </trkpt>
      <trkpt lat="48.60375" lon="1.89396">
        <ele>147.01</ele>
        <time>2017-07-02T08:44:54Z</time>
      </trkpt>
      <trkpt lat="48.60372" lon="1.89402">
        <ele>147.08</ele>
        <time>2017-07-02T08:44:59Z</time>
      </trkpt>
      <trkpt lat="48.60368" lon="1.89409">
        <ele>146.83</ele>
        <time>2017-07-02T08:45:04Z</time>
      </trkpt>
      <trkpt lat="48.6036" lon="1.89417">
        <ele>147</ele>
        <time>2017-07-02T08:45:11Z</time>
      </trkpt>
      <trkpt lat="48.60356" lon="1.89421">
        <ele>146.82</ele>
        <time>2017-07-02T08:45:16Z</time>
      </trkpt>
      <trkpt lat="48.60348" lon="1.89438">
        <ele>146.34</ele>
        <time>2017-07-02T08:45:29Z</time>
      </trkpt>
      <trkpt lat="48.60342" lon="1.89453">
        <ele>146.57</ele>
        <time>2017-07-02T08:45:46Z</time>
      </trkpt>
      <trkpt lat="48.60327" lon="1.89461">
        <ele>146.12</ele>
        <time>2017-07-02T08:46:02Z</time>
      </trkpt>
      <trkpt lat="48.60319" lon="1.89471">
        <ele>145.98</ele>
        <time>2017-07-02T08:46:16Z</time>
      </trkpt>
      <trkpt lat="48.60312" lon="1.8948">
        <ele>146.5</ele>
        <time>2017-07-02T08:46:23Z</time>
      </trkpt>
      <trkpt lat="48.60304" lon="1.895">
        <ele>146.48</ele>
        <time>2017-07-02T08:46:33Z</time>
      </trkpt>
      <trkpt lat="48.60301" lon="1.89502">
        <ele>146.48</ele>
        <time>2017-07-02T08:46:36Z</time>
      </trkpt>
      <trkpt lat="48.60287" lon="1.8952">
        <ele>145.93</ele>
        <time>2017-07-02T08:46:52Z</time>
      </trkpt>
      <trkpt lat="48.60278" lon="1.89526">
        <ele>145.71</ele>
        <time>2017-07-02T08:47:01Z</time>
      </trkpt>
      <trkpt lat="48.6027" lon="1.89528">
        <ele>146.01</ele>
        <time>2017-07-02T08:47:09Z</time>
      </trkpt>
      <trkpt lat="48.60261" lon="1.89554">
        <ele>146.5</ele>
        <time>2017-07-02T08:47:20Z</time>
      </trkpt>
      <trkpt lat="48.60251" lon="1.89564">
        <ele>145.52</ele>
        <time>2017-07-02T08:47:31Z</time>
      </trkpt>
      <trkpt lat="48.60233" lon="1.89589">
        <ele>145.79</ele>
        <time>2017-07-02T08:47:48Z</time>
      </trkpt>
      <trkpt lat="48.60226" lon="1.896">
        <ele>145.57</ele>
        <time>2017-07-02T08:47:57Z</time>
      </trkpt>
      <trkpt lat="48.60218" lon="1.89617">
        <ele>145.41</ele>
        <time>2017-07-02T08:48:12Z</time>
      </trkpt>
      <trkpt lat="48.6021" lon="1.89635">
        <ele>145.06</ele>
        <time>2017-07-02T08:48:25Z</time>
      </trkpt>
      <trkpt lat="48.60198" lon="1.89643">
        <ele>144.65</ele>
        <time>2017-07-02T08:48:43Z</time>
      </trkpt>
      <trkpt lat="48.60189" lon="1.89661">
        <ele>144.12</ele>
        <time>2017-07-02T08:49:02Z</time>
      </trkpt>
      <trkpt lat="48.60184" lon="1.89667">
        <ele>143.78</ele>
        <time>2017-07-02T08:49:07Z</time>
      </trkpt>
      <trkpt lat="48.60179" lon="1.8967">
        <ele>143.83</ele>
        <time>2017-07-02T08:49:12Z</time>
      </trkpt>
      <trkpt lat="48.6017" lon="1.8969">
        <ele>143.49</ele>
        <time>2017-07-02T08:49:24Z</time>
      </trkpt>
      <trkpt lat="48.60164" lon="1.89706">
        <ele>143.18</ele>
        <time>2017-07-02T08:49:35Z</time>
      </trkpt>
      <trkpt lat="48.60158" lon="1.89722">
        <ele>143.48</ele>
        <time>2017-07-02T08:49:45Z</time>
      </trkpt>
      <trkpt lat="48.60154" lon="1.89728">
        <ele>143.76</ele>
        <time>2017-07-02T08:49:49Z</time>
      </trkpt>
      <trkpt lat="48.60146" lon="1.89732">
        <ele>143.51</ele>
        <time>2017-07-02T08:49:55Z</time>
      </trkpt>
      <trkpt lat="48.60135" lon="1.89747">
        <ele>143.47</ele>
        <time>2017-07-02T08:50:09Z</time>
      </trkpt>
      <trkpt lat="48.60129" lon="1.89752">
        <ele>143.92</ele>
        <time>2017-07-02T08:50:15Z</time>
      </trkpt>
      <trkpt lat="48.60122" lon="1.89752">
        <ele>144.01</ele>
        <time>2017-07-02T08:50:29Z</time>
      </trkpt>
      <trkpt lat="48.60108" lon="1.89735">
        <ele>145.89</ele>
        <time>2017-07-02T08:50:49Z</time>
      </trkpt>
      <trkpt lat="48.60109" lon="1.89725">
        <ele>145.18</ele>
        <time>2017-07-02T08:51:19Z</time>
      </trkpt>
      <trkpt lat="48.60109" lon="1.89716">
        <ele>145.36</ele>
        <time>2017-07-02T08:51:29Z</time>
      </trkpt>
      <trkpt lat="48.60099" lon="1.89728">
        <ele>144.77</ele>
        <time>2017-07-02T08:51:58Z</time>
      </trkpt>
      <trkpt lat="48.60089" lon="1.89719">
        <ele>145.21</ele>
        <time>2017-07-02T08:52:12Z</time>
      </trkpt>
      <trkpt lat="48.60082" lon="1.89711">
        <ele>145.78</ele>
        <time>2017-07-02T08:52:23Z</time>
      </trkpt>
      <trkpt lat="48.60073" lon="1.89701">
        <ele>145.99</ele>
        <time>2017-07-02T08:52:35Z</time>
      </trkpt>
      <trkpt lat="48.60055" lon="1.8968">
        <ele>146.33</ele>
        <time>2017-07-02T08:52:57Z</time>
      </trkpt>
      <trkpt lat="48.60048" lon="1.89671">
        <ele>146.66</ele>
        <time>2017-07-02T08:53:06Z</time>
      </trkpt>
      <trkpt lat="48.60041" lon="1.89662">
        <ele>147.07</ele>
        <time>2017-07-02T08:53:21Z</time>
      </trkpt>
      <trkpt lat="48.60026" lon="1.89653">
        <ele>147.09</ele>
        <time>2017-07-02T08:53:31Z</time>
      </trkpt>
      <trkpt lat="48.60006" lon="1.89635">
        <ele>147.5</ele>
        <time>2017-07-02T08:53:51Z</time>
      </trkpt>
      <trkpt lat="48.59985" lon="1.89611">
        <ele>148.26</ele>
        <time>2017-07-02T08:54:15Z</time>
      </trkpt>
      <trkpt lat="48.59974" lon="1.89603">
        <ele>148.49</ele>
        <time>2017-07-02T08:54:30Z</time>
      </trkpt>
      <trkpt lat="48.59951" lon="1.89583">
        <ele>148.86</ele>
        <time>2017-07-02T08:54:52Z</time>
      </trkpt>
      <trkpt lat="48.59932" lon="1.89562">
        <ele>149.41</ele>
        <time>2017-07-02T08:55:11Z</time>
      </trkpt>
      <trkpt lat="48.5992" lon="1.89548">
        <ele>149.07</ele>
        <time>2017-07-02T08:55:28Z</time>
      </trkpt>
      <trkpt lat="48.59913" lon="1.89541">
        <ele>149.26</ele>
        <time>2017-07-02T08:55:37Z</time>
      </trkpt>
      <trkpt lat="48.59897" lon="1.89522">
        <ele>149.24</ele>
        <time>2017-07-02T08:55:51Z</time>
      </trkpt>
      <trkpt lat="48.59895" lon="1.8952">
        <ele>149.36</ele>
        <time>2017-07-02T08:55:52Z</time>
      </trkpt>
      <trkpt lat="48.59885" lon="1.8951">
        <ele>149.45</ele>
        <time>2017-07-02T08:56:00Z</time>
      </trkpt>
      <trkpt lat="48.59861" lon="1.89484">
        <ele>149.23</ele>
        <time>2017-07-02T08:56:24Z</time>
      </trkpt>
      <trkpt lat="48.59841" lon="1.89464">
        <ele>149.19</ele>
        <time>2017-07-02T08:56:44Z</time>
      </trkpt>
      <trkpt lat="48.5982" lon="1.89441">
        <ele>149.07</ele>
        <time>2017-07-02T08:57:09Z</time>
      </trkpt>
      <trkpt lat="48.59812" lon="1.89439">
        <ele>149.3</ele>
        <time>2017-07-02T08:57:24Z</time>
      </trkpt>
      <trkpt lat="48.59805" lon="1.89442">
        <ele>149.26</ele>
        <time>2017-07-02T08:57:35Z</time>
      </trkpt>
      <trkpt lat="48.59787" lon="1.89458">
        <ele>149.11</ele>
        <time>2017-07-02T08:58:00Z</time>
      </trkpt>
      <trkpt lat="48.59779" lon="1.89465">
        <ele>148.72</ele>
        <time>2017-07-02T08:58:08Z</time>
      </trkpt>
      <trkpt lat="48.59773" lon="1.89471">
        <ele>148.73</ele>
        <time>2017-07-02T08:58:16Z</time>
      </trkpt>
      <trkpt lat="48.59764" lon="1.89477">
        <ele>149.1</ele>
        <time>2017-07-02T08:58:26Z</time>
      </trkpt>
      <trkpt lat="48.5975" lon="1.89485">
        <ele>148.48</ele>
        <time>2017-07-02T08:58:37Z</time>
      </trkpt>
      <trkpt lat="48.59738" lon="1.89494">
        <ele>148.06</ele>
        <time>2017-07-02T08:58:47Z</time>
      </trkpt>
      <trkpt lat="48.5973" lon="1.89502">
        <ele>148.23</ele>
        <time>2017-07-02T08:58:55Z</time>
      </trkpt>
      <trkpt lat="48.59711" lon="1.89511">
        <ele>147.75</ele>
        <time>2017-07-02T08:59:07Z</time>
      </trkpt>
      <trkpt lat="48.59698" lon="1.89521">
        <ele>147.67</ele>
        <time>2017-07-02T08:59:22Z</time>
      </trkpt>
      <trkpt lat="48.59687" lon="1.89533">
        <ele>147.37</ele>
        <time>2017-07-02T08:59:37Z</time>
      </trkpt>
      <trkpt lat="48.59673" lon="1.89544">
        <ele>147.43</ele>
        <time>2017-07-02T08:59:55Z</time>
      </trkpt>
      <trkpt lat="48.59655" lon="1.89557">
        <ele>147.98</ele>
        <time>2017-07-02T09:00:13Z</time>
      </trkpt>
      <trkpt lat="48.59644" lon="1.89571">
        <ele>148.07</ele>
        <time>2017-07-02T09:00:30Z</time>
      </trkpt>
      <trkpt lat="48.59637" lon="1.89597">
        <ele>147.86</ele>
        <time>2017-07-02T09:00:53Z</time>
      </trkpt>
      <trkpt lat="48.59634" lon="1.89609">
        <ele>148.49</ele>
        <time>2017-07-02T09:01:02Z</time>
      </trkpt>
      <trkpt lat="48.59625" lon="1.89642">
        <ele>148.85</ele>
        <time>2017-07-02T09:01:25Z</time>
      </trkpt>
      <trkpt lat="48.59614" lon="1.89674">
        <ele>149.32</ele>
        <time>2017-07-02T09:01:45Z</time>
      </trkpt>
      <trkpt lat="48.59607" lon="1.89714">
        <ele>149.55</ele>
        <time>2017-07-02T09:02:08Z</time>
      </trkpt>
      <trkpt lat="48.59602" lon="1.89734">
        <ele>150.15</ele>
        <time>2017-07-02T09:02:25Z</time>
      </trkpt>
      <trkpt lat="48.59596" lon="1.89747">
        <ele>149.83</ele>
        <time>2017-07-02T09:02:43Z</time>
      </trkpt>
      <trkpt lat="48.5959" lon="1.89758">
        <ele>149.71</ele>
        <time>2017-07-02T09:02:52Z</time>
      </trkpt>
      <trkpt lat="48.59583" lon="1.89793">
        <ele>150.2</ele>
        <time>2017-07-02T09:03:14Z</time>
      </trkpt>
      <trkpt lat="48.59578" lon="1.8983">
        <ele>150.22</ele>
        <time>2017-07-02T09:03:38Z</time>
      </trkpt>
      <trkpt lat="48.59571" lon="1.89863">
        <ele>150.69</ele>
        <time>2017-07-02T09:04:01Z</time>
      </trkpt>
      <trkpt lat="48.59567" lon="1.89892">
        <ele>151.11</ele>
        <time>2017-07-02T09:04:23Z</time>
      </trkpt>
      <trkpt lat="48.59555" lon="1.89929">
        <ele>151.25</ele>
        <time>2017-07-02T09:04:46Z</time>
      </trkpt>
      <trkpt lat="48.59544" lon="1.8997">
        <ele>151.44</ele>
        <time>2017-07-02T09:05:11Z</time>
      </trkpt>
      <trkpt lat="48.59538" lon="1.90001">
        <ele>151.04</ele>
        <time>2017-07-02T09:05:33Z</time>
      </trkpt>
      <trkpt lat="48.59523" lon="1.90029">
        <ele>150.95</ele>
        <time>2017-07-02T09:05:54Z</time>
      </trkpt>
      <trkpt lat="48.59508" lon="1.90066">
        <ele>151.33</ele>
        <time>2017-07-02T09:06:16Z</time>
      </trkpt>
      <trkpt lat="48.59502" lon="1.90078">
        <ele>151.43</ele>
        <time>2017-07-02T09:06:30Z</time>
      </trkpt>
      <trkpt lat="48.59485" lon="1.90098">
        <ele>151.56</ele>
        <time>2017-07-02T09:06:49Z</time>
      </trkpt>
      <trkpt lat="48.59467" lon="1.90128">
        <ele>151.37</ele>
        <time>2017-07-02T09:07:11Z</time>
      </trkpt>
      <trkpt lat="48.59463" lon="1.90132">
        <ele>151.29</ele>
        <time>2017-07-02T09:07:14Z</time>
      </trkpt>
      <trkpt lat="48.59448" lon="1.90162">
        <ele>150.73</ele>
        <time>2017-07-02T09:07:38Z</time>
      </trkpt>
      <trkpt lat="48.59431" lon="1.90185">
        <ele>151.08</ele>
        <time>2017-07-02T09:08:00Z</time>
      </trkpt>
      <trkpt lat="48.59418" lon="1.90214">
        <ele>151.11</ele>
        <time>2017-07-02T09:08:22Z</time>
      </trkpt>
      <trkpt lat="48.59395" lon="1.90241">
        <ele>151.05</ele>
        <time>2017-07-02T09:08:46Z</time>
      </trkpt>
      <trkpt lat="48.59371" lon="1.90265">
        <ele>150.82</ele>
        <time>2017-07-02T09:09:10Z</time>
      </trkpt>
      <trkpt lat="48.59349" lon="1.90301">
        <ele>150.22</ele>
        <time>2017-07-02T09:09:37Z</time>
      </trkpt>
      <trkpt lat="48.59333" lon="1.90334">
        <ele>149.89</ele>
        <time>2017-07-02T09:10:01Z</time>
      </trkpt>
      <trkpt lat="48.59313" lon="1.90366">
        <ele>150.37</ele>
        <time>2017-07-02T09:10:24Z</time>
      </trkpt>
      <trkpt lat="48.59305" lon="1.90386">
        <ele>150.07</ele>
        <time>2017-07-02T09:10:43Z</time>
      </trkpt>
      <trkpt lat="48.59295" lon="1.90411">
        <ele>149.9</ele>
        <time>2017-07-02T09:10:55Z</time>
      </trkpt>
      <trkpt lat="48.59285" lon="1.90431">
        <ele>149.45</ele>
        <time>2017-07-02T09:11:09Z</time>
      </trkpt>
      <trkpt lat="48.59279" lon="1.90447">
        <ele>149.21</ele>
        <time>2017-07-02T09:11:30Z</time>
      </trkpt>
      <trkpt lat="48.59283" lon="1.90471">
        <ele>150.01</ele>
        <time>2017-07-02T09:11:52Z</time>
      </trkpt>
      <trkpt lat="48.59295" lon="1.90504">
        <ele>149.87</ele>
        <time>2017-07-02T09:12:17Z</time>
      </trkpt>
      <trkpt lat="48.59312" lon="1.90536">
        <ele>149.58</ele>
        <time>2017-07-02T09:12:41Z</time>
      </trkpt>
      <trkpt lat="48.59318" lon="1.90578">
        <ele>149.84</ele>
        <time>2017-07-02T09:13:02Z</time>
      </trkpt>
      <trkpt lat="48.59331" lon="1.90619">
        <ele>150.01</ele>
        <time>2017-07-02T09:13:28Z</time>
      </trkpt>
      <trkpt lat="48.59344" lon="1.9064">
        <ele>150.41</ele>
        <time>2017-07-02T09:13:47Z</time>
      </trkpt>
      <trkpt lat="48.59342" lon="1.90642">
        <ele>149.97</ele>
        <time>2017-07-02T09:14:11Z</time>
      </trkpt>
      <trkpt lat="48.5934" lon="1.90638">
        <ele>150.03</ele>
        <time>2017-07-02T09:14:34Z</time>
      </trkpt>
      <trkpt lat="48.59338" lon="1.90657">
        <ele>149.95</ele>
        <time>2017-07-02T09:15:00Z</time>
      </trkpt>
      <trkpt lat="48.59325" lon="1.90684">
        <ele>149.56</ele>
        <time>2017-07-02T09:15:22Z</time>
      </trkpt>
      <trkpt lat="48.59323" lon="1.90687">
        <ele>149.45</ele>
        <time>2017-07-02T09:15:24Z</time>
      </trkpt>
      <trkpt lat="48.59318" lon="1.90692">
        <ele>149.48</ele>
        <time>2017-07-02T09:15:28Z</time>
      </trkpt>
      <trkpt lat="48.59304" lon="1.90707">
        <ele>148.83</ele>
        <time>2017-07-02T09:15:41Z</time>
      </trkpt>
      <trkpt lat="48.59291" lon="1.90719">
        <ele>148.83</ele>
        <time>2017-07-02T09:15:54Z</time>
      </trkpt>
      <trkpt lat="48.59279" lon="1.90731">
        <ele>148.88</ele>
        <time>2017-07-02T09:16:06Z</time>
      </trkpt>
      <trkpt lat="48.59267" lon="1.90752">
        <ele>148.81</ele>
        <time>2017-07-02T09:16:22Z</time>
      </trkpt>
      <trkpt lat="48.59254" lon="1.90763">
        <ele>148.48</ele>
        <time>2017-07-02T09:16:34Z</time>
      </trkpt>
      <trkpt lat="48.59253" lon="1.90764">
        <ele>148.52</ele>
        <time>2017-07-02T09:16:35Z</time>
      </trkpt>
      <trkpt lat="48.59238" lon="1.90778">
        <ele>148.22</ele>
        <time>2017-07-02T09:16:52Z</time>
      </trkpt>
      <trkpt lat="48.59225" lon="1.90793">
        <ele>148.46</ele>
        <time>2017-07-02T09:17:05Z</time>
      </trkpt>
      <trkpt lat="48.59213" lon="1.90805">
        <ele>148.23</ele>
        <time>2017-07-02T09:17:20Z</time>
      </trkpt>
      <trkpt lat="48.59207" lon="1.90821">
        <ele>148.08</ele>
        <time>2017-07-02T09:17:33Z</time>
      </trkpt>
      <trkpt lat="48.59201" lon="1.9085">
        <ele>147.75</ele>
        <time>2017-07-02T09:17:56Z</time>
      </trkpt>
      <trkpt lat="48.59193" lon="1.90871">
        <ele>147.2</ele>
        <time>2017-07-02T09:18:18Z</time>
      </trkpt>
      <trkpt lat="48.59185" lon="1.90904">
        <ele>147.22</ele>
        <time>2017-07-02T09:18:37Z</time>
      </trkpt>
      <trkpt lat="48.59178" lon="1.9093">
        <ele>146.56</ele>
        <time>2017-07-02T09:18:54Z</time>
      </trkpt>
      <trkpt lat="48.59161" lon="1.90958">
        <ele>145.7</ele>
        <time>2017-07-02T09:19:21Z</time>
      </trkpt>
      <trkpt lat="48.59157" lon="1.9098">
        <ele>145.3</ele>
        <time>2017-07-02T09:19:35Z</time>
      </trkpt>
      <trkpt lat="48.5915" lon="1.90997">
        <ele>144.71</ele>
        <time>2017-07-02T09:19:49Z</time>
      </trkpt>
      <trkpt lat="48.59146" lon="1.9101">
        <ele>144.31</ele>
        <time>2017-07-02T09:20:09Z</time>
      </trkpt>
      <trkpt lat="48.59134" lon="1.91039">
        <ele>143.14</ele>
        <time>2017-07-02T09:20:31Z</time>
      </trkpt>
      <trkpt lat="48.59123" lon="1.91068">
        <ele>142.02</ele>
        <time>2017-07-02T09:20:53Z</time>
      </trkpt>
      <trkpt lat="48.59122" lon="1.91075">
        <ele>142.41</ele>
        <time>2017-07-02T09:20:56Z</time>
      </trkpt>
      <trkpt lat="48.59112" lon="1.91108">
        <ele>141.35</ele>
        <time>2017-07-02T09:21:14Z</time>
      </trkpt>
      <trkpt lat="48.59094" lon="1.91142">
        <ele>140.96</ele>
        <time>2017-07-02T09:21:35Z</time>
      </trkpt>
      <trkpt lat="48.59081" lon="1.91162">
        <ele>140.02</ele>
        <time>2017-07-02T09:21:57Z</time>
      </trkpt>
      <trkpt lat="48.59064" lon="1.91198">
        <ele>138.67</ele>
        <time>2017-07-02T09:22:21Z</time>
      </trkpt>
      <trkpt lat="48.59047" lon="1.91227">
        <ele>138.18</ele>
        <time>2017-07-02T09:22:44Z</time>
      </trkpt>
      <trkpt lat="48.59039" lon="1.91243">
        <ele>138.16</ele>
        <time>2017-07-02T09:22:56Z</time>
      </trkpt>
      <trkpt lat="48.59036" lon="1.91247">
        <ele>138.03</ele>
        <time>2017-07-02T09:22:59Z</time>
      </trkpt>
      <trkpt lat="48.59016" lon="1.91285">
        <ele>136.81</ele>
        <time>2017-07-02T09:23:26Z</time>
      </trkpt>
      <trkpt lat="48.59009" lon="1.9131">
        <ele>136.3</ele>
        <time>2017-07-02T09:23:42Z</time>
      </trkpt>
      <trkpt lat="48.59003" lon="1.91317">
        <ele>136.35</ele>
        <time>2017-07-02T09:23:55Z</time>
      </trkpt>
      <trkpt lat="48.58993" lon="1.91334">
        <ele>134.69</ele>
        <time>2017-07-02T09:24:22Z</time>
      </trkpt>
      <trkpt lat="48.5898" lon="1.91351">
        <ele>134.15</ele>
        <time>2017-07-02T09:24:43Z</time>
      </trkpt>
      <trkpt lat="48.58978" lon="1.91353">
        <ele>134.23</ele>
        <time>2017-07-02T09:24:49Z</time>
      </trkpt>
      <trkpt lat="48.58964" lon="1.91369">
        <ele>134.08</ele>
        <time>2017-07-02T09:25:12Z</time>
      </trkpt>
      <trkpt lat="48.5896" lon="1.91375">
        <ele>133.38</ele>
        <time>2017-07-02T09:25:22Z</time>
      </trkpt>
      <trkpt lat="48.58955" lon="1.91382">
        <ele>133.5</ele>
        <time>2017-07-02T09:25:28Z</time>
      </trkpt>
      <trkpt lat="48.58946" lon="1.91396">
        <ele>132.63</ele>
        <time>2017-07-02T09:25:43Z</time>
      </trkpt>
      <trkpt lat="48.58931" lon="1.91412">
        <ele>132.03</ele>
        <time>2017-07-02T09:26:04Z</time>
      </trkpt>
      <trkpt lat="48.58923" lon="1.91431">
        <ele>132.32</ele>
        <time>2017-07-02T09:26:24Z</time>
      </trkpt>
      <trkpt lat="48.58923" lon="1.91433">
        <ele>131.93</ele>
        <time>2017-07-02T09:26:25Z</time>
      </trkpt>
      <trkpt lat="48.58916" lon="1.91442">
        <ele>131.8</ele>
        <time>2017-07-02T09:26:51Z</time>
      </trkpt>
      <trkpt lat="48.58913" lon="1.91461">
        <ele>130.92</ele>
        <time>2017-07-02T09:27:06Z</time>
      </trkpt>
      <trkpt lat="48.58905" lon="1.91472">
        <ele>131.5</ele>
        <time>2017-07-02T09:27:29Z</time>
      </trkpt>
      <trkpt lat="48.58896" lon="1.9147">
        <ele>131.47</ele>
        <time>2017-07-02T09:28:00Z</time>
      </trkpt>
      <trkpt lat="48.58891" lon="1.91486">
        <ele>131.07</ele>
        <time>2017-07-02T09:28:15Z</time>
      </trkpt>
      <trkpt lat="48.58887" lon="1.91503">
        <ele>131.17</ele>
        <time>2017-07-02T09:28:28Z</time>
      </trkpt>
      <trkpt lat="48.58877" lon="1.91536">
        <ele>131.26</ele>
        <time>2017-07-02T09:28:51Z</time>
      </trkpt>
      <trkpt lat="48.58874" lon="1.91547">
        <ele>132.02</ele>
        <time>2017-07-02T09:28:59Z</time>
      </trkpt>
      <trkpt lat="48.58861" lon="1.91572">
        <ele>131.38</ele>
        <time>2017-07-02T09:29:18Z</time>
      </trkpt>
      <trkpt lat="48.58852" lon="1.91598">
        <ele>131.24</ele>
        <time>2017-07-02T09:29:35Z</time>
      </trkpt>
      <trkpt lat="48.58848" lon="1.9163">
        <ele>132.25</ele>
        <time>2017-07-02T09:29:50Z</time>
      </trkpt>
      <trkpt lat="48.58849" lon="1.91646">
        <ele>131.64</ele>
        <time>2017-07-02T09:30:04Z</time>
      </trkpt>
      <trkpt lat="48.58842" lon="1.91666">
        <ele>131.51</ele>
        <time>2017-07-02T09:30:26Z</time>
      </trkpt>
      <trkpt lat="48.58834" lon="1.91707">
        <ele>131.72</ele>
        <time>2017-07-02T09:30:49Z</time>
      </trkpt>
      <trkpt lat="48.58829" lon="1.91746">
        <ele>131.76</ele>
        <time>2017-07-02T09:31:12Z</time>
      </trkpt>
      <trkpt lat="48.58824" lon="1.91779">
        <ele>131.65</ele>
        <time>2017-07-02T09:31:34Z</time>
      </trkpt>
      <trkpt lat="48.58813" lon="1.91806">
        <ele>131.29</ele>
        <time>2017-07-02T09:31:49Z</time>
      </trkpt>
      <trkpt lat="48.58808" lon="1.91831">
        <ele>131.84</ele>
        <time>2017-07-02T09:32:06Z</time>
      </trkpt>
      <trkpt lat="48.588" lon="1.9187">
        <ele>131.41</ele>
        <time>2017-07-02T09:32:29Z</time>
      </trkpt>
      <trkpt lat="48.58787" lon="1.91892">
        <ele>131.32</ele>
        <time>2017-07-02T09:32:46Z</time>
      </trkpt>
      <trkpt lat="48.58771" lon="1.91929">
        <ele>130.37</ele>
        <time>2017-07-02T09:33:10Z</time>
      </trkpt>
      <trkpt lat="48.58752" lon="1.91962">
        <ele>129.96</ele>
        <time>2017-07-02T09:33:37Z</time>
      </trkpt>
      <trkpt lat="48.58735" lon="1.91994">
        <ele>129.91</ele>
        <time>2017-07-02T09:34:00Z</time>
      </trkpt>
      <trkpt lat="48.58722" lon="1.92028">
        <ele>129.62</ele>
        <time>2017-07-02T09:34:23Z</time>
      </trkpt>
      <trkpt lat="48.58712" lon="1.92057">
        <ele>129.1</ele>
        <time>2017-07-02T09:34:45Z</time>
      </trkpt>
      <trkpt lat="48.58701" lon="1.92087">
        <ele>128.4</ele>
        <time>2017-07-02T09:35:04Z</time>
      </trkpt>
      <trkpt lat="48.58686" lon="1.92128">
        <ele>128.28</ele>
        <time>2017-07-02T09:35:29Z</time>
      </trkpt>
      <trkpt lat="48.58675" lon="1.92157">
        <ele>127.76</ele>
        <time>2017-07-02T09:35:49Z</time>
      </trkpt>
      <trkpt lat="48.58655" lon="1.92186">
        <ele>127.4</ele>
        <time>2017-07-02T09:36:14Z</time>
      </trkpt>
      <trkpt lat="48.58639" lon="1.92218">
        <ele>126.76</ele>
        <time>2017-07-02T09:36:38Z</time>
      </trkpt>
      <trkpt lat="48.58624" lon="1.92251">
        <ele>126.88</ele>
        <time>2017-07-02T09:37:00Z</time>
      </trkpt>
      <trkpt lat="48.58622" lon="1.92256">
        <ele>127.07</ele>
        <time>2017-07-02T09:37:05Z</time>
      </trkpt>
      <trkpt lat="48.58619" lon="1.92265">
        <ele>126.82</ele>
        <time>2017-07-02T09:37:24Z</time>
      </trkpt>
      <trkpt lat="48.58614" lon="1.92269">
        <ele>127.44</ele>
        <time>2017-07-02T09:37:47Z</time>
      </trkpt>
      <trkpt lat="48.5861" lon="1.92268">
        <ele>126.45</ele>
        <time>2017-07-02T09:37:58Z</time>
      </trkpt>
      <trkpt lat="48.58606" lon="1.92263">
        <ele>126.75</ele>
        <time>2017-07-02T09:38:26Z</time>
      </trkpt>
      <trkpt lat="48.58601" lon="1.92266">
        <ele>127.37</ele>
        <time>2017-07-02T09:38:56Z</time>
      </trkpt>
      <trkpt lat="48.58599" lon="1.92261">
        <ele>126.94</ele>
        <time>2017-07-02T09:39:29Z</time>
      </trkpt>
      <trkpt lat="48.58599" lon="1.92266">
        <ele>127.53</ele>
        <time>2017-07-02T09:39:58Z</time>
      </trkpt>
      <trkpt lat="48.58603" lon="1.92273">
        <ele>127.9</ele>
        <time>2017-07-02T09:40:22Z</time>
      </trkpt>
      <trkpt lat="48.58604" lon="1.92281">
        <ele>128.07</ele>
        <time>2017-07-02T09:40:48Z</time>
      </trkpt>
      <trkpt lat="48.58599" lon="1.92305">
        <ele>127.12</ele>
        <time>2017-07-02T09:41:07Z</time>
      </trkpt>
      <trkpt lat="48.58596" lon="1.9231">
        <ele>127.11</ele>
        <time>2017-07-02T09:41:11Z</time>
      </trkpt>
      <trkpt lat="48.5859" lon="1.92341">
        <ele>127.12</ele>
        <time>2017-07-02T09:41:34Z</time>
      </trkpt>
      <trkpt lat="48.5858" lon="1.9237">
        <ele>126.88</ele>
        <time>2017-07-02T09:41:55Z</time>
      </trkpt>
      <trkpt lat="48.58568" lon="1.924">
        <ele>127.21</ele>
        <time>2017-07-02T09:42:15Z</time>
      </trkpt>
      <trkpt lat="48.58566" lon="1.92402">
        <ele>126.67</ele>
        <time>2017-07-02T09:42:17Z</time>
      </trkpt>
      <trkpt lat="48.58554" lon="1.92433">
        <ele>126.35</ele>
        <time>2017-07-02T09:42:39Z</time>
      </trkpt>
      <trkpt lat="48.58538" lon="1.92451">
        <ele>126.12</ele>
        <time>2017-07-02T09:43:01Z</time>
      </trkpt>
      <trkpt lat="48.58523" lon="1.92465">
        <ele>125.14</ele>
        <time>2017-07-02T09:43:22Z</time>
      </trkpt>
      <trkpt lat="48.58498" lon="1.92496">
        <ele>125.21</ele>
        <time>2017-07-02T09:43:45Z</time>
      </trkpt>
      <trkpt lat="48.58476" lon="1.92509">
        <ele>124.25</ele>
        <time>2017-07-02T09:44:02Z</time>
      </trkpt>
      <trkpt lat="48.58463" lon="1.92518">
        <ele>124.12</ele>
        <time>2017-07-02T09:44:21Z</time>
      </trkpt>
      <trkpt lat="48.58446" lon="1.92532">
        <ele>123.13</ele>
        <time>2017-07-02T09:44:42Z</time>
      </trkpt>
      <trkpt lat="48.58433" lon="1.92535">
        <ele>123.39</ele>
        <time>2017-07-02T09:45:00Z</time>
      </trkpt>
      <trkpt lat="48.58423" lon="1.92547">
        <ele>122.95</ele>
        <time>2017-07-02T09:45:10Z</time>
      </trkpt>
      <trkpt lat="48.58404" lon="1.92582">
        <ele>134.81</ele>
        <time>2017-07-02T10:27:26Z</time>
      </trkpt>
      <trkpt lat="48.58395" lon="1.92605">
        <ele>134.69</ele>
        <time>2017-07-02T10:27:45Z</time>
      </trkpt>
      <trkpt lat="48.58384" lon="1.92626">
        <ele>134.83</ele>
        <time>2017-07-02T10:28:07Z</time>
      </trkpt>
      <trkpt lat="48.58376" lon="1.92646">
        <ele>134.9</ele>
        <time>2017-07-02T10:28:26Z</time>
      </trkpt>
      <trkpt lat="48.58361" lon="1.92653">
        <ele>134.64</ele>
        <time>2017-07-02T10:28:45Z</time>
      </trkpt>
      <trkpt lat="48.58347" lon="1.92665">
        <ele>134.58</ele>
        <time>2017-07-02T10:29:08Z</time>
      </trkpt>
      <trkpt lat="48.58336" lon="1.92677">
        <ele>134.76</ele>
        <time>2017-07-02T10:29:20Z</time>
      </trkpt>
      <trkpt lat="48.58323" lon="1.92686">
        <ele>134.88</ele>
        <time>2017-07-02T10:29:33Z</time>
      </trkpt>
      <trkpt lat="48.58307" lon="1.927">
        <ele>134.92</ele>
        <time>2017-07-02T10:29:47Z</time>
      </trkpt>
      <trkpt lat="48.58303" lon="1.92701">
        <ele>135.37</ele>
        <time>2017-07-02T10:29:51Z</time>
      </trkpt>
      <trkpt lat="48.58297" lon="1.9271">
        <ele>134.56</ele>
        <time>2017-07-02T10:30:08Z</time>
      </trkpt>
      <trkpt lat="48.58298" lon="1.9272">
        <ele>134.73</ele>
        <time>2017-07-02T10:30:14Z</time>
      </trkpt>
      <trkpt lat="48.58292" lon="1.92741">
        <ele>135.86</ele>
        <time>2017-07-02T10:30:35Z</time>
      </trkpt>
      <trkpt lat="48.58285" lon="1.92762">
        <ele>136.15</ele>
        <time>2017-07-02T10:30:53Z</time>
      </trkpt>
      <trkpt lat="48.5827" lon="1.92785">
        <ele>137.29</ele>
        <time>2017-07-02T10:31:13Z</time>
      </trkpt>
      <trkpt lat="48.58259" lon="1.9281">
        <ele>137.49</ele>
        <time>2017-07-02T10:31:29Z</time>
      </trkpt>
      <trkpt lat="48.5825" lon="1.92823">
        <ele>138.08</ele>
        <time>2017-07-02T10:31:40Z</time>
      </trkpt>
      <trkpt lat="48.58232" lon="1.92847">
        <ele>138.53</ele>
        <time>2017-07-02T10:32:04Z</time>
      </trkpt>
      <trkpt lat="48.58229" lon="1.9285">
        <ele>138.34</ele>
        <time>2017-07-02T10:32:07Z</time>
      </trkpt>
      <trkpt lat="48.58214" lon="1.92865">
        <ele>139.55</ele>
        <time>2017-07-02T10:32:25Z</time>
      </trkpt>
      <trkpt lat="48.5821" lon="1.92867">
        <ele>139.35</ele>
        <time>2017-07-02T10:32:29Z</time>
      </trkpt>
      <trkpt lat="48.58204" lon="1.92874">
        <ele>138.79</ele>
        <time>2017-07-02T10:32:34Z</time>
      </trkpt>
      <trkpt lat="48.58181" lon="1.9289">
        <ele>138.83</ele>
        <time>2017-07-02T10:32:53Z</time>
      </trkpt>
      <trkpt lat="48.58164" lon="1.92899">
        <ele>139.47</ele>
        <time>2017-07-02T10:33:08Z</time>
      </trkpt>
      <trkpt lat="48.58146" lon="1.92902">
        <ele>139.73</ele>
        <time>2017-07-02T10:33:24Z</time>
      </trkpt>
      <trkpt lat="48.58133" lon="1.92907">
        <ele>139.82</ele>
        <time>2017-07-02T10:33:36Z</time>
      </trkpt>
      <trkpt lat="48.5812" lon="1.92913">
        <ele>139.5</ele>
        <time>2017-07-02T10:33:48Z</time>
      </trkpt>
      <trkpt lat="48.58104" lon="1.92928">
        <ele>139.99</ele>
        <time>2017-07-02T10:34:02Z</time>
      </trkpt>
      <trkpt lat="48.58089" lon="1.92935">
        <ele>139.9</ele>
        <time>2017-07-02T10:34:16Z</time>
      </trkpt>
      <trkpt lat="48.58076" lon="1.92942">
        <ele>140.24</ele>
        <time>2017-07-02T10:34:29Z</time>
      </trkpt>
      <trkpt lat="48.58069" lon="1.92945">
        <ele>140.56</ele>
        <time>2017-07-02T10:34:35Z</time>
      </trkpt>
      <trkpt lat="48.58065" lon="1.92949">
        <ele>140.2</ele>
        <time>2017-07-02T10:34:39Z</time>
      </trkpt>
      <trkpt lat="48.58059" lon="1.92951">
        <ele>140.15</ele>
        <time>2017-07-02T10:34:44Z</time>
      </trkpt>
      <trkpt lat="48.58042" lon="1.9296">
        <ele>141.1</ele>
        <time>2017-07-02T10:35:01Z</time>
      </trkpt>
      <trkpt lat="48.58028" lon="1.92976">
        <ele>141.39</ele>
        <time>2017-07-02T10:35:15Z</time>
      </trkpt>
      <trkpt lat="48.58011" lon="1.92987">
        <ele>141.32</ele>
        <time>2017-07-02T10:35:30Z</time>
      </trkpt>
      <trkpt lat="48.58003" lon="1.92992">
        <ele>141.91</ele>
        <time>2017-07-02T10:35:39Z</time>
      </trkpt>
      <trkpt lat="48.57999" lon="1.92994">
        <ele>141.04</ele>
        <time>2017-07-02T10:35:43Z</time>
      </trkpt>
      <trkpt lat="48.5798" lon="1.93004">
        <ele>141.61</ele>
        <time>2017-07-02T10:36:02Z</time>
      </trkpt>
      <trkpt lat="48.57965" lon="1.93014">
        <ele>141.87</ele>
        <time>2017-07-02T10:36:17Z</time>
      </trkpt>
      <trkpt lat="48.57949" lon="1.93022">
        <ele>142.08</ele>
        <time>2017-07-02T10:36:34Z</time>
      </trkpt>
      <trkpt lat="48.57945" lon="1.93026">
        <ele>142.67</ele>
        <time>2017-07-02T10:36:51Z</time>
      </trkpt>
      <trkpt lat="48.57937" lon="1.93032">
        <ele>142.69</ele>
        <time>2017-07-02T10:37:02Z</time>
      </trkpt>
      <trkpt lat="48.57933" lon="1.93034">
        <ele>142.27</ele>
        <time>2017-07-02T10:37:06Z</time>
      </trkpt>
      <trkpt lat="48.57915" lon="1.93049">
        <ele>142.13</ele>
        <time>2017-07-02T10:37:25Z</time>
      </trkpt>
      <trkpt lat="48.57897" lon="1.93066">
        <ele>142.44</ele>
        <time>2017-07-02T10:37:43Z</time>
      </trkpt>
      <trkpt lat="48.57877" lon="1.93082">
        <ele>142.72</ele>
        <time>2017-07-02T10:38:02Z</time>
      </trkpt>
      <trkpt lat="48.57862" lon="1.93097">
        <ele>142.66</ele>
        <time>2017-07-02T10:38:18Z</time>
      </trkpt>
      <trkpt lat="48.57847" lon="1.9311">
        <ele>143.05</ele>
        <time>2017-07-02T10:38:32Z</time>
      </trkpt>
      <trkpt lat="48.57834" lon="1.93123">
        <ele>143.34</ele>
        <time>2017-07-02T10:38:46Z</time>
      </trkpt>
      <trkpt lat="48.57823" lon="1.93134">
        <ele>143.72</ele>
        <time>2017-07-02T10:38:59Z</time>
      </trkpt>
      <trkpt lat="48.57808" lon="1.93148">
        <ele>143.36</ele>
        <time>2017-07-02T10:39:13Z</time>
      </trkpt>
      <trkpt lat="48.57792" lon="1.93161">
        <ele>143.73</ele>
        <time>2017-07-02T10:39:28Z</time>
      </trkpt>
      <trkpt lat="48.5778" lon="1.93172">
        <ele>143.26</ele>
        <time>2017-07-02T10:39:41Z</time>
      </trkpt>
      <trkpt lat="48.57764" lon="1.93187">
        <ele>143.81</ele>
        <time>2017-07-02T10:39:57Z</time>
      </trkpt>
      <trkpt lat="48.57751" lon="1.932">
        <ele>143.66</ele>
        <time>2017-07-02T10:40:12Z</time>
      </trkpt>
      <trkpt lat="48.57737" lon="1.93214">
        <ele>143.54</ele>
        <time>2017-07-02T10:40:27Z</time>
      </trkpt>
      <trkpt lat="48.57724" lon="1.93227">
        <ele>143.37</ele>
        <time>2017-07-02T10:40:41Z</time>
      </trkpt>
      <trkpt lat="48.57709" lon="1.9324">
        <ele>143.12</ele>
        <time>2017-07-02T10:40:56Z</time>
      </trkpt>
      <trkpt lat="48.57694" lon="1.93254">
        <ele>142.89</ele>
        <time>2017-07-02T10:41:11Z</time>
      </trkpt>
      <trkpt lat="48.5768" lon="1.93268">
        <ele>142.54</ele>
        <time>2017-07-02T10:41:26Z</time>
      </trkpt>
      <trkpt lat="48.57667" lon="1.93283">
        <ele>142.61</ele>
        <time>2017-07-02T10:41:40Z</time>
      </trkpt>
      <trkpt lat="48.57652" lon="1.93297">
        <ele>142.34</ele>
        <time>2017-07-02T10:41:57Z</time>
      </trkpt>
      <trkpt lat="48.57634" lon="1.93315">
        <ele>140.91</ele>
        <time>2017-07-02T10:42:14Z</time>
      </trkpt>
      <trkpt lat="48.5762" lon="1.93329">
        <ele>140.39</ele>
        <time>2017-07-02T10:42:29Z</time>
      </trkpt>
      <trkpt lat="48.5761" lon="1.93337">
        <ele>139.15</ele>
        <time>2017-07-02T10:42:44Z</time>
      </trkpt>
      <trkpt lat="48.5759" lon="1.93359">
        <ele>136.12</ele>
        <time>2017-07-02T10:43:10Z</time>
      </trkpt>
      <trkpt lat="48.57572" lon="1.93383">
        <ele>134.17</ele>
        <time>2017-07-02T10:43:32Z</time>
      </trkpt>
      <trkpt lat="48.57558" lon="1.9341">
        <ele>131.19</ele>
        <time>2017-07-02T10:43:55Z</time>
      </trkpt>
      <trkpt lat="48.5755" lon="1.93429">
        <ele>130.37</ele>
        <time>2017-07-02T10:44:11Z</time>
      </trkpt>
      <trkpt lat="48.57541" lon="1.93444">
        <ele>129.28</ele>
        <time>2017-07-02T10:44:33Z</time>
      </trkpt>
      <trkpt lat="48.57529" lon="1.9347">
        <ele>126.97</ele>
        <time>2017-07-02T10:44:53Z</time>
      </trkpt>
      <trkpt lat="48.5752" lon="1.93483">
        <ele>126.24</ele>
        <time>2017-07-02T10:45:09Z</time>
      </trkpt>
      <trkpt lat="48.57511" lon="1.93497">
        <ele>125.27</ele>
        <time>2017-07-02T10:45:28Z</time>
      </trkpt>
      <trkpt lat="48.57503" lon="1.93519">
        <ele>124.15</ele>
        <time>2017-07-02T10:45:51Z</time>
      </trkpt>
      <trkpt lat="48.57498" lon="1.93544">
        <ele>123.44</ele>
        <time>2017-07-02T10:46:08Z</time>
      </trkpt>
      <trkpt lat="48.57498" lon="1.93544">
        <ele>122.88</ele>
        <time>2017-07-02T10:46:10Z</time>
      </trkpt>
      <trkpt lat="48.575" lon="1.93553">
        <ele>122.57</ele>
        <time>2017-07-02T10:46:26Z</time>
      </trkpt>
      <trkpt lat="48.57494" lon="1.93564">
        <ele>122.28</ele>
        <time>2017-07-02T10:46:45Z</time>
      </trkpt>
      <trkpt lat="48.57494" lon="1.93569">
        <ele>122.04</ele>
        <time>2017-07-02T10:46:49Z</time>
      </trkpt>
      <trkpt lat="48.57493" lon="1.93575">
        <ele>122.07</ele>
        <time>2017-07-02T10:46:54Z</time>
      </trkpt>
      <trkpt lat="48.57495" lon="1.93587">
        <ele>121.5</ele>
        <time>2017-07-02T10:47:13Z</time>
      </trkpt>
      <trkpt lat="48.57487" lon="1.93599">
        <ele>120.6</ele>
        <time>2017-07-02T10:47:29Z</time>
      </trkpt>
      <trkpt lat="48.57487" lon="1.93601">
        <ele>120.7</ele>
        <time>2017-07-02T10:47:32Z</time>
      </trkpt>
      <trkpt lat="48.57487" lon="1.93606">
        <ele>120.25</ele>
        <time>2017-07-02T10:47:37Z</time>
      </trkpt>
      <trkpt lat="48.57489" lon="1.93612">
        <ele>120.13</ele>
        <time>2017-07-02T10:47:42Z</time>
      </trkpt>
      <trkpt lat="48.57488" lon="1.93629">
        <ele>119.62</ele>
        <time>2017-07-02T10:47:55Z</time>
      </trkpt>
      <trkpt lat="48.57489" lon="1.93644">
        <ele>119.09</ele>
        <time>2017-07-02T10:48:05Z</time>
      </trkpt>
      <trkpt lat="48.57491" lon="1.93657">
        <ele>118.71</ele>
        <time>2017-07-02T10:48:13Z</time>
      </trkpt>
      <trkpt lat="48.57491" lon="1.93663">
        <ele>118.11</ele>
        <time>2017-07-02T10:48:16Z</time>
      </trkpt>
      <trkpt lat="48.57489" lon="1.93678">
        <ele>118.48</ele>
        <time>2017-07-02T10:48:26Z</time>
      </trkpt>
      <trkpt lat="48.57487" lon="1.93689">
        <ele>117.94</ele>
        <time>2017-07-02T10:48:36Z</time>
      </trkpt>
      <trkpt lat="48.57488" lon="1.93693">
        <ele>117.85</ele>
        <time>2017-07-02T10:48:39Z</time>
      </trkpt>
      <trkpt lat="48.57489" lon="1.93701">
        <ele>117.68</ele>
        <time>2017-07-02T10:48:44Z</time>
      </trkpt>
      <trkpt lat="48.57486" lon="1.93717">
        <ele>117.43</ele>
        <time>2017-07-02T10:48:51Z</time>
      </trkpt>
      <trkpt lat="48.57485" lon="1.93727">
        <ele>117.03</ele>
        <time>2017-07-02T10:48:56Z</time>
      </trkpt>
      <trkpt lat="48.57485" lon="1.9373">
        <ele>117.2</ele>
        <time>2017-07-02T10:48:58Z</time>
      </trkpt>
      <trkpt lat="48.57484" lon="1.93733">
        <ele>117.23</ele>
        <time>2017-07-02T10:49:00Z</time>
      </trkpt>
      <trkpt lat="48.57477" lon="1.93765">
        <ele>115.79</ele>
        <time>2017-07-02T10:49:18Z</time>
      </trkpt>
      <trkpt lat="48.57476" lon="1.93775">
        <ele>115.72</ele>
        <time>2017-07-02T10:49:24Z</time>
      </trkpt>
      <trkpt lat="48.57476" lon="1.93784">
        <ele>115.64</ele>
        <time>2017-07-02T10:49:29Z</time>
      </trkpt>
      <trkpt lat="48.57474" lon="1.9379">
        <ele>115.53</ele>
        <time>2017-07-02T10:49:33Z</time>
      </trkpt>
      <trkpt lat="48.57465" lon="1.93819">
        <ele>115</ele>
        <time>2017-07-02T10:49:49Z</time>
      </trkpt>
      <trkpt lat="48.57457" lon="1.93846">
        <ele>114.36</ele>
        <time>2017-07-02T10:50:04Z</time>
      </trkpt>
      <trkpt lat="48.5745" lon="1.93866">
        <ele>114.35</ele>
        <time>2017-07-02T10:50:18Z</time>
      </trkpt>
      <trkpt lat="48.57449" lon="1.93869">
        <ele>114.35</ele>
        <time>2017-07-02T10:50:20Z</time>
      </trkpt>
      <trkpt lat="48.57434" lon="1.93878">
        <ele>114.22</ele>
        <time>2017-07-02T10:50:33Z</time>
      </trkpt>
      <trkpt lat="48.57426" lon="1.93883">
        <ele>113.52</ele>
        <time>2017-07-02T10:50:41Z</time>
      </trkpt>
      <trkpt lat="48.57425" lon="1.93898">
        <ele>114.44</ele>
        <time>2017-07-02T10:50:52Z</time>
      </trkpt>
      <trkpt lat="48.57427" lon="1.939">
        <ele>114.41</ele>
        <time>2017-07-02T10:50:55Z</time>
      </trkpt>
      <trkpt lat="48.5743" lon="1.93905">
        <ele>114.37</ele>
        <time>2017-07-02T10:50:59Z</time>
      </trkpt>
      <trkpt lat="48.57427" lon="1.93919">
        <ele>114.6</ele>
        <time>2017-07-02T10:51:10Z</time>
      </trkpt>
      <trkpt lat="48.57414" lon="1.93936">
        <ele>115.02</ele>
        <time>2017-07-02T10:51:28Z</time>
      </trkpt>
      <trkpt lat="48.57398" lon="1.93952">
        <ele>114.44</ele>
        <time>2017-07-02T10:51:46Z</time>
      </trkpt>
      <trkpt lat="48.57394" lon="1.93959">
        <ele>113.68</ele>
        <time>2017-07-02T10:52:03Z</time>
      </trkpt>
      <trkpt lat="48.57386" lon="1.93954">
        <ele>111.66</ele>
        <time>2017-07-02T10:52:20Z</time>
      </trkpt>
      <trkpt lat="48.57376" lon="1.93948">
        <ele>112.09</ele>
        <time>2017-07-02T10:52:36Z</time>
      </trkpt>
      <trkpt lat="48.57374" lon="1.93947">
        <ele>112.48</ele>
        <time>2017-07-02T10:52:37Z</time>
      </trkpt>
      <trkpt lat="48.57373" lon="1.93944">
        <ele>112.16</ele>
        <time>2017-07-02T10:52:39Z</time>
      </trkpt>
      <trkpt lat="48.57361" lon="1.93935">
        <ele>112.09</ele>
        <time>2017-07-02T10:52:50Z</time>
      </trkpt>
      <trkpt lat="48.57355" lon="1.93915">
        <ele>112.25</ele>
        <time>2017-07-02T10:53:01Z</time>
      </trkpt>
      <trkpt lat="48.57353" lon="1.93912">
        <ele>111.99</ele>
        <time>2017-07-02T10:53:04Z</time>
      </trkpt>
      <trkpt lat="48.57338" lon="1.93914">
        <ele>111.79</ele>
        <time>2017-07-02T10:53:20Z</time>
      </trkpt>
      <trkpt lat="48.57323" lon="1.93923">
        <ele>111.36</ele>
        <time>2017-07-02T10:53:38Z</time>
      </trkpt>
      <trkpt lat="48.573" lon="1.93935">
        <ele>110.95</ele>
        <time>2017-07-02T10:53:57Z</time>
      </trkpt>
      <trkpt lat="48.57281" lon="1.93944">
        <ele>110.83</ele>
        <time>2017-07-02T10:54:13Z</time>
      </trkpt>
      <trkpt lat="48.57273" lon="1.93946">
        <ele>110.66</ele>
        <time>2017-07-02T10:54:26Z</time>
      </trkpt>
      <trkpt lat="48.57269" lon="1.93958">
        <ele>110.44</ele>
        <time>2017-07-02T10:54:52Z</time>
      </trkpt>
      <trkpt lat="48.57269" lon="1.93959">
        <ele>110.47</ele>
        <time>2017-07-02T10:54:53Z</time>
      </trkpt>
      <trkpt lat="48.57269" lon="1.9396">
        <ele>110.51</ele>
        <time>2017-07-02T10:55:12Z</time>
      </trkpt>
      <trkpt lat="48.57267" lon="1.9396">
        <ele>110.23</ele>
        <time>2017-07-02T10:55:14Z</time>
      </trkpt>
      <trkpt lat="48.57264" lon="1.93959">
        <ele>110.73</ele>
        <time>2017-07-02T10:55:16Z</time>
      </trkpt>
      <trkpt lat="48.57249" lon="1.93962">
        <ele>109.91</ele>
        <time>2017-07-02T10:55:31Z</time>
      </trkpt>
      <trkpt lat="48.57225" lon="1.93967">
        <ele>109.08</ele>
        <time>2017-07-02T10:55:55Z</time>
      </trkpt>
      <trkpt lat="48.57215" lon="1.93971">
        <ele>107.91</ele>
        <time>2017-07-02T10:56:08Z</time>
      </trkpt>
      <trkpt lat="48.57213" lon="1.93971">
        <ele>108.39</ele>
        <time>2017-07-02T10:56:31Z</time>
      </trkpt>
      <trkpt lat="48.57206" lon="1.93984">
        <ele>108.42</ele>
        <time>2017-07-02T10:56:44Z</time>
      </trkpt>
      <trkpt lat="48.57203" lon="1.93986">
        <ele>109.13</ele>
        <time>2017-07-02T10:56:55Z</time>
      </trkpt>
      <trkpt lat="48.57194" lon="1.93996">
        <ele>108.39</ele>
        <time>2017-07-02T10:57:10Z</time>
      </trkpt>
      <trkpt lat="48.5719" lon="1.93992">
        <ele>108.17</ele>
        <time>2017-07-02T10:57:13Z</time>
      </trkpt>
      <trkpt lat="48.57185" lon="1.93999">
        <ele>108.18</ele>
        <time>2017-07-02T10:57:22Z</time>
      </trkpt>
      <trkpt lat="48.57178" lon="1.94004">
        <ele>109.05</ele>
        <time>2017-07-02T11:00:30Z</time>
      </trkpt>
      <trkpt lat="48.57168" lon="1.93992">
        <ele>108.09</ele>
        <time>2017-07-02T11:02:43Z</time>
      </trkpt>
      <trkpt lat="48.5715" lon="1.93997">
        <ele>109.25</ele>
        <time>2017-07-02T11:03:51Z</time>
      </trkpt>
      <trkpt lat="48.57155" lon="1.93998">
        <ele>109.09</ele>
        <time>2017-07-02T11:04:12Z</time>
      </trkpt>
      <trkpt lat="48.57155" lon="1.93999">
        <ele>109.32</ele>
        <time>2017-07-02T11:04:13Z</time>
      </trkpt>
      <trkpt lat="48.57168" lon="1.93993">
        <ele>109.02</ele>
        <time>2017-07-02T11:04:48Z</time>
      </trkpt>
      <trkpt lat="48.57173" lon="1.93996">
        <ele>108.54</ele>
        <time>2017-07-02T11:06:57Z</time>
      </trkpt>
      <trkpt lat="48.57177" lon="1.94">
        <ele>108.36</ele>
        <time>2017-07-02T11:07:19Z</time>
      </trkpt>
      <trkpt lat="48.57183" lon="1.94">
        <ele>111.6</ele>
        <time>2017-07-02T11:10:05Z</time>
      </trkpt>
      <trkpt lat="48.57184" lon="1.94012">
        <ele>111.64</ele>
        <time>2017-07-02T11:10:19Z</time>
      </trkpt>
      <trkpt lat="48.57192" lon="1.94043">
        <ele>112.26</ele>
        <time>2017-07-02T11:10:37Z</time>
      </trkpt>
      <trkpt lat="48.57192" lon="1.94044">
        <ele>112.19</ele>
        <time>2017-07-02T11:10:38Z</time>
      </trkpt>
      <trkpt lat="48.57194" lon="1.94048">
        <ele>112.37</ele>
        <time>2017-07-02T11:10:40Z</time>
      </trkpt>
      <trkpt lat="48.57195" lon="1.94052">
        <ele>111.9</ele>
        <time>2017-07-02T11:10:43Z</time>
      </trkpt>
      <trkpt lat="48.57196" lon="1.94061">
        <ele>111.61</ele>
        <time>2017-07-02T11:10:48Z</time>
      </trkpt>
      <trkpt lat="48.57191" lon="1.94077">
        <ele>110.96</ele>
        <time>2017-07-02T11:10:59Z</time>
      </trkpt>
      <trkpt lat="48.5719" lon="1.94079">
        <ele>110.92</ele>
        <time>2017-07-02T11:11:01Z</time>
      </trkpt>
      <trkpt lat="48.57178" lon="1.94098">
        <ele>109.79</ele>
        <time>2017-07-02T11:11:18Z</time>
      </trkpt>
      <trkpt lat="48.57164" lon="1.94108">
        <ele>108.42</ele>
        <time>2017-07-02T11:11:30Z</time>
      </trkpt>
      <trkpt lat="48.57159" lon="1.9411">
        <ele>108.17</ele>
        <time>2017-07-02T11:11:47Z</time>
      </trkpt>
      <trkpt lat="48.57148" lon="1.94112">
        <ele>106.69</ele>
        <time>2017-07-02T11:12:07Z</time>
      </trkpt>
      <trkpt lat="48.57133" lon="1.94113">
        <ele>103.65</ele>
        <time>2017-07-02T11:12:22Z</time>
      </trkpt>
      <trkpt lat="48.57132" lon="1.94114">
        <ele>103.71</ele>
        <time>2017-07-02T11:12:23Z</time>
      </trkpt>
      <trkpt lat="48.57128" lon="1.94123">
        <ele>102.19</ele>
        <time>2017-07-02T11:12:32Z</time>
      </trkpt>
      <trkpt lat="48.57127" lon="1.94134">
        <ele>101.16</ele>
        <time>2017-07-02T11:12:51Z</time>
      </trkpt>
      <trkpt lat="48.57122" lon="1.94135">
        <ele>100.04</ele>
        <time>2017-07-02T11:13:10Z</time>
      </trkpt>
      <trkpt lat="48.57109" lon="1.94132">
        <ele>99.78</ele>
        <time>2017-07-02T11:13:24Z</time>
      </trkpt>
      <trkpt lat="48.57095" lon="1.94131">
        <ele>98.88</ele>
        <time>2017-07-02T11:13:34Z</time>
      </trkpt>
      <trkpt lat="48.57082" lon="1.94129">
        <ele>98.31</ele>
        <time>2017-07-02T11:13:44Z</time>
      </trkpt>
      <trkpt lat="48.57069" lon="1.94133">
        <ele>98.95</ele>
        <time>2017-07-02T11:13:59Z</time>
      </trkpt>
      <trkpt lat="48.57048" lon="1.94142">
        <ele>98.77</ele>
        <time>2017-07-02T11:14:19Z</time>
      </trkpt>
      <trkpt lat="48.5703" lon="1.94146">
        <ele>99.16</ele>
        <time>2017-07-02T11:14:35Z</time>
      </trkpt>
      <trkpt lat="48.57028" lon="1.94146">
        <ele>99</ele>
        <time>2017-07-02T11:14:37Z</time>
      </trkpt>
      <trkpt lat="48.57023" lon="1.94146">
        <ele>99.03</ele>
        <time>2017-07-02T11:14:46Z</time>
      </trkpt>
      <trkpt lat="48.57021" lon="1.94147">
        <ele>98.99</ele>
        <time>2017-07-02T11:14:48Z</time>
      </trkpt>
      <trkpt lat="48.57001" lon="1.94148">
        <ele>98.97</ele>
        <time>2017-07-02T11:15:04Z</time>
      </trkpt>
      <trkpt lat="48.57" lon="1.94148">
        <ele>98.39</ele>
        <time>2017-07-02T11:15:05Z</time>
      </trkpt>
      <trkpt lat="48.56987" lon="1.94151">
        <ele>98.87</ele>
        <time>2017-07-02T11:15:19Z</time>
      </trkpt>
      <trkpt lat="48.5697" lon="1.94148">
        <ele>99.44</ele>
        <time>2017-07-02T11:15:35Z</time>
      </trkpt>
      <trkpt lat="48.5696" lon="1.94144">
        <ele>100.8</ele>
        <time>2017-07-02T11:15:52Z</time>
      </trkpt>
      <trkpt lat="48.56955" lon="1.94151">
        <ele>100.79</ele>
        <time>2017-07-02T11:16:14Z</time>
      </trkpt>
      <trkpt lat="48.56946" lon="1.94154">
        <ele>102.02</ele>
        <time>2017-07-02T11:16:26Z</time>
      </trkpt>
      <trkpt lat="48.56923" lon="1.94155">
        <ele>105.32</ele>
        <time>2017-07-02T11:16:48Z</time>
      </trkpt>
      <trkpt lat="48.56901" lon="1.94167">
        <ele>107.13</ele>
        <time>2017-07-02T11:17:12Z</time>
      </trkpt>
      <trkpt lat="48.56882" lon="1.94177">
        <ele>108.85</ele>
        <time>2017-07-02T11:17:33Z</time>
      </trkpt>
      <trkpt lat="48.56861" lon="1.94184">
        <ele>111.07</ele>
        <time>2017-07-02T11:17:54Z</time>
      </trkpt>
      <trkpt lat="48.56846" lon="1.94186">
        <ele>113.04</ele>
        <time>2017-07-02T11:18:09Z</time>
      </trkpt>
      <trkpt lat="48.5683" lon="1.94196">
        <ele>115.8</ele>
        <time>2017-07-02T11:18:28Z</time>
      </trkpt>
      <trkpt lat="48.56828" lon="1.94196">
        <ele>115.22</ele>
        <time>2017-07-02T11:18:30Z</time>
      </trkpt>
      <trkpt lat="48.56816" lon="1.94198">
        <ele>118.87</ele>
        <time>2017-07-02T11:18:47Z</time>
      </trkpt>
      <trkpt lat="48.56811" lon="1.94199">
        <ele>119.73</ele>
        <time>2017-07-02T11:18:53Z</time>
      </trkpt>
      <trkpt lat="48.568" lon="1.94206">
        <ele>121.66</ele>
        <time>2017-07-02T11:19:06Z</time>
      </trkpt>
      <trkpt lat="48.56797" lon="1.94206">
        <ele>122.52</ele>
        <time>2017-07-02T11:19:10Z</time>
      </trkpt>
      <trkpt lat="48.56788" lon="1.94207">
        <ele>124.08</ele>
        <time>2017-07-02T11:19:21Z</time>
      </trkpt>
      <trkpt lat="48.56785" lon="1.9421">
        <ele>124.92</ele>
        <time>2017-07-02T11:19:27Z</time>
      </trkpt>
      <trkpt lat="48.5678" lon="1.94212">
        <ele>125.31</ele>
        <time>2017-07-02T11:19:32Z</time>
      </trkpt>
      <trkpt lat="48.56765" lon="1.94217">
        <ele>128.47</ele>
        <time>2017-07-02T11:19:51Z</time>
      </trkpt>
      <trkpt lat="48.56751" lon="1.94228">
        <ele>128.69</ele>
        <time>2017-07-02T11:20:05Z</time>
      </trkpt>
      <trkpt lat="48.56747" lon="1.94228">
        <ele>129.59</ele>
        <time>2017-07-02T11:20:20Z</time>
      </trkpt>
      <trkpt lat="48.56744" lon="1.94232">
        <ele>130.88</ele>
        <time>2017-07-02T11:20:27Z</time>
      </trkpt>
      <trkpt lat="48.5674" lon="1.94236">
        <ele>131.35</ele>
        <time>2017-07-02T11:20:47Z</time>
      </trkpt>
      <trkpt lat="48.56734" lon="1.94238">
        <ele>131.36</ele>
        <time>2017-07-02T11:21:03Z</time>
      </trkpt>
      <trkpt lat="48.56723" lon="1.94241">
        <ele>133.07</ele>
        <time>2017-07-02T11:21:17Z</time>
      </trkpt>
      <trkpt lat="48.56703" lon="1.94248">
        <ele>135.62</ele>
        <time>2017-07-02T11:21:42Z</time>
      </trkpt>
      <trkpt lat="48.5668" lon="1.94257">
        <ele>136.8</ele>
        <time>2017-07-02T11:22:06Z</time>
      </trkpt>
      <trkpt lat="48.56672" lon="1.94264">
        <ele>137.7</ele>
        <time>2017-07-02T11:22:16Z</time>
      </trkpt>
      <trkpt lat="48.56661" lon="1.94271">
        <ele>138.25</ele>
        <time>2017-07-02T11:22:28Z</time>
      </trkpt>
      <trkpt lat="48.56651" lon="1.9428">
        <ele>137.73</ele>
        <time>2017-07-02T11:22:48Z</time>
      </trkpt>
      <trkpt lat="48.56644" lon="1.94284">
        <ele>138.26</ele>
        <time>2017-07-02T11:24:40Z</time>
      </trkpt>
      <trkpt lat="48.56638" lon="1.94287">
        <ele>138.3</ele>
        <time>2017-07-02T11:24:57Z</time>
      </trkpt>
      <trkpt lat="48.56625" lon="1.94293">
        <ele>139.01</ele>
        <time>2017-07-02T11:25:15Z</time>
      </trkpt>
      <trkpt lat="48.56621" lon="1.94295">
        <ele>139.49</ele>
        <time>2017-07-02T11:25:19Z</time>
      </trkpt>
      <trkpt lat="48.56606" lon="1.94299">
        <ele>139.41</ele>
        <time>2017-07-02T11:25:40Z</time>
      </trkpt>
      <trkpt lat="48.56598" lon="1.94302">
        <ele>139.43</ele>
        <time>2017-07-02T11:26:00Z</time>
      </trkpt>
      <trkpt lat="48.56576" lon="1.94312">
        <ele>139.48</ele>
        <time>2017-07-02T11:26:23Z</time>
      </trkpt>
      <trkpt lat="48.56559" lon="1.94319">
        <ele>139.22</ele>
        <time>2017-07-02T11:26:40Z</time>
      </trkpt>
      <trkpt lat="48.56543" lon="1.94328">
        <ele>138.97</ele>
        <time>2017-07-02T11:26:54Z</time>
      </trkpt>
      <trkpt lat="48.56526" lon="1.94339">
        <ele>138.85</ele>
        <time>2017-07-02T11:27:10Z</time>
      </trkpt>
      <trkpt lat="48.56523" lon="1.94342">
        <ele>138.33</ele>
        <time>2017-07-02T11:27:24Z</time>
      </trkpt>
      <trkpt lat="48.56521" lon="1.94346">
        <ele>138.79</ele>
        <time>2017-07-02T11:27:51Z</time>
      </trkpt>
      <trkpt lat="48.56521" lon="1.94344">
        <ele>138.99</ele>
        <time>2017-07-02T11:28:19Z</time>
      </trkpt>
      <trkpt lat="48.56517" lon="1.94347">
        <ele>138.8</ele>
        <time>2017-07-02T11:28:37Z</time>
      </trkpt>
      <trkpt lat="48.56511" lon="1.94349">
        <ele>138.63</ele>
        <time>2017-07-02T11:28:58Z</time>
      </trkpt>
      <trkpt lat="48.56509" lon="1.9435">
        <ele>137.91</ele>
        <time>2017-07-02T11:29:00Z</time>
      </trkpt>
      <trkpt lat="48.565" lon="1.94355">
        <ele>137.77</ele>
        <time>2017-07-02T11:29:15Z</time>
      </trkpt>
      <trkpt lat="48.56483" lon="1.94368">
        <ele>136.76</ele>
        <time>2017-07-02T11:29:33Z</time>
      </trkpt>
      <trkpt lat="48.56469" lon="1.94378">
        <ele>135.32</ele>
        <time>2017-07-02T11:29:52Z</time>
      </trkpt>
      <trkpt lat="48.56462" lon="1.94385">
        <ele>134.87</ele>
        <time>2017-07-02T11:30:12Z</time>
      </trkpt>
      <trkpt lat="48.56446" lon="1.94401">
        <ele>133.64</ele>
        <time>2017-07-02T11:30:33Z</time>
      </trkpt>
      <trkpt lat="48.56429" lon="1.94423">
        <ele>131.9</ele>
        <time>2017-07-02T11:30:56Z</time>
      </trkpt>
      <trkpt lat="48.56428" lon="1.94424">
        <ele>131.91</ele>
        <time>2017-07-02T11:30:57Z</time>
      </trkpt>
      <trkpt lat="48.56413" lon="1.94444">
        <ele>131.04</ele>
        <time>2017-07-02T11:31:12Z</time>
      </trkpt>
      <trkpt lat="48.56412" lon="1.94446">
        <ele>131.08</ele>
        <time>2017-07-02T11:31:14Z</time>
      </trkpt>
      <trkpt lat="48.56404" lon="1.94455">
        <ele>130.59</ele>
        <time>2017-07-02T11:31:20Z</time>
      </trkpt>
      <trkpt lat="48.56392" lon="1.94465">
        <ele>130.1</ele>
        <time>2017-07-02T11:31:32Z</time>
      </trkpt>
      <trkpt lat="48.56385" lon="1.94476">
        <ele>130.11</ele>
        <time>2017-07-02T11:31:49Z</time>
      </trkpt>
      <trkpt lat="48.56383" lon="1.94474">
        <ele>130.6</ele>
        <time>2017-07-02T11:31:57Z</time>
      </trkpt>
      <trkpt lat="48.56363" lon="1.94462">
        <ele>129.87</ele>
        <time>2017-07-02T11:32:20Z</time>
      </trkpt>
      <trkpt lat="48.56347" lon="1.94468">
        <ele>129.26</ele>
        <time>2017-07-02T11:32:37Z</time>
      </trkpt>
      <trkpt lat="48.5633" lon="1.94463">
        <ele>128.84</ele>
        <time>2017-07-02T11:32:51Z</time>
      </trkpt>
      <trkpt lat="48.56328" lon="1.94463">
        <ele>129.01</ele>
        <time>2017-07-02T11:32:53Z</time>
      </trkpt>
      <trkpt lat="48.56309" lon="1.94466">
        <ele>128.91</ele>
        <time>2017-07-02T11:33:11Z</time>
      </trkpt>
      <trkpt lat="48.56281" lon="1.94471">
        <ele>127.98</ele>
        <time>2017-07-02T11:33:37Z</time>
      </trkpt>
      <trkpt lat="48.56258" lon="1.94468">
        <ele>128.05</ele>
        <time>2017-07-02T11:33:59Z</time>
      </trkpt>
      <trkpt lat="48.56242" lon="1.9447">
        <ele>127.73</ele>
        <time>2017-07-02T11:34:13Z</time>
      </trkpt>
      <trkpt lat="48.56211" lon="1.9447">
        <ele>127.19</ele>
        <time>2017-07-02T11:34:38Z</time>
      </trkpt>
      <trkpt lat="48.56184" lon="1.94469">
        <ele>127.1</ele>
        <time>2017-07-02T11:35:03Z</time>
      </trkpt>
      <trkpt lat="48.56171" lon="1.9447">
        <ele>126.69</ele>
        <time>2017-07-02T11:35:21Z</time>
      </trkpt>
      <trkpt lat="48.56155" lon="1.94465">
        <ele>126.56</ele>
        <time>2017-07-02T11:35:42Z</time>
      </trkpt>
      <trkpt lat="48.56145" lon="1.94467">
        <ele>125.95</ele>
        <time>2017-07-02T11:35:55Z</time>
      </trkpt>
      <trkpt lat="48.56122" lon="1.94474">
        <ele>125.56</ele>
        <time>2017-07-02T11:36:11Z</time>
      </trkpt>
      <trkpt lat="48.5612" lon="1.94478">
        <ele>125.57</ele>
        <time>2017-07-02T11:36:14Z</time>
      </trkpt>
      <trkpt lat="48.56113" lon="1.94497">
        <ele>126.27</ele>
        <time>2017-07-02T11:36:29Z</time>
      </trkpt>
      <trkpt lat="48.56112" lon="1.9451">
        <ele>126.56</ele>
        <time>2017-07-02T11:36:44Z</time>
      </trkpt>
      <trkpt lat="48.56108" lon="1.94524">
        <ele>127.45</ele>
        <time>2017-07-02T11:36:57Z</time>
      </trkpt>
      <trkpt lat="48.56105" lon="1.94535">
        <ele>126.83</ele>
        <time>2017-07-02T11:37:07Z</time>
      </trkpt>
      <trkpt lat="48.561" lon="1.94552">
        <ele>128.01</ele>
        <time>2017-07-02T11:37:20Z</time>
      </trkpt>
      <trkpt lat="48.56097" lon="1.94562">
        <ele>128.17</ele>
        <time>2017-07-02T11:37:26Z</time>
      </trkpt>
      <trkpt lat="48.5609" lon="1.94582">
        <ele>128.61</ele>
        <time>2017-07-02T11:37:40Z</time>
      </trkpt>
      <trkpt lat="48.56079" lon="1.94618">
        <ele>129.86</ele>
        <time>2017-07-02T11:38:05Z</time>
      </trkpt>
      <trkpt lat="48.56065" lon="1.94651">
        <ele>131.6</ele>
        <time>2017-07-02T11:38:26Z</time>
      </trkpt>
      <trkpt lat="48.56062" lon="1.94657">
        <ele>132.53</ele>
        <time>2017-07-02T11:38:31Z</time>
      </trkpt>
      <trkpt lat="48.56047" lon="1.9469">
        <ele>134.31</ele>
        <time>2017-07-02T11:38:55Z</time>
      </trkpt>
      <trkpt lat="48.56041" lon="1.94709">
        <ele>135.18</ele>
        <time>2017-07-02T11:39:11Z</time>
      </trkpt>
      <trkpt lat="48.56031" lon="1.94738">
        <ele>136.46</ele>
        <time>2017-07-02T11:39:32Z</time>
      </trkpt>
      <trkpt lat="48.56021" lon="1.94752">
        <ele>137.03</ele>
        <time>2017-07-02T11:39:54Z</time>
      </trkpt>
      <trkpt lat="48.56016" lon="1.94766">
        <ele>137.94</ele>
        <time>2017-07-02T11:40:16Z</time>
      </trkpt>
      <trkpt lat="48.56011" lon="1.94776">
        <ele>139.23</ele>
        <time>2017-07-02T11:40:32Z</time>
      </trkpt>
      <trkpt lat="48.56006" lon="1.94799">
        <ele>140.11</ele>
        <time>2017-07-02T11:40:47Z</time>
      </trkpt>
      <trkpt lat="48.55993" lon="1.94828">
        <ele>140.59</ele>
        <time>2017-07-02T11:41:02Z</time>
      </trkpt>
      <trkpt lat="48.55985" lon="1.94846">
        <ele>141.1</ele>
        <time>2017-07-02T11:41:14Z</time>
      </trkpt>
      <trkpt lat="48.55978" lon="1.94874">
        <ele>142.29</ele>
        <time>2017-07-02T11:41:33Z</time>
      </trkpt>
      <trkpt lat="48.55971" lon="1.94887">
        <ele>142.66</ele>
        <time>2017-07-02T11:41:50Z</time>
      </trkpt>
      <trkpt lat="48.5596" lon="1.94914">
        <ele>143.84</ele>
        <time>2017-07-02T11:42:13Z</time>
      </trkpt>
      <trkpt lat="48.55955" lon="1.94928">
        <ele>144.07</ele>
        <time>2017-07-02T11:42:23Z</time>
      </trkpt>
      <trkpt lat="48.5595" lon="1.94948">
        <ele>144.53</ele>
        <time>2017-07-02T11:42:39Z</time>
      </trkpt>
      <trkpt lat="48.55945" lon="1.94956">
        <ele>144.79</ele>
        <time>2017-07-02T11:42:44Z</time>
      </trkpt>
      <trkpt lat="48.55934" lon="1.94992">
        <ele>145.35</ele>
        <time>2017-07-02T11:43:02Z</time>
      </trkpt>
      <trkpt lat="48.55931" lon="1.94999">
        <ele>146</ele>
        <time>2017-07-02T11:43:07Z</time>
      </trkpt>
      <trkpt lat="48.55923" lon="1.9502">
        <ele>146.24</ele>
        <time>2017-07-02T11:43:22Z</time>
      </trkpt>
      <trkpt lat="48.55914" lon="1.95042">
        <ele>147.03</ele>
        <time>2017-07-02T11:43:37Z</time>
      </trkpt>
      <trkpt lat="48.55908" lon="1.95058">
        <ele>147.94</ele>
        <time>2017-07-02T11:43:47Z</time>
      </trkpt>
      <trkpt lat="48.55905" lon="1.95063">
        <ele>147.84</ele>
        <time>2017-07-02T11:43:52Z</time>
      </trkpt>
      <trkpt lat="48.55898" lon="1.9508">
        <ele>148.67</ele>
        <time>2017-07-02T11:44:08Z</time>
      </trkpt>
      <trkpt lat="48.55895" lon="1.95086">
        <ele>148.96</ele>
        <time>2017-07-02T11:44:12Z</time>
      </trkpt>
      <trkpt lat="48.55884" lon="1.95113">
        <ele>149.11</ele>
        <time>2017-07-02T11:44:31Z</time>
      </trkpt>
      <trkpt lat="48.55879" lon="1.95126">
        <ele>149.42</ele>
        <time>2017-07-02T11:44:41Z</time>
      </trkpt>
      <trkpt lat="48.55875" lon="1.95141">
        <ele>148.78</ele>
        <time>2017-07-02T11:44:58Z</time>
      </trkpt>
      <trkpt lat="48.5589" lon="1.95154">
        <ele>153.68</ele>
        <time>2017-07-02T11:51:10Z</time>
      </trkpt>
      <trkpt lat="48.55892" lon="1.95156">
        <ele>153.47</ele>
        <time>2017-07-02T11:51:33Z</time>
      </trkpt>
      <trkpt lat="48.55897" lon="1.95159">
        <ele>154.08</ele>
        <time>2017-07-02T11:51:49Z</time>
      </trkpt>
      <trkpt lat="48.55917" lon="1.95174">
        <ele>153.45</ele>
        <time>2017-07-02T11:52:13Z</time>
      </trkpt>
      <trkpt lat="48.55933" lon="1.95195">
        <ele>152.81</ele>
        <time>2017-07-02T11:52:35Z</time>
      </trkpt>
      <trkpt lat="48.55939" lon="1.95219">
        <ele>152.67</ele>
        <time>2017-07-02T11:52:54Z</time>
      </trkpt>
      <trkpt lat="48.55941" lon="1.95265">
        <ele>153.34</ele>
        <time>2017-07-02T11:53:18Z</time>
      </trkpt>
      <trkpt lat="48.5595" lon="1.95298">
        <ele>152.9</ele>
        <time>2017-07-02T11:53:36Z</time>
      </trkpt>
      <trkpt lat="48.5595" lon="1.95304">
        <ele>152.9</ele>
        <time>2017-07-02T11:53:38Z</time>
      </trkpt>
      <trkpt lat="48.5595" lon="1.95332">
        <ele>153.13</ele>
        <time>2017-07-02T11:53:57Z</time>
      </trkpt>
      <trkpt lat="48.55953" lon="1.9537">
        <ele>152.99</ele>
        <time>2017-07-02T11:54:23Z</time>
      </trkpt>
      <trkpt lat="48.55956" lon="1.95408">
        <ele>152.28</ele>
        <time>2017-07-02T11:54:43Z</time>
      </trkpt>
      <trkpt lat="48.5596" lon="1.95435">
        <ele>152.35</ele>
        <time>2017-07-02T11:55:00Z</time>
      </trkpt>
      <trkpt lat="48.55973" lon="1.95476">
        <ele>150.84</ele>
        <time>2017-07-02T11:55:24Z</time>
      </trkpt>
      <trkpt lat="48.55979" lon="1.95507">
        <ele>150.57</ele>
        <time>2017-07-02T11:55:43Z</time>
      </trkpt>
      <trkpt lat="48.55984" lon="1.95549">
        <ele>150.15</ele>
        <time>2017-07-02T11:56:06Z</time>
      </trkpt>
      <trkpt lat="48.55985" lon="1.95571">
        <ele>149.32</ele>
        <time>2017-07-02T11:56:20Z</time>
      </trkpt>
      <trkpt lat="48.55986" lon="1.95616">
        <ele>148.98</ele>
        <time>2017-07-02T11:56:45Z</time>
      </trkpt>
      <trkpt lat="48.5599" lon="1.95655">
        <ele>148.23</ele>
        <time>2017-07-02T11:57:07Z</time>
      </trkpt>
      <trkpt lat="48.55989" lon="1.95664">
        <ele>148.56</ele>
        <time>2017-07-02T11:57:11Z</time>
      </trkpt>
      <trkpt lat="48.55988" lon="1.95701">
        <ele>147.53</ele>
        <time>2017-07-02T11:57:31Z</time>
      </trkpt>
      <trkpt lat="48.55991" lon="1.95738">
        <ele>146.99</ele>
        <time>2017-07-02T11:57:54Z</time>
      </trkpt>
      <trkpt lat="48.55992" lon="1.95771">
        <ele>147.16</ele>
        <time>2017-07-02T11:58:11Z</time>
      </trkpt>
      <trkpt lat="48.55998" lon="1.95811">
        <ele>147.21</ele>
        <time>2017-07-02T11:58:36Z</time>
      </trkpt>
      <trkpt lat="48.56003" lon="1.95845">
        <ele>146.46</ele>
        <time>2017-07-02T11:58:53Z</time>
      </trkpt>
      <trkpt lat="48.56004" lon="1.95862">
        <ele>146.37</ele>
        <time>2017-07-02T11:59:01Z</time>
      </trkpt>
      <trkpt lat="48.56008" lon="1.95899">
        <ele>146.06</ele>
        <time>2017-07-02T11:59:22Z</time>
      </trkpt>
      <trkpt lat="48.5601" lon="1.95928">
        <ele>145.49</ele>
        <time>2017-07-02T11:59:41Z</time>
      </trkpt>
      <trkpt lat="48.56002" lon="1.9595">
        <ele>145.72</ele>
        <time>2017-07-02T11:59:55Z</time>
      </trkpt>
      <trkpt lat="48.55997" lon="1.95954">
        <ele>145.9</ele>
        <time>2017-07-02T12:00:07Z</time>
      </trkpt>
      <trkpt lat="48.55991" lon="1.95967">
        <ele>145.86</ele>
        <time>2017-07-02T12:00:18Z</time>
      </trkpt>
      <trkpt lat="48.55983" lon="1.95983">
        <ele>146.21</ele>
        <time>2017-07-02T12:00:30Z</time>
      </trkpt>
      <trkpt lat="48.55975" lon="1.9599">
        <ele>146.14</ele>
        <time>2017-07-02T12:00:42Z</time>
      </trkpt>
      <trkpt lat="48.55973" lon="1.95992">
        <ele>146.49</ele>
        <time>2017-07-02T12:00:46Z</time>
      </trkpt>
      <trkpt lat="48.55972" lon="1.95995">
        <ele>146.59</ele>
        <time>2017-07-02T12:00:48Z</time>
      </trkpt>
      <trkpt lat="48.55964" lon="1.95999">
        <ele>147.14</ele>
        <time>2017-07-02T12:01:02Z</time>
      </trkpt>
      <trkpt lat="48.55955" lon="1.96008">
        <ele>147.05</ele>
        <time>2017-07-02T12:01:14Z</time>
      </trkpt>
      <trkpt lat="48.55947" lon="1.96018">
        <ele>148.18</ele>
        <time>2017-07-02T12:01:27Z</time>
      </trkpt>
      <trkpt lat="48.55947" lon="1.96019">
        <ele>147.7</ele>
        <time>2017-07-02T12:01:29Z</time>
      </trkpt>
      <trkpt lat="48.55942" lon="1.96014">
        <ele>148.12</ele>
        <time>2017-07-02T12:02:02Z</time>
      </trkpt>
      <trkpt lat="48.55948" lon="1.96017">
        <ele>148.27</ele>
        <time>2017-07-02T12:02:53Z</time>
      </trkpt>
      <trkpt lat="48.5595" lon="1.96009">
        <ele>148.17</ele>
        <time>2017-07-02T12:03:22Z</time>
      </trkpt>
      <trkpt lat="48.55948" lon="1.96015">
        <ele>147.93</ele>
        <time>2017-07-02T12:03:59Z</time>
      </trkpt>
      <trkpt lat="48.55933" lon="1.96026">
        <ele>149.33</ele>
        <time>2017-07-02T12:04:21Z</time>
      </trkpt>
      <trkpt lat="48.55924" lon="1.96036">
        <ele>149.42</ele>
        <time>2017-07-02T12:04:31Z</time>
      </trkpt>
      <trkpt lat="48.55914" lon="1.96043">
        <ele>149.8</ele>
        <time>2017-07-02T12:04:42Z</time>
      </trkpt>
      <trkpt lat="48.55912" lon="1.96045">
        <ele>149.89</ele>
        <time>2017-07-02T12:04:44Z</time>
      </trkpt>
      <trkpt lat="48.55902" lon="1.96051">
        <ele>150.3</ele>
        <time>2017-07-02T12:04:57Z</time>
      </trkpt>
      <trkpt lat="48.55894" lon="1.96055">
        <ele>150.3</ele>
        <time>2017-07-02T12:05:06Z</time>
      </trkpt>
      <trkpt lat="48.55885" lon="1.96063">
        <ele>150.63</ele>
        <time>2017-07-02T12:05:17Z</time>
      </trkpt>
      <trkpt lat="48.55873" lon="1.96073">
        <ele>151.17</ele>
        <time>2017-07-02T12:05:31Z</time>
      </trkpt>
      <trkpt lat="48.55861" lon="1.96089">
        <ele>151.36</ele>
        <time>2017-07-02T12:05:43Z</time>
      </trkpt>
      <trkpt lat="48.55854" lon="1.96096">
        <ele>151.73</ele>
        <time>2017-07-02T12:05:53Z</time>
      </trkpt>
      <trkpt lat="48.5584" lon="1.96112">
        <ele>152.03</ele>
        <time>2017-07-02T12:06:07Z</time>
      </trkpt>
      <trkpt lat="48.55827" lon="1.96121">
        <ele>152.3</ele>
        <time>2017-07-02T12:06:17Z</time>
      </trkpt>
      <trkpt lat="48.55823" lon="1.96125">
        <ele>151.98</ele>
        <time>2017-07-02T12:06:21Z</time>
      </trkpt>
      <trkpt lat="48.55811" lon="1.96136">
        <ele>152.07</ele>
        <time>2017-07-02T12:06:33Z</time>
      </trkpt>
      <trkpt lat="48.55789" lon="1.9616">
        <ele>152.17</ele>
        <time>2017-07-02T12:06:56Z</time>
      </trkpt>
      <trkpt lat="48.55766" lon="1.96182">
        <ele>152.39</ele>
        <time>2017-07-02T12:07:17Z</time>
      </trkpt>
      <trkpt lat="48.55751" lon="1.96195">
        <ele>152.91</ele>
        <time>2017-07-02T12:07:31Z</time>
      </trkpt>
      <trkpt lat="48.55742" lon="1.96204">
        <ele>153.23</ele>
        <time>2017-07-02T12:07:42Z</time>
      </trkpt>
      <trkpt lat="48.55719" lon="1.96225">
        <ele>153.24</ele>
        <time>2017-07-02T12:08:03Z</time>
      </trkpt>
      <trkpt lat="48.55709" lon="1.96234">
        <ele>153.48</ele>
        <time>2017-07-02T12:08:16Z</time>
      </trkpt>
      <trkpt lat="48.55686" lon="1.96252">
        <ele>153.5</ele>
        <time>2017-07-02T12:08:40Z</time>
      </trkpt>
      <trkpt lat="48.55672" lon="1.96261">
        <ele>153.6</ele>
        <time>2017-07-02T12:08:53Z</time>
      </trkpt>
      <trkpt lat="48.5565" lon="1.96265">
        <ele>153.54</ele>
        <time>2017-07-02T12:09:10Z</time>
      </trkpt>
      <trkpt lat="48.55643" lon="1.96266">
        <ele>153.65</ele>
        <time>2017-07-02T12:09:15Z</time>
      </trkpt>
      <trkpt lat="48.5564" lon="1.96267">
        <ele>153.73</ele>
        <time>2017-07-02T12:09:18Z</time>
      </trkpt>
      <trkpt lat="48.55618" lon="1.96275">
        <ele>153.86</ele>
        <time>2017-07-02T12:09:33Z</time>
      </trkpt>
      <trkpt lat="48.55611" lon="1.96285">
        <ele>153.77</ele>
        <time>2017-07-02T12:09:46Z</time>
      </trkpt>
      <trkpt lat="48.5561" lon="1.96288">
        <ele>153.73</ele>
        <time>2017-07-02T12:09:49Z</time>
      </trkpt>
      <trkpt lat="48.55606" lon="1.96316">
        <ele>153.62</ele>
        <time>2017-07-02T12:10:05Z</time>
      </trkpt>
      <trkpt lat="48.55605" lon="1.9632">
        <ele>153.46</ele>
        <time>2017-07-02T12:10:08Z</time>
      </trkpt>
      <trkpt lat="48.55598" lon="1.96334">
        <ele>153.68</ele>
        <time>2017-07-02T12:10:20Z</time>
      </trkpt>
      <trkpt lat="48.5559" lon="1.96342">
        <ele>153.82</ele>
        <time>2017-07-02T12:10:30Z</time>
      </trkpt>
      <trkpt lat="48.55578" lon="1.96354">
        <ele>153.66</ele>
        <time>2017-07-02T12:10:43Z</time>
      </trkpt>
      <trkpt lat="48.55576" lon="1.96356">
        <ele>153.68</ele>
        <time>2017-07-02T12:10:45Z</time>
      </trkpt>
      <trkpt lat="48.55565" lon="1.96366">
        <ele>153.71</ele>
        <time>2017-07-02T12:10:55Z</time>
      </trkpt>
      <trkpt lat="48.55561" lon="1.96369">
        <ele>153.72</ele>
        <time>2017-07-02T12:10:59Z</time>
      </trkpt>
      <trkpt lat="48.55554" lon="1.96374">
        <ele>153.47</ele>
        <time>2017-07-02T12:11:06Z</time>
      </trkpt>
      <trkpt lat="48.5554" lon="1.96386">
        <ele>153.54</ele>
        <time>2017-07-02T12:11:22Z</time>
      </trkpt>
      <trkpt lat="48.5552" lon="1.96402">
        <ele>152.93</ele>
        <time>2017-07-02T12:11:36Z</time>
      </trkpt>
      <trkpt lat="48.55502" lon="1.9642">
        <ele>153.15</ele>
        <time>2017-07-02T12:11:55Z</time>
      </trkpt>
      <trkpt lat="48.55499" lon="1.96426">
        <ele>153.28</ele>
        <time>2017-07-02T12:11:59Z</time>
      </trkpt>
      <trkpt lat="48.55488" lon="1.96438">
        <ele>153.13</ele>
        <time>2017-07-02T12:12:12Z</time>
      </trkpt>
      <trkpt lat="48.55474" lon="1.96453">
        <ele>153.19</ele>
        <time>2017-07-02T12:12:27Z</time>
      </trkpt>
      <trkpt lat="48.55457" lon="1.96463">
        <ele>153.04</ele>
        <time>2017-07-02T12:12:43Z</time>
      </trkpt>
      <trkpt lat="48.55446" lon="1.96472">
        <ele>152.93</ele>
        <time>2017-07-02T12:12:56Z</time>
      </trkpt>
      <trkpt lat="48.55429" lon="1.96492">
        <ele>153.16</ele>
        <time>2017-07-02T12:13:12Z</time>
      </trkpt>
      <trkpt lat="48.55423" lon="1.96498">
        <ele>152.67</ele>
        <time>2017-07-02T12:13:18Z</time>
      </trkpt>
      <trkpt lat="48.5541" lon="1.96512">
        <ele>152.82</ele>
        <time>2017-07-02T12:13:31Z</time>
      </trkpt>
      <trkpt lat="48.55409" lon="1.96513">
        <ele>152.82</ele>
        <time>2017-07-02T12:13:33Z</time>
      </trkpt>
      <trkpt lat="48.55398" lon="1.96523">
        <ele>153.35</ele>
        <time>2017-07-02T12:13:43Z</time>
      </trkpt>
      <trkpt lat="48.5539" lon="1.96529">
        <ele>153.24</ele>
        <time>2017-07-02T12:13:51Z</time>
      </trkpt>
      <trkpt lat="48.55372" lon="1.96545">
        <ele>153.13</ele>
        <time>2017-07-02T12:14:09Z</time>
      </trkpt>
      <trkpt lat="48.55362" lon="1.96552">
        <ele>152.92</ele>
        <time>2017-07-02T12:14:19Z</time>
      </trkpt>
      <trkpt lat="48.55356" lon="1.96557">
        <ele>152.39</ele>
        <time>2017-07-02T12:14:24Z</time>
      </trkpt>
      <trkpt lat="48.55342" lon="1.96568">
        <ele>153.11</ele>
        <time>2017-07-02T12:14:41Z</time>
      </trkpt>
      <trkpt lat="48.55338" lon="1.96577">
        <ele>153.08</ele>
        <time>2017-07-02T12:14:56Z</time>
      </trkpt>
      <trkpt lat="48.55335" lon="1.96583">
        <ele>153.07</ele>
        <time>2017-07-02T12:15:20Z</time>
      </trkpt>
      <trkpt lat="48.5533" lon="1.96574">
        <ele>153.55</ele>
        <time>2017-07-02T12:15:44Z</time>
      </trkpt>
      <trkpt lat="48.55329" lon="1.96574">
        <ele>153.26</ele>
        <time>2017-07-02T12:15:55Z</time>
      </trkpt>
      <trkpt lat="48.5533" lon="1.96581">
        <ele>153.34</ele>
        <time>2017-07-02T12:16:16Z</time>
      </trkpt>
      <trkpt lat="48.55324" lon="1.96591">
        <ele>153.7</ele>
        <time>2017-07-02T12:16:40Z</time>
      </trkpt>
      <trkpt lat="48.55318" lon="1.96597">
        <ele>152.82</ele>
        <time>2017-07-02T12:16:55Z</time>
      </trkpt>
      <trkpt lat="48.55312" lon="1.96606">
        <ele>152.75</ele>
        <time>2017-07-02T12:17:09Z</time>
      </trkpt>
      <trkpt lat="48.55309" lon="1.96614">
        <ele>152.88</ele>
        <time>2017-07-02T12:17:17Z</time>
      </trkpt>
      <trkpt lat="48.55307" lon="1.9661">
        <ele>153.12</ele>
        <time>2017-07-02T12:17:40Z</time>
      </trkpt>
      <trkpt lat="48.55309" lon="1.96612">
        <ele>152.8</ele>
        <time>2017-07-02T12:18:03Z</time>
      </trkpt>
      <trkpt lat="48.55295" lon="1.96623">
        <ele>153.72</ele>
        <time>2017-07-02T12:18:19Z</time>
      </trkpt>
      <trkpt lat="48.55291" lon="1.96627">
        <ele>153.77</ele>
        <time>2017-07-02T12:18:32Z</time>
      </trkpt>
      <trkpt lat="48.55279" lon="1.96638">
        <ele>153.66</ele>
        <time>2017-07-02T12:18:50Z</time>
      </trkpt>
      <trkpt lat="48.5527" lon="1.96643">
        <ele>154.21</ele>
        <time>2017-07-02T12:19:03Z</time>
      </trkpt>
      <trkpt lat="48.55263" lon="1.96653">
        <ele>153.68</ele>
        <time>2017-07-02T12:19:19Z</time>
      </trkpt>
      <trkpt lat="48.55258" lon="1.96656">
        <ele>153.53</ele>
        <time>2017-07-02T12:19:25Z</time>
      </trkpt>
      <trkpt lat="48.55246" lon="1.96664">
        <ele>153.72</ele>
        <time>2017-07-02T12:19:37Z</time>
      </trkpt>
      <trkpt lat="48.55242" lon="1.96666">
        <ele>153.81</ele>
        <time>2017-07-02T12:19:42Z</time>
      </trkpt>
      <trkpt lat="48.55231" lon="1.96678">
        <ele>153.45</ele>
        <time>2017-07-02T12:19:54Z</time>
      </trkpt>
      <trkpt lat="48.55226" lon="1.96683">
        <ele>153.45</ele>
        <time>2017-07-02T12:20:00Z</time>
      </trkpt>
      <trkpt lat="48.5521" lon="1.96696">
        <ele>153.46</ele>
        <time>2017-07-02T12:20:15Z</time>
      </trkpt>
      <trkpt lat="48.55193" lon="1.96714">
        <ele>153.33</ele>
        <time>2017-07-02T12:20:32Z</time>
      </trkpt>
      <trkpt lat="48.55183" lon="1.96725">
        <ele>153.37</ele>
        <time>2017-07-02T12:20:45Z</time>
      </trkpt>
      <trkpt lat="48.55167" lon="1.96747">
        <ele>153.36</ele>
        <time>2017-07-02T12:20:56Z</time>
      </trkpt>
      <trkpt lat="48.55145" lon="1.96763">
        <ele>153.2</ele>
        <time>2017-07-02T12:21:12Z</time>
      </trkpt>
      <trkpt lat="48.55133" lon="1.96775">
        <ele>152.77</ele>
        <time>2017-07-02T12:21:31Z</time>
      </trkpt>
      <trkpt lat="48.55114" lon="1.96794">
        <ele>152.75</ele>
        <time>2017-07-02T12:21:53Z</time>
      </trkpt>
      <trkpt lat="48.55111" lon="1.96798">
        <ele>153.48</ele>
        <time>2017-07-02T12:21:55Z</time>
      </trkpt>
      <trkpt lat="48.551" lon="1.96809">
        <ele>153.07</ele>
        <time>2017-07-02T12:22:08Z</time>
      </trkpt>
      <trkpt lat="48.55094" lon="1.96814">
        <ele>153.09</ele>
        <time>2017-07-02T12:22:17Z</time>
      </trkpt>
      <trkpt lat="48.55087" lon="1.96819">
        <ele>152.88</ele>
        <time>2017-07-02T12:22:24Z</time>
      </trkpt>
      <trkpt lat="48.55075" lon="1.96827">
        <ele>152.54</ele>
        <time>2017-07-02T12:22:37Z</time>
      </trkpt>
      <trkpt lat="48.55056" lon="1.96845">
        <ele>152.13</ele>
        <time>2017-07-02T12:22:53Z</time>
      </trkpt>
      <trkpt lat="48.55045" lon="1.96855">
        <ele>152.39</ele>
        <time>2017-07-02T12:23:06Z</time>
      </trkpt>
      <trkpt lat="48.55034" lon="1.96864">
        <ele>152.39</ele>
        <time>2017-07-02T12:23:21Z</time>
      </trkpt>
      <trkpt lat="48.5501" lon="1.96894">
        <ele>152.45</ele>
        <time>2017-07-02T12:23:36Z</time>
      </trkpt>
      <trkpt lat="48.55" lon="1.96903">
        <ele>151.89</ele>
        <time>2017-07-02T12:23:46Z</time>
      </trkpt>
      <trkpt lat="48.54989" lon="1.96908">
        <ele>151.83</ele>
        <time>2017-07-02T12:23:59Z</time>
      </trkpt>
      <trkpt lat="48.54975" lon="1.96921">
        <ele>151.93</ele>
        <time>2017-07-02T12:24:10Z</time>
      </trkpt>
      <trkpt lat="48.5496" lon="1.96934">
        <ele>151.92</ele>
        <time>2017-07-02T12:24:23Z</time>
      </trkpt>
      <trkpt lat="48.54946" lon="1.96945">
        <ele>151.44</ele>
        <time>2017-07-02T12:24:38Z</time>
      </trkpt>
      <trkpt lat="48.54931" lon="1.96964">
        <ele>151.43</ele>
        <time>2017-07-02T12:24:52Z</time>
      </trkpt>
      <trkpt lat="48.5492" lon="1.96973">
        <ele>151.11</ele>
        <time>2017-07-02T12:25:06Z</time>
      </trkpt>
      <trkpt lat="48.54903" lon="1.96981">
        <ele>151.1</ele>
        <time>2017-07-02T12:25:26Z</time>
      </trkpt>
      <trkpt lat="48.54888" lon="1.96999">
        <ele>150.42</ele>
        <time>2017-07-02T12:25:37Z</time>
      </trkpt>
      <trkpt lat="48.54881" lon="1.97004">
        <ele>150.49</ele>
        <time>2017-07-02T12:25:47Z</time>
      </trkpt>
      <trkpt lat="48.54866" lon="1.9702">
        <ele>150.29</ele>
        <time>2017-07-02T12:26:00Z</time>
      </trkpt>
      <trkpt lat="48.54853" lon="1.97036">
        <ele>149.78</ele>
        <time>2017-07-02T12:26:17Z</time>
      </trkpt>
      <trkpt lat="48.54832" lon="1.97061">
        <ele>149.77</ele>
        <time>2017-07-02T12:26:36Z</time>
      </trkpt>
      <trkpt lat="48.54819" lon="1.97071">
        <ele>149.33</ele>
        <time>2017-07-02T12:26:48Z</time>
      </trkpt>
      <trkpt lat="48.54818" lon="1.97072">
        <ele>149.69</ele>
        <time>2017-07-02T12:26:49Z</time>
      </trkpt>
      <trkpt lat="48.54812" lon="1.97076">
        <ele>149.15</ele>
        <time>2017-07-02T12:26:56Z</time>
      </trkpt>
      <trkpt lat="48.54794" lon="1.97094">
        <ele>149.65</ele>
        <time>2017-07-02T12:27:12Z</time>
      </trkpt>
      <trkpt lat="48.54775" lon="1.97111">
        <ele>149.37</ele>
        <time>2017-07-02T12:27:28Z</time>
      </trkpt>
      <trkpt lat="48.54765" lon="1.97118">
        <ele>149.59</ele>
        <time>2017-07-02T12:27:42Z</time>
      </trkpt>
      <trkpt lat="48.54751" lon="1.97132">
        <ele>149.59</ele>
        <time>2017-07-02T12:27:53Z</time>
      </trkpt>
      <trkpt lat="48.5473" lon="1.97152">
        <ele>149.77</ele>
        <time>2017-07-02T12:28:07Z</time>
      </trkpt>
      <trkpt lat="48.5472" lon="1.9716">
        <ele>149.76</ele>
        <time>2017-07-02T12:28:13Z</time>
      </trkpt>
      <trkpt lat="48.5471" lon="1.97168">
        <ele>149.32</ele>
        <time>2017-07-02T12:28:25Z</time>
      </trkpt>
      <trkpt lat="48.54704" lon="1.97179">
        <ele>150.08</ele>
        <time>2017-07-02T12:28:39Z</time>
      </trkpt>
      <trkpt lat="48.54704" lon="1.97183">
        <ele>148.7</ele>
        <time>2017-07-02T12:28:47Z</time>
      </trkpt>
      <trkpt lat="48.54702" lon="1.9718">
        <ele>149.77</ele>
        <time>2017-07-02T12:29:13Z</time>
      </trkpt>
      <trkpt lat="48.54701" lon="1.97178">
        <ele>150.03</ele>
        <time>2017-07-02T12:29:25Z</time>
      </trkpt>
      <trkpt lat="48.547" lon="1.97185">
        <ele>149.51</ele>
        <time>2017-07-02T12:29:44Z</time>
      </trkpt>
      <trkpt lat="48.54698" lon="1.97182">
        <ele>149.43</ele>
        <time>2017-07-02T12:30:10Z</time>
      </trkpt>
      <trkpt lat="48.54698" lon="1.97184">
        <ele>149.69</ele>
        <time>2017-07-02T12:30:38Z</time>
      </trkpt>
      <trkpt lat="48.54695" lon="1.97205">
        <ele>149.71</ele>
        <time>2017-07-02T12:30:57Z</time>
      </trkpt>
      <trkpt lat="48.54693" lon="1.9722">
        <ele>149.82</ele>
        <time>2017-07-02T12:31:09Z</time>
      </trkpt>
      <trkpt lat="48.54689" lon="1.97242">
        <ele>149.72</ele>
        <time>2017-07-02T12:31:27Z</time>
      </trkpt>
      <trkpt lat="48.54678" lon="1.97276">
        <ele>150.04</ele>
        <time>2017-07-02T12:31:47Z</time>
      </trkpt>
      <trkpt lat="48.54672" lon="1.97302">
        <ele>150.26</ele>
        <time>2017-07-02T12:32:03Z</time>
      </trkpt>
      <trkpt lat="48.54663" lon="1.9733">
        <ele>150.49</ele>
        <time>2017-07-02T12:32:21Z</time>
      </trkpt>
      <trkpt lat="48.54655" lon="1.9735">
        <ele>150.41</ele>
        <time>2017-07-02T12:32:31Z</time>
      </trkpt>
      <trkpt lat="48.54653" lon="1.97355">
        <ele>150.53</ele>
        <time>2017-07-02T12:32:35Z</time>
      </trkpt>
      <trkpt lat="48.54649" lon="1.97367">
        <ele>150.31</ele>
        <time>2017-07-02T12:32:45Z</time>
      </trkpt>
      <trkpt lat="48.54641" lon="1.97392">
        <ele>150.47</ele>
        <time>2017-07-02T12:33:01Z</time>
      </trkpt>
      <trkpt lat="48.54635" lon="1.9741">
        <ele>150.49</ele>
        <time>2017-07-02T12:33:11Z</time>
      </trkpt>
      <trkpt lat="48.54626" lon="1.9743">
        <ele>149.98</ele>
        <time>2017-07-02T12:33:22Z</time>
      </trkpt>
      <trkpt lat="48.54617" lon="1.97457">
        <ele>150.23</ele>
        <time>2017-07-02T12:33:37Z</time>
      </trkpt>
      <trkpt lat="48.54608" lon="1.97482">
        <ele>149.76</ele>
        <time>2017-07-02T12:33:51Z</time>
      </trkpt>
      <trkpt lat="48.54599" lon="1.97504">
        <ele>150.12</ele>
        <time>2017-07-02T12:34:04Z</time>
      </trkpt>
      <trkpt lat="48.54592" lon="1.97526">
        <ele>149.57</ele>
        <time>2017-07-02T12:34:18Z</time>
      </trkpt>
      <trkpt lat="48.54584" lon="1.97546">
        <ele>150.12</ele>
        <time>2017-07-02T12:34:29Z</time>
      </trkpt>
      <trkpt lat="48.54575" lon="1.97572">
        <ele>149.21</ele>
        <time>2017-07-02T12:34:47Z</time>
      </trkpt>
      <trkpt lat="48.54569" lon="1.97595">
        <ele>149.36</ele>
        <time>2017-07-02T12:34:59Z</time>
      </trkpt>
      <trkpt lat="48.54563" lon="1.97608">
        <ele>150.17</ele>
        <time>2017-07-02T12:35:07Z</time>
      </trkpt>
      <trkpt lat="48.54558" lon="1.97621">
        <ele>149.43</ele>
        <time>2017-07-02T12:35:15Z</time>
      </trkpt>
      <trkpt lat="48.54555" lon="1.97632">
        <ele>149.59</ele>
        <time>2017-07-02T12:35:25Z</time>
      </trkpt>
      <trkpt lat="48.54546" lon="1.97658">
        <ele>149.2</ele>
        <time>2017-07-02T12:35:40Z</time>
      </trkpt>
      <trkpt lat="48.5454" lon="1.97676">
        <ele>149.38</ele>
        <time>2017-07-02T12:35:51Z</time>
      </trkpt>
      <trkpt lat="48.54531" lon="1.977">
        <ele>148.76</ele>
        <time>2017-07-02T12:36:05Z</time>
      </trkpt>
      <trkpt lat="48.54526" lon="1.97716">
        <ele>148.53</ele>
        <time>2017-07-02T12:36:17Z</time>
      </trkpt>
      <trkpt lat="48.5452" lon="1.97732">
        <ele>148.26</ele>
        <time>2017-07-02T12:36:29Z</time>
      </trkpt>
      <trkpt lat="48.5451" lon="1.97764">
        <ele>148.45</ele>
        <time>2017-07-02T12:36:46Z</time>
      </trkpt>
      <trkpt lat="48.54494" lon="1.97805">
        <ele>148.5</ele>
        <time>2017-07-02T12:37:12Z</time>
      </trkpt>
      <trkpt lat="48.54487" lon="1.97832">
        <ele>148</ele>
        <time>2017-07-02T12:37:29Z</time>
      </trkpt>
      <trkpt lat="48.54486" lon="1.97835">
        <ele>148.14</ele>
        <time>2017-07-02T12:37:31Z</time>
      </trkpt>
      <trkpt lat="48.5448" lon="1.97854">
        <ele>147.64</ele>
        <time>2017-07-02T12:37:45Z</time>
      </trkpt>
      <trkpt lat="48.5447" lon="1.97881">
        <ele>147.4</ele>
        <time>2017-07-02T12:38:03Z</time>
      </trkpt>
      <trkpt lat="48.54461" lon="1.97906">
        <ele>147.46</ele>
        <time>2017-07-02T12:38:20Z</time>
      </trkpt>
      <trkpt lat="48.54451" lon="1.97927">
        <ele>147.56</ele>
        <time>2017-07-02T12:38:29Z</time>
      </trkpt>
      <trkpt lat="48.54438" lon="1.97954">
        <ele>147.21</ele>
        <time>2017-07-02T12:38:43Z</time>
      </trkpt>
      <trkpt lat="48.54426" lon="1.97982">
        <ele>147.53</ele>
        <time>2017-07-02T12:39:01Z</time>
      </trkpt>
      <trkpt lat="48.5442" lon="1.98006">
        <ele>148.09</ele>
        <time>2017-07-02T12:39:18Z</time>
      </trkpt>
      <trkpt lat="48.54418" lon="1.98014">
        <ele>147.52</ele>
        <time>2017-07-02T12:39:25Z</time>
      </trkpt>
      <trkpt lat="48.54412" lon="1.98034">
        <ele>147.81</ele>
        <time>2017-07-02T12:39:47Z</time>
      </trkpt>
      <trkpt lat="48.54404" lon="1.98057">
        <ele>147.36</ele>
        <time>2017-07-02T12:40:04Z</time>
      </trkpt>
      <trkpt lat="48.54396" lon="1.9808">
        <ele>147.11</ele>
        <time>2017-07-02T12:40:18Z</time>
      </trkpt>
      <trkpt lat="48.54382" lon="1.98114">
        <ele>146.57</ele>
        <time>2017-07-02T12:40:38Z</time>
      </trkpt>
      <trkpt lat="48.54371" lon="1.98143">
        <ele>146.7</ele>
        <time>2017-07-02T12:40:58Z</time>
      </trkpt>
      <trkpt lat="48.54361" lon="1.98172">
        <ele>146.43</ele>
        <time>2017-07-02T12:41:19Z</time>
      </trkpt>
      <trkpt lat="48.54355" lon="1.98183">
        <ele>146.78</ele>
        <time>2017-07-02T12:41:42Z</time>
      </trkpt>
      <trkpt lat="48.54354" lon="1.98186">
        <ele>146.8</ele>
        <time>2017-07-02T12:42:04Z</time>
      </trkpt>
      <trkpt lat="48.54352" lon="1.98193">
        <ele>146.96</ele>
        <time>2017-07-02T12:42:19Z</time>
      </trkpt>
      <trkpt lat="48.54348" lon="1.98199">
        <ele>147.49</ele>
        <time>2017-07-02T12:42:42Z</time>
      </trkpt>
      <trkpt lat="48.54349" lon="1.98198">
        <ele>146.77</ele>
        <time>2017-07-02T12:43:02Z</time>
      </trkpt>
      <trkpt lat="48.54353" lon="1.982">
        <ele>147.14</ele>
        <time>2017-07-02T12:43:23Z</time>
      </trkpt>
      <trkpt lat="48.54349" lon="1.98207">
        <ele>147.39</ele>
        <time>2017-07-02T12:43:57Z</time>
      </trkpt>
      <trkpt lat="48.54343" lon="1.98215">
        <ele>147.24</ele>
        <time>2017-07-02T12:44:20Z</time>
      </trkpt>
      <trkpt lat="48.54349" lon="1.98223">
        <ele>147.53</ele>
        <time>2017-07-02T12:44:38Z</time>
      </trkpt>
      <trkpt lat="48.54346" lon="1.98238">
        <ele>146.69</ele>
        <time>2017-07-02T12:44:55Z</time>
      </trkpt>
      <trkpt lat="48.5434" lon="1.98268">
        <ele>148.01</ele>
        <time>2017-07-02T12:45:17Z</time>
      </trkpt>
      <trkpt lat="48.54342" lon="1.98293">
        <ele>148.71</ele>
        <time>2017-07-02T12:45:37Z</time>
      </trkpt>
      <trkpt lat="48.54338" lon="1.98329">
        <ele>148.69</ele>
        <time>2017-07-02T12:45:55Z</time>
      </trkpt>
      <trkpt lat="48.54336" lon="1.98342">
        <ele>148.83</ele>
        <time>2017-07-02T12:46:02Z</time>
      </trkpt>
      <trkpt lat="48.54335" lon="1.98372">
        <ele>149.56</ele>
        <time>2017-07-02T12:46:21Z</time>
      </trkpt>
      <trkpt lat="48.54333" lon="1.9839">
        <ele>148.05</ele>
        <time>2017-07-02T12:46:33Z</time>
      </trkpt>
      <trkpt lat="48.54335" lon="1.98405">
        <ele>148.07</ele>
        <time>2017-07-02T12:46:42Z</time>
      </trkpt>
      <trkpt lat="48.54335" lon="1.98433">
        <ele>148.49</ele>
        <time>2017-07-02T12:47:01Z</time>
      </trkpt>
      <trkpt lat="48.5433" lon="1.98456">
        <ele>147.89</ele>
        <time>2017-07-02T12:47:15Z</time>
      </trkpt>
      <trkpt lat="48.54326" lon="1.98482">
        <ele>147.53</ele>
        <time>2017-07-02T12:47:31Z</time>
      </trkpt>
      <trkpt lat="48.5433" lon="1.98516">
        <ele>147.56</ele>
        <time>2017-07-02T12:47:50Z</time>
      </trkpt>
      <trkpt lat="48.5433" lon="1.98542">
        <ele>147.13</ele>
        <time>2017-07-02T12:48:03Z</time>
      </trkpt>
      <trkpt lat="48.54332" lon="1.98565">
        <ele>146.94</ele>
        <time>2017-07-02T12:48:19Z</time>
      </trkpt>
      <trkpt lat="48.54334" lon="1.98607">
        <ele>146.33</ele>
        <time>2017-07-02T12:48:42Z</time>
      </trkpt>
      <trkpt lat="48.54333" lon="1.98624">
        <ele>146.14</ele>
        <time>2017-07-02T12:48:57Z</time>
      </trkpt>
      <trkpt lat="48.54332" lon="1.98655">
        <ele>145.87</ele>
        <time>2017-07-02T12:49:15Z</time>
      </trkpt>
      <trkpt lat="48.54325" lon="1.98687">
        <ele>145.68</ele>
        <time>2017-07-02T12:49:37Z</time>
      </trkpt>
      <trkpt lat="48.54318" lon="1.98718">
        <ele>145.14</ele>
        <time>2017-07-02T12:49:58Z</time>
      </trkpt>
      <trkpt lat="48.54303" lon="1.98753">
        <ele>144.85</ele>
        <time>2017-07-02T12:50:25Z</time>
      </trkpt>
      <trkpt lat="48.54295" lon="1.98777">
        <ele>144.86</ele>
        <time>2017-07-02T12:50:43Z</time>
      </trkpt>
      <trkpt lat="48.54291" lon="1.98786">
        <ele>144.21</ele>
        <time>2017-07-02T12:50:50Z</time>
      </trkpt>
      <trkpt lat="48.54272" lon="1.9882">
        <ele>142.43</ele>
        <time>2017-07-02T12:51:10Z</time>
      </trkpt>
      <trkpt lat="48.54261" lon="1.98834">
        <ele>142.88</ele>
        <time>2017-07-02T12:51:26Z</time>
      </trkpt>
      <trkpt lat="48.54254" lon="1.98846">
        <ele>143.09</ele>
        <time>2017-07-02T12:51:39Z</time>
      </trkpt>
      <trkpt lat="48.54239" lon="1.98864">
        <ele>141.77</ele>
        <time>2017-07-02T12:51:54Z</time>
      </trkpt>
      <trkpt lat="48.54237" lon="1.98869">
        <ele>141.38</ele>
        <time>2017-07-02T12:52:23Z</time>
      </trkpt>
      <trkpt lat="48.5424" lon="1.98873">
        <ele>141.35</ele>
        <time>2017-07-02T12:52:36Z</time>
      </trkpt>
      <trkpt lat="48.54237" lon="1.98877">
        <ele>141.09</ele>
        <time>2017-07-02T12:52:48Z</time>
      </trkpt>
      <trkpt lat="48.54228" lon="1.98887">
        <ele>140.47</ele>
        <time>2017-07-02T12:53:10Z</time>
      </trkpt>
      <trkpt lat="48.54226" lon="1.9889">
        <ele>140.46</ele>
        <time>2017-07-02T12:53:12Z</time>
      </trkpt>
      <trkpt lat="48.54218" lon="1.98899">
        <ele>139.22</ele>
        <time>2017-07-02T12:53:19Z</time>
      </trkpt>
      <trkpt lat="48.54208" lon="1.98913">
        <ele>136.28</ele>
        <time>2017-07-02T12:53:36Z</time>
      </trkpt>
      <trkpt lat="48.54208" lon="1.98914">
        <ele>136.29</ele>
        <time>2017-07-02T12:53:37Z</time>
      </trkpt>
      <trkpt lat="48.54199" lon="1.98924">
        <ele>135.21</ele>
        <time>2017-07-02T12:53:54Z</time>
      </trkpt>
      <trkpt lat="48.54184" lon="1.98933">
        <ele>133.18</ele>
        <time>2017-07-02T12:54:14Z</time>
      </trkpt>
      <trkpt lat="48.54168" lon="1.98948">
        <ele>131.57</ele>
        <time>2017-07-02T12:54:36Z</time>
      </trkpt>
      <trkpt lat="48.5415" lon="1.98964">
        <ele>130.28</ele>
        <time>2017-07-02T12:54:54Z</time>
      </trkpt>
      <trkpt lat="48.54148" lon="1.98967">
        <ele>130.52</ele>
        <time>2017-07-02T12:54:56Z</time>
      </trkpt>
      <trkpt lat="48.5414" lon="1.98973">
        <ele>129.5</ele>
        <time>2017-07-02T12:55:25Z</time>
      </trkpt>
      <trkpt lat="48.54122" lon="1.98984">
        <ele>126.6</ele>
        <time>2017-07-02T12:55:45Z</time>
      </trkpt>
      <trkpt lat="48.54106" lon="1.99005">
        <ele>125.66</ele>
        <time>2017-07-02T12:56:04Z</time>
      </trkpt>
      <trkpt lat="48.5409" lon="1.99018">
        <ele>126.47</ele>
        <time>2017-07-02T12:56:23Z</time>
      </trkpt>
      <trkpt lat="48.54084" lon="1.99026">
        <ele>127.2</ele>
        <time>2017-07-02T12:56:31Z</time>
      </trkpt>
      <trkpt lat="48.54079" lon="1.99035">
        <ele>126.64</ele>
        <time>2017-07-02T12:57:01Z</time>
      </trkpt>
      <trkpt lat="48.54083" lon="1.99032">
        <ele>125.45</ele>
        <time>2017-07-02T12:57:29Z</time>
      </trkpt>
      <trkpt lat="48.54079" lon="1.9904">
        <ele>123.65</ele>
        <time>2017-07-02T12:57:51Z</time>
      </trkpt>
      <trkpt lat="48.54077" lon="1.99042">
        <ele>123.65</ele>
        <time>2017-07-02T12:57:54Z</time>
      </trkpt>
      <trkpt lat="48.54075" lon="1.99044">
        <ele>123.92</ele>
        <time>2017-07-02T12:57:56Z</time>
      </trkpt>
      <trkpt lat="48.54063" lon="1.99056">
        <ele>122.78</ele>
        <time>2017-07-02T12:58:16Z</time>
      </trkpt>
      <trkpt lat="48.54056" lon="1.99065">
        <ele>121.33</ele>
        <time>2017-07-02T12:58:33Z</time>
      </trkpt>
      <trkpt lat="48.5404" lon="1.99089">
        <ele>119.61</ele>
        <time>2017-07-02T12:58:57Z</time>
      </trkpt>
      <trkpt lat="48.54024" lon="1.9911">
        <ele>119.12</ele>
        <time>2017-07-02T12:59:17Z</time>
      </trkpt>
      <trkpt lat="48.53992" lon="1.99139">
        <ele>118.6</ele>
        <time>2017-07-02T12:59:39Z</time>
      </trkpt>
      <trkpt lat="48.53958" lon="1.99166">
        <ele>119.2</ele>
        <time>2017-07-02T13:00:02Z</time>
      </trkpt>
      <trkpt lat="48.53949" lon="1.99172">
        <ele>119.34</ele>
        <time>2017-07-02T13:00:20Z</time>
      </trkpt>
      <trkpt lat="48.53945" lon="1.99176">
        <ele>119.1</ele>
        <time>2017-07-02T13:01:38Z</time>
      </trkpt>
      <trkpt lat="48.53934" lon="1.9918">
        <ele>118.64</ele>
        <time>2017-07-02T13:02:05Z</time>
      </trkpt>
      <trkpt lat="48.53929" lon="1.99186">
        <ele>119.71</ele>
        <time>2017-07-02T13:04:58Z</time>
      </trkpt>
      <trkpt lat="48.53929" lon="1.99189">
        <ele>122.42</ele>
        <time>2017-07-02T13:05:15Z</time>
      </trkpt>
      <trkpt lat="48.53942" lon="1.99224">
        <ele>126.73</ele>
        <time>2017-07-02T13:05:36Z</time>
      </trkpt>
      <trkpt lat="48.53947" lon="1.99242">
        <ele>129.34</ele>
        <time>2017-07-02T13:05:52Z</time>
      </trkpt>
      <trkpt lat="48.53957" lon="1.99255">
        <ele>130.83</ele>
        <time>2017-07-02T13:06:11Z</time>
      </trkpt>
      <trkpt lat="48.53976" lon="1.9927">
        <ele>133.03</ele>
        <time>2017-07-02T13:06:31Z</time>
      </trkpt>
      <trkpt lat="48.53974" lon="1.99292">
        <ele>136.31</ele>
        <time>2017-07-02T13:06:50Z</time>
      </trkpt>
      <trkpt lat="48.53973" lon="1.99297">
        <ele>136.74</ele>
        <time>2017-07-02T13:06:57Z</time>
      </trkpt>
      <trkpt lat="48.53978" lon="1.99311">
        <ele>136.95</ele>
        <time>2017-07-02T13:07:16Z</time>
      </trkpt>
      <trkpt lat="48.53975" lon="1.9933">
        <ele>138.2</ele>
        <time>2017-07-02T13:07:27Z</time>
      </trkpt>
      <trkpt lat="48.53976" lon="1.99356">
        <ele>139.09</ele>
        <time>2017-07-02T13:07:44Z</time>
      </trkpt>
      <trkpt lat="48.53976" lon="1.99383">
        <ele>139.44</ele>
        <time>2017-07-02T13:08:04Z</time>
      </trkpt>
      <trkpt lat="48.53982" lon="1.99394">
        <ele>139.23</ele>
        <time>2017-07-02T13:08:21Z</time>
      </trkpt>
      <trkpt lat="48.53988" lon="1.9943">
        <ele>139.09</ele>
        <time>2017-07-02T13:08:42Z</time>
      </trkpt>
      <trkpt lat="48.53989" lon="1.9945">
        <ele>136.69</ele>
        <time>2017-07-02T13:08:55Z</time>
      </trkpt>
      <trkpt lat="48.53988" lon="1.99479">
        <ele>133.55</ele>
        <time>2017-07-02T13:09:14Z</time>
      </trkpt>
      <trkpt lat="48.53991" lon="1.99494">
        <ele>130.54</ele>
        <time>2017-07-02T13:09:28Z</time>
      </trkpt>
      <trkpt lat="48.53986" lon="1.99514">
        <ele>129.17</ele>
        <time>2017-07-02T13:09:42Z</time>
      </trkpt>
      <trkpt lat="48.53989" lon="1.99548">
        <ele>127.82</ele>
        <time>2017-07-02T13:10:07Z</time>
      </trkpt>
      <trkpt lat="48.53985" lon="1.99569">
        <ele>125.82</ele>
        <time>2017-07-02T13:10:28Z</time>
      </trkpt>
      <trkpt lat="48.53969" lon="1.99587">
        <ele>124.52</ele>
        <time>2017-07-02T13:10:44Z</time>
      </trkpt>
      <trkpt lat="48.5396" lon="1.99596">
        <ele>123.46</ele>
        <time>2017-07-02T13:11:00Z</time>
      </trkpt>
      <trkpt lat="48.53948" lon="1.99609">
        <ele>122.03</ele>
        <time>2017-07-02T13:11:12Z</time>
      </trkpt>
      <trkpt lat="48.53932" lon="1.99616">
        <ele>121.22</ele>
        <time>2017-07-02T13:11:27Z</time>
      </trkpt>
      <trkpt lat="48.53919" lon="1.99633">
        <ele>120.54</ele>
        <time>2017-07-02T13:11:44Z</time>
      </trkpt>
      <trkpt lat="48.53905" lon="1.99644">
        <ele>120.02</ele>
        <time>2017-07-02T13:12:03Z</time>
      </trkpt>
      <trkpt lat="48.53889" lon="1.99658">
        <ele>118.68</ele>
        <time>2017-07-02T13:12:22Z</time>
      </trkpt>
      <trkpt lat="48.53878" lon="1.99669">
        <ele>117.63</ele>
        <time>2017-07-02T13:12:44Z</time>
      </trkpt>
      <trkpt lat="48.53877" lon="1.99673">
        <ele>117.45</ele>
        <time>2017-07-02T13:12:49Z</time>
      </trkpt>
      <trkpt lat="48.53875" lon="1.99679">
        <ele>117.32</ele>
        <time>2017-07-02T13:12:55Z</time>
      </trkpt>
      <trkpt lat="48.53861" lon="1.99705">
        <ele>115.62</ele>
        <time>2017-07-02T13:13:16Z</time>
      </trkpt>
      <trkpt lat="48.53848" lon="1.99732">
        <ele>113.7</ele>
        <time>2017-07-02T13:13:39Z</time>
      </trkpt>
      <trkpt lat="48.53835" lon="1.99755">
        <ele>112.46</ele>
        <time>2017-07-02T13:13:59Z</time>
      </trkpt>
      <trkpt lat="48.53827" lon="1.99777">
        <ele>111.3</ele>
        <time>2017-07-02T13:14:22Z</time>
      </trkpt>
      <trkpt lat="48.53824" lon="1.99787">
        <ele>110.6</ele>
        <time>2017-07-02T13:14:28Z</time>
      </trkpt>
      <trkpt lat="48.53807" lon="1.99829">
        <ele>109.92</ele>
        <time>2017-07-02T13:14:43Z</time>
      </trkpt>
      <trkpt lat="48.53796" lon="1.99846">
        <ele>109.34</ele>
        <time>2017-07-02T13:14:58Z</time>
      </trkpt>
      <trkpt lat="48.53795" lon="1.99854">
        <ele>109.19</ele>
        <time>2017-07-02T13:15:24Z</time>
      </trkpt>
      <trkpt lat="48.53794" lon="1.99857">
        <ele>109.32</ele>
        <time>2017-07-02T13:15:49Z</time>
      </trkpt>
      <trkpt lat="48.5379" lon="1.99856">
        <ele>109.03</ele>
        <time>2017-07-02T13:16:15Z</time>
      </trkpt>
      <trkpt lat="48.53794" lon="1.99864">
        <ele>109.49</ele>
        <time>2017-07-02T13:16:41Z</time>
      </trkpt>
      <trkpt lat="48.53778" lon="1.99866">
        <ele>108.03</ele>
        <time>2017-07-02T13:17:00Z</time>
      </trkpt>
      <trkpt lat="48.53753" lon="1.99879">
        <ele>108.04</ele>
        <time>2017-07-02T13:17:26Z</time>
      </trkpt>
      <trkpt lat="48.53735" lon="1.99894">
        <ele>107.13</ele>
        <time>2017-07-02T13:17:46Z</time>
      </trkpt>
      <trkpt lat="48.5372" lon="1.99908">
        <ele>106.59</ele>
        <time>2017-07-02T13:18:00Z</time>
      </trkpt>
      <trkpt lat="48.537" lon="1.99931">
        <ele>105.98</ele>
        <time>2017-07-02T13:18:18Z</time>
      </trkpt>
      <trkpt lat="48.53695" lon="1.99934">
        <ele>105.66</ele>
        <time>2017-07-02T13:18:23Z</time>
      </trkpt>
      <trkpt lat="48.53679" lon="1.99949">
        <ele>104.75</ele>
        <time>2017-07-02T13:18:38Z</time>
      </trkpt>
      <trkpt lat="48.53677" lon="1.9995">
        <ele>104.91</ele>
        <time>2017-07-02T13:18:40Z</time>
      </trkpt>
      <trkpt lat="48.53672" lon="1.9996">
        <ele>104.61</ele>
        <time>2017-07-02T13:18:45Z</time>
      </trkpt>
      <trkpt lat="48.53658" lon="1.99977">
        <ele>103.65</ele>
        <time>2017-07-02T13:18:59Z</time>
      </trkpt>
      <trkpt lat="48.53639" lon="1.99992">
        <ele>103.11</ele>
        <time>2017-07-02T13:19:17Z</time>
      </trkpt>
      <trkpt lat="48.53622" lon="2.0001">
        <ele>102.83</ele>
        <time>2017-07-02T13:19:34Z</time>
      </trkpt>
      <trkpt lat="48.53608" lon="2.00028">
        <ele>101.86</ele>
        <time>2017-07-02T13:19:50Z</time>
      </trkpt>
      <trkpt lat="48.53592" lon="2.00044">
        <ele>100.61</ele>
        <time>2017-07-02T13:20:08Z</time>
      </trkpt>
      <trkpt lat="48.53573" lon="2.00061">
        <ele>100.4</ele>
        <time>2017-07-02T13:20:26Z</time>
      </trkpt>
      <trkpt lat="48.5356" lon="2.0007">
        <ele>99.68</ele>
        <time>2017-07-02T13:20:40Z</time>
      </trkpt>
      <trkpt lat="48.53547" lon="2.00081">
        <ele>99.23</ele>
        <time>2017-07-02T13:20:54Z</time>
      </trkpt>
      <trkpt lat="48.53534" lon="2.00101">
        <ele>97.5</ele>
        <time>2017-07-02T13:21:10Z</time>
      </trkpt>
      <trkpt lat="48.53515" lon="2.00135">
        <ele>95.92</ele>
        <time>2017-07-02T13:21:30Z</time>
      </trkpt>
      <trkpt lat="48.53509" lon="2.00144">
        <ele>94.64</ele>
        <time>2017-07-02T13:21:34Z</time>
      </trkpt>
      <trkpt lat="48.53494" lon="2.00165">
        <ele>94.08</ele>
        <time>2017-07-02T13:21:48Z</time>
      </trkpt>
      <trkpt lat="48.5348" lon="2.00162">
        <ele>93.9</ele>
        <time>2017-07-02T13:22:03Z</time>
      </trkpt>
      <trkpt lat="48.53481" lon="2.00164">
        <ele>93.78</ele>
        <time>2017-07-02T13:22:28Z</time>
      </trkpt>
      <trkpt lat="48.53478" lon="2.00178">
        <ele>94.48</ele>
        <time>2017-07-02T13:22:49Z</time>
      </trkpt>
      <trkpt lat="48.53475" lon="2.00181">
        <ele>94.12</ele>
        <time>2017-07-02T13:22:51Z</time>
      </trkpt>
      <trkpt lat="48.53471" lon="2.00186">
        <ele>94.12</ele>
        <time>2017-07-02T13:22:55Z</time>
      </trkpt>
      <trkpt lat="48.53455" lon="2.0021">
        <ele>93.9</ele>
        <time>2017-07-02T13:23:14Z</time>
      </trkpt>
      <trkpt lat="48.5345" lon="2.00234">
        <ele>94.04</ele>
        <time>2017-07-02T13:23:28Z</time>
      </trkpt>
      <trkpt lat="48.53446" lon="2.00261">
        <ele>93.49</ele>
        <time>2017-07-02T13:23:45Z</time>
      </trkpt>
      <trkpt lat="48.53446" lon="2.00263">
        <ele>94.04</ele>
        <time>2017-07-02T13:23:46Z</time>
      </trkpt>
      <trkpt lat="48.53444" lon="2.00289">
        <ele>94.09</ele>
        <time>2017-07-02T13:24:02Z</time>
      </trkpt>
      <trkpt lat="48.53436" lon="2.0032">
        <ele>94.3</ele>
        <time>2017-07-02T13:24:20Z</time>
      </trkpt>
      <trkpt lat="48.5343" lon="2.00349">
        <ele>95.42</ele>
        <time>2017-07-02T13:24:34Z</time>
      </trkpt>
      <trkpt lat="48.53429" lon="2.00356">
        <ele>95.22</ele>
        <time>2017-07-02T13:24:38Z</time>
      </trkpt>
      <trkpt lat="48.53425" lon="2.00381">
        <ele>96.13</ele>
        <time>2017-07-02T13:24:52Z</time>
      </trkpt>
      <trkpt lat="48.53419" lon="2.00408">
        <ele>96.83</ele>
        <time>2017-07-02T13:25:08Z</time>
      </trkpt>
      <trkpt lat="48.53415" lon="2.00428">
        <ele>97.47</ele>
        <time>2017-07-02T13:25:20Z</time>
      </trkpt>
      <trkpt lat="48.53411" lon="2.00449">
        <ele>97.91</ele>
        <time>2017-07-02T13:25:32Z</time>
      </trkpt>
      <trkpt lat="48.53405" lon="2.00476">
        <ele>98.63</ele>
        <time>2017-07-02T13:25:45Z</time>
      </trkpt>
      <trkpt lat="48.534" lon="2.00499">
        <ele>99.03</ele>
        <time>2017-07-02T13:26:00Z</time>
      </trkpt>
      <trkpt lat="48.53394" lon="2.00529">
        <ele>99.78</ele>
        <time>2017-07-02T13:26:18Z</time>
      </trkpt>
      <trkpt lat="48.53386" lon="2.00568">
        <ele>100.87</ele>
        <time>2017-07-02T13:26:41Z</time>
      </trkpt>
      <trkpt lat="48.53385" lon="2.00596">
        <ele>101.33</ele>
        <time>2017-07-02T13:26:58Z</time>
      </trkpt>
      <trkpt lat="48.53384" lon="2.00599">
        <ele>101.71</ele>
        <time>2017-07-02T13:27:00Z</time>
      </trkpt>
      <trkpt lat="48.53383" lon="2.00609">
        <ele>102.12</ele>
        <time>2017-07-02T13:27:06Z</time>
      </trkpt>
      <trkpt lat="48.53382" lon="2.00626">
        <ele>102.13</ele>
        <time>2017-07-02T13:27:17Z</time>
      </trkpt>
      <trkpt lat="48.53381" lon="2.00633">
        <ele>101.63</ele>
        <time>2017-07-02T13:27:21Z</time>
      </trkpt>
      <trkpt lat="48.53381" lon="2.00659">
        <ele>102.27</ele>
        <time>2017-07-02T13:27:36Z</time>
      </trkpt>
      <trkpt lat="48.5338" lon="2.00679">
        <ele>102.31</ele>
        <time>2017-07-02T13:27:50Z</time>
      </trkpt>
      <trkpt lat="48.5338" lon="2.00683">
        <ele>102.38</ele>
        <time>2017-07-02T13:27:52Z</time>
      </trkpt>
      <trkpt lat="48.53374" lon="2.00717">
        <ele>102.75</ele>
        <time>2017-07-02T13:28:10Z</time>
      </trkpt>
      <trkpt lat="48.5337" lon="2.0074">
        <ele>102.62</ele>
        <time>2017-07-02T13:28:24Z</time>
      </trkpt>
      <trkpt lat="48.5337" lon="2.00747">
        <ele>102.69</ele>
        <time>2017-07-02T13:28:33Z</time>
      </trkpt>
      <trkpt lat="48.53371" lon="2.0075">
        <ele>102.76</ele>
        <time>2017-07-02T13:28:35Z</time>
      </trkpt>
      <trkpt lat="48.5337" lon="2.00756">
        <ele>102.43</ele>
        <time>2017-07-02T13:28:39Z</time>
      </trkpt>
      <trkpt lat="48.53367" lon="2.00784">
        <ele>102.84</ele>
        <time>2017-07-02T13:28:56Z</time>
      </trkpt>
      <trkpt lat="48.5336" lon="2.00812">
        <ele>102.35</ele>
        <time>2017-07-02T13:29:14Z</time>
      </trkpt>
      <trkpt lat="48.53352" lon="2.00842">
        <ele>102.12</ele>
        <time>2017-07-02T13:29:32Z</time>
      </trkpt>
      <trkpt lat="48.5335" lon="2.00845">
        <ele>101.7</ele>
        <time>2017-07-02T13:29:34Z</time>
      </trkpt>
      <trkpt lat="48.5334" lon="2.00854">
        <ele>102.73</ele>
        <time>2017-07-02T13:29:43Z</time>
      </trkpt>
      <trkpt lat="48.53335" lon="2.00878">
        <ele>102.44</ele>
        <time>2017-07-02T13:29:58Z</time>
      </trkpt>
      <trkpt lat="48.53333" lon="2.00891">
        <ele>102.33</ele>
        <time>2017-07-02T13:30:06Z</time>
      </trkpt>
      <trkpt lat="48.53335" lon="2.009">
        <ele>102.05</ele>
        <time>2017-07-02T13:30:22Z</time>
      </trkpt>
      <trkpt lat="48.53336" lon="2.00903">
        <ele>102.53</ele>
        <time>2017-07-02T13:30:24Z</time>
      </trkpt>
      <trkpt lat="48.53336" lon="2.0092">
        <ele>101.55</ele>
        <time>2017-07-02T13:30:33Z</time>
      </trkpt>
      <trkpt lat="48.53336" lon="2.0094">
        <ele>101.59</ele>
        <time>2017-07-02T13:30:39Z</time>
      </trkpt>
      <trkpt lat="48.5334" lon="2.00952">
        <ele>101.8</ele>
        <time>2017-07-02T13:30:51Z</time>
      </trkpt>
      <trkpt lat="48.53344" lon="2.0097">
        <ele>102.77</ele>
        <time>2017-07-02T13:31:11Z</time>
      </trkpt>
    </trkseg>
  </trk>
</gpx>